<?xml version="1.0" encoding="UTF-8" standalone="no" ?>
<gpx xmlns="http://www.topografix.com/GPX/1/1" xmlns:xsi="http://www.w3.org/2001/XMLSchema-instance" xsi:schemaLocation="http://www.topografix.com/GPX/1/1 http://www.topografix.com/GPX/1/1/gpx.xsd" version="1.1" creator="VisuGPX - https://www.visugpx.com">
  <metadata>
    <name>2016-09-01 Cantal-Gorges du Bes</name>
    <desc><![CDATA[2016-09-01 Cantal-Gorges du Bes]]></desc>
  </metadata>
  <wpt lat="44.86447" lon="3.09158">
    <ele>969</ele>
    <name><![CDATA[2016-09-01 14:15 (Start)]]></name>
  </wpt>
  <wpt lat="44.86554" lon="3.09197">
    <ele>974</ele>
    <name><![CDATA[2016-09-01 14:15 (End)]]></name>
    <desc><![CDATA[Created by Google My Tracks on Android  Name: 2016-09-01 14:15 Activity type: walking Description: - Total distance: 8.46 km (5.3 mi) Total time: 2:22:20 Moving time: 1:20:24 Average speed: 3.57 km/h (2.2 mi/h) Average moving speed: 6.31 km/h (3.9 mi/h) Max speed: 7.85 km/h (4.9 mi/h) Average pace: 16:49 min/km (27:04 min/mi) Average moving pace: 9:30 min/km (15:18 min/mi) Fastest pace: 7:38 min/km (12:18 min/mi) Max elevation: 1023 m (3356 ft) Min elevation: 960 m (3148 ft) Elevation gain: 1202 m (3945 ft) Max grade: 11 % Min grade: -15 % Recorded: 01/09/2016 14:15]]></desc>
  </wpt>
  <trk>
    <name><![CDATA[2016-09-01 14:15]]></name>
    <trkseg>
      <trkpt lat="44.86447" lon="3.09158">
        <ele>969</ele>
        <time>2016-09-01T12:15:31.932Z</time>
      </trkpt>
      <trkpt lat="44.86445" lon="3.09159">
        <ele>969</ele>
        <time>2016-09-01T12:16:19Z</time>
      </trkpt>
      <trkpt lat="44.86444" lon="3.09155">
        <ele>969</ele>
        <time>2016-09-01T12:16:20Z</time>
      </trkpt>
      <trkpt lat="44.86441" lon="3.09145">
        <ele>969</ele>
        <time>2016-09-01T12:16:26Z</time>
      </trkpt>
      <trkpt lat="44.8644" lon="3.09144">
        <ele>969</ele>
        <time>2016-09-01T12:16:27Z</time>
      </trkpt>
      <trkpt lat="44.86433" lon="3.09143">
        <ele>969</ele>
        <time>2016-09-01T12:16:34Z</time>
      </trkpt>
      <trkpt lat="44.86431" lon="3.09145">
        <ele>969</ele>
        <time>2016-09-01T12:16:35Z</time>
      </trkpt>
      <trkpt lat="44.86423" lon="3.09142">
        <ele>969</ele>
        <time>2016-09-01T12:16:42Z</time>
      </trkpt>
      <trkpt lat="44.86422" lon="3.09141">
        <ele>969</ele>
        <time>2016-09-01T12:16:43Z</time>
      </trkpt>
      <trkpt lat="44.86414" lon="3.09137">
        <ele>969</ele>
        <time>2016-09-01T12:16:49Z</time>
      </trkpt>
      <trkpt lat="44.86413" lon="3.09137">
        <ele>969</ele>
        <time>2016-09-01T12:16:50Z</time>
      </trkpt>
      <trkpt lat="44.86405" lon="3.09142">
        <ele>969</ele>
        <time>2016-09-01T12:16:55Z</time>
      </trkpt>
      <trkpt lat="44.86404" lon="3.09143">
        <ele>969</ele>
        <time>2016-09-01T12:16:56Z</time>
      </trkpt>
      <trkpt lat="44.86396" lon="3.09139">
        <ele>970</ele>
        <time>2016-09-01T12:17:01Z</time>
      </trkpt>
      <trkpt lat="44.86394" lon="3.0914">
        <ele>970</ele>
        <time>2016-09-01T12:17:02Z</time>
      </trkpt>
      <trkpt lat="44.86385" lon="3.09141">
        <ele>970</ele>
        <time>2016-09-01T12:17:09Z</time>
      </trkpt>
      <trkpt lat="44.86384" lon="3.09141">
        <ele>970</ele>
        <time>2016-09-01T12:17:10Z</time>
      </trkpt>
      <trkpt lat="44.86376" lon="3.09144">
        <ele>970</ele>
        <time>2016-09-01T12:17:18Z</time>
      </trkpt>
      <trkpt lat="44.86373" lon="3.09146">
        <ele>970</ele>
        <time>2016-09-01T12:17:19Z</time>
      </trkpt>
      <trkpt lat="44.86365" lon="3.09143">
        <ele>971</ele>
        <time>2016-09-01T12:17:25Z</time>
      </trkpt>
      <trkpt lat="44.86364" lon="3.09143">
        <ele>971</ele>
        <time>2016-09-01T12:17:26Z</time>
      </trkpt>
      <trkpt lat="44.86355" lon="3.09143">
        <ele>971</ele>
        <time>2016-09-01T12:17:32Z</time>
      </trkpt>
      <trkpt lat="44.86354" lon="3.09144">
        <ele>971</ele>
        <time>2016-09-01T12:17:33Z</time>
      </trkpt>
      <trkpt lat="44.86346" lon="3.09145">
        <ele>971</ele>
        <time>2016-09-01T12:17:41Z</time>
      </trkpt>
      <trkpt lat="44.86345" lon="3.09144">
        <ele>971</ele>
        <time>2016-09-01T12:17:42Z</time>
      </trkpt>
      <trkpt lat="44.86336" lon="3.09143">
        <ele>971</ele>
        <time>2016-09-01T12:17:50Z</time>
      </trkpt>
      <trkpt lat="44.86335" lon="3.09144">
        <ele>971</ele>
        <time>2016-09-01T12:17:51Z</time>
      </trkpt>
      <trkpt lat="44.86329" lon="3.0915">
        <ele>973</ele>
        <time>2016-09-01T12:17:56Z</time>
      </trkpt>
      <trkpt lat="44.86328" lon="3.09151">
        <ele>973</ele>
        <time>2016-09-01T12:17:57Z</time>
      </trkpt>
      <trkpt lat="44.86321" lon="3.09159">
        <ele>973</ele>
        <time>2016-09-01T12:18:02Z</time>
      </trkpt>
      <trkpt lat="44.8632" lon="3.09162">
        <ele>973</ele>
        <time>2016-09-01T12:18:03Z</time>
      </trkpt>
      <trkpt lat="44.86318" lon="3.09173">
        <ele>971</ele>
        <time>2016-09-01T12:18:09Z</time>
      </trkpt>
      <trkpt lat="44.86319" lon="3.09174">
        <ele>971</ele>
        <time>2016-09-01T12:18:10Z</time>
      </trkpt>
      <trkpt lat="44.86311" lon="3.0917">
        <ele>971</ele>
        <time>2016-09-01T12:18:24Z</time>
      </trkpt>
      <trkpt lat="44.86309" lon="3.0917">
        <ele>972</ele>
        <time>2016-09-01T12:18:25Z</time>
      </trkpt>
      <trkpt lat="44.86312" lon="3.09158">
        <ele>974</ele>
        <time>2016-09-01T12:18:38Z</time>
      </trkpt>
      <trkpt lat="44.86313" lon="3.09157">
        <ele>974</ele>
        <time>2016-09-01T12:18:39Z</time>
      </trkpt>
      <trkpt lat="44.86322" lon="3.09154">
        <ele>973</ele>
        <time>2016-09-01T12:18:54Z</time>
      </trkpt>
      <trkpt lat="44.86323" lon="3.09154">
        <ele>973</ele>
        <time>2016-09-01T12:18:55Z</time>
      </trkpt>
      <trkpt lat="44.8633" lon="3.09151">
        <ele>973</ele>
        <time>2016-09-01T12:19:01Z</time>
      </trkpt>
      <trkpt lat="44.86332" lon="3.0915">
        <ele>973</ele>
        <time>2016-09-01T12:19:02Z</time>
      </trkpt>
      <trkpt lat="44.86339" lon="3.09148">
        <ele>971</ele>
        <time>2016-09-01T12:19:07Z</time>
      </trkpt>
      <trkpt lat="44.86339" lon="3.09148">
        <ele>971</ele>
        <time>2016-09-01T12:19:08Z</time>
      </trkpt>
      <trkpt lat="44.86331" lon="3.0915">
        <ele>973</ele>
        <time>2016-09-01T12:19:15Z</time>
      </trkpt>
      <trkpt lat="44.8633" lon="3.0915">
        <ele>973</ele>
        <time>2016-09-01T12:19:16Z</time>
      </trkpt>
      <trkpt lat="44.86321" lon="3.09149">
        <ele>974</ele>
        <time>2016-09-01T12:19:23Z</time>
      </trkpt>
      <trkpt lat="44.86319" lon="3.09149">
        <ele>974</ele>
        <time>2016-09-01T12:19:24Z</time>
      </trkpt>
      <trkpt lat="44.86311" lon="3.09151">
        <ele>974</ele>
        <time>2016-09-01T12:19:31Z</time>
      </trkpt>
      <trkpt lat="44.8631" lon="3.09151">
        <ele>974</ele>
        <time>2016-09-01T12:19:32Z</time>
      </trkpt>
      <trkpt lat="44.86302" lon="3.09152">
        <ele>975</ele>
        <time>2016-09-01T12:19:39Z</time>
      </trkpt>
      <trkpt lat="44.863" lon="3.09152">
        <ele>975</ele>
        <time>2016-09-01T12:19:40Z</time>
      </trkpt>
      <trkpt lat="44.86294" lon="3.09157">
        <ele>975</ele>
        <time>2016-09-01T12:19:46Z</time>
      </trkpt>
      <trkpt lat="44.86292" lon="3.0916">
        <ele>975</ele>
        <time>2016-09-01T12:19:47Z</time>
      </trkpt>
      <trkpt lat="44.86284" lon="3.09166">
        <ele>975</ele>
        <time>2016-09-01T12:19:51Z</time>
      </trkpt>
      <trkpt lat="44.86283" lon="3.09167">
        <ele>973</ele>
        <time>2016-09-01T12:19:52Z</time>
      </trkpt>
      <trkpt lat="44.86275" lon="3.0917">
        <ele>973</ele>
        <time>2016-09-01T12:19:58Z</time>
      </trkpt>
      <trkpt lat="44.86274" lon="3.09171">
        <ele>973</ele>
        <time>2016-09-01T12:19:59Z</time>
      </trkpt>
      <trkpt lat="44.86266" lon="3.09175">
        <ele>974</ele>
        <time>2016-09-01T12:20:10Z</time>
      </trkpt>
      <trkpt lat="44.86264" lon="3.09176">
        <ele>974</ele>
        <time>2016-09-01T12:20:11Z</time>
      </trkpt>
      <trkpt lat="44.86258" lon="3.09185">
        <ele>974</ele>
        <time>2016-09-01T12:20:16Z</time>
      </trkpt>
      <trkpt lat="44.86257" lon="3.09186">
        <ele>974</ele>
        <time>2016-09-01T12:20:17Z</time>
      </trkpt>
      <trkpt lat="44.86251" lon="3.09196">
        <ele>973</ele>
        <time>2016-09-01T12:20:24Z</time>
      </trkpt>
      <trkpt lat="44.86251" lon="3.09197">
        <ele>973</ele>
        <time>2016-09-01T12:20:25Z</time>
      </trkpt>
      <trkpt lat="44.86243" lon="3.09203">
        <ele>977</ele>
        <time>2016-09-01T12:20:42Z</time>
      </trkpt>
      <trkpt lat="44.86242" lon="3.09203">
        <ele>977</ele>
        <time>2016-09-01T12:20:43Z</time>
      </trkpt>
      <trkpt lat="44.86236" lon="3.09211">
        <ele>977</ele>
        <time>2016-09-01T12:20:51Z</time>
      </trkpt>
      <trkpt lat="44.86235" lon="3.09212">
        <ele>977</ele>
        <time>2016-09-01T12:20:52Z</time>
      </trkpt>
      <trkpt lat="44.86228" lon="3.09219">
        <ele>977</ele>
        <time>2016-09-01T12:21:01Z</time>
      </trkpt>
      <trkpt lat="44.86227" lon="3.09219">
        <ele>977</ele>
        <time>2016-09-01T12:21:02Z</time>
      </trkpt>
      <trkpt lat="44.8622" lon="3.09226">
        <ele>978</ele>
        <time>2016-09-01T12:21:09Z</time>
      </trkpt>
      <trkpt lat="44.86219" lon="3.09227">
        <ele>978</ele>
        <time>2016-09-01T12:21:10Z</time>
      </trkpt>
      <trkpt lat="44.86212" lon="3.09233">
        <ele>978</ele>
        <time>2016-09-01T12:21:17Z</time>
      </trkpt>
      <trkpt lat="44.86211" lon="3.09234">
        <ele>978</ele>
        <time>2016-09-01T12:21:18Z</time>
      </trkpt>
      <trkpt lat="44.86203" lon="3.09239">
        <ele>978</ele>
        <time>2016-09-01T12:21:25Z</time>
      </trkpt>
      <trkpt lat="44.86202" lon="3.09239">
        <ele>978</ele>
        <time>2016-09-01T12:21:26Z</time>
      </trkpt>
      <trkpt lat="44.86195" lon="3.09244">
        <ele>979</ele>
        <time>2016-09-01T12:21:31Z</time>
      </trkpt>
      <trkpt lat="44.86194" lon="3.09246">
        <ele>979</ele>
        <time>2016-09-01T12:21:32Z</time>
      </trkpt>
      <trkpt lat="44.86186" lon="3.09252">
        <ele>980</ele>
        <time>2016-09-01T12:21:38Z</time>
      </trkpt>
      <trkpt lat="44.86185" lon="3.09253">
        <ele>980</ele>
        <time>2016-09-01T12:21:39Z</time>
      </trkpt>
      <trkpt lat="44.86178" lon="3.0926">
        <ele>981</ele>
        <time>2016-09-01T12:21:45Z</time>
      </trkpt>
      <trkpt lat="44.86177" lon="3.09261">
        <ele>981</ele>
        <time>2016-09-01T12:21:46Z</time>
      </trkpt>
      <trkpt lat="44.86169" lon="3.09264">
        <ele>981</ele>
        <time>2016-09-01T12:21:56Z</time>
      </trkpt>
      <trkpt lat="44.86168" lon="3.09264">
        <ele>981</ele>
        <time>2016-09-01T12:21:57Z</time>
      </trkpt>
      <trkpt lat="44.86161" lon="3.09271">
        <ele>982</ele>
        <time>2016-09-01T12:22:03Z</time>
      </trkpt>
      <trkpt lat="44.86159" lon="3.09272">
        <ele>982</ele>
        <time>2016-09-01T12:22:04Z</time>
      </trkpt>
      <trkpt lat="44.86151" lon="3.09274">
        <ele>983</ele>
        <time>2016-09-01T12:22:14Z</time>
      </trkpt>
      <trkpt lat="44.8615" lon="3.09275">
        <ele>983</ele>
        <time>2016-09-01T12:22:15Z</time>
      </trkpt>
      <trkpt lat="44.86142" lon="3.09281">
        <ele>983</ele>
        <time>2016-09-01T12:22:20Z</time>
      </trkpt>
      <trkpt lat="44.86141" lon="3.09282">
        <ele>983</ele>
        <time>2016-09-01T12:22:21Z</time>
      </trkpt>
      <trkpt lat="44.86134" lon="3.09287">
        <ele>983</ele>
        <time>2016-09-01T12:22:27Z</time>
      </trkpt>
      <trkpt lat="44.86132" lon="3.09288">
        <ele>983</ele>
        <time>2016-09-01T12:22:28Z</time>
      </trkpt>
      <trkpt lat="44.86125" lon="3.09294">
        <ele>983</ele>
        <time>2016-09-01T12:22:35Z</time>
      </trkpt>
      <trkpt lat="44.86124" lon="3.09294">
        <ele>983</ele>
        <time>2016-09-01T12:22:36Z</time>
      </trkpt>
      <trkpt lat="44.86116" lon="3.09296">
        <ele>983</ele>
        <time>2016-09-01T12:22:45Z</time>
      </trkpt>
      <trkpt lat="44.86115" lon="3.09295">
        <ele>983</ele>
        <time>2016-09-01T12:22:46Z</time>
      </trkpt>
      <trkpt lat="44.86106" lon="3.09295">
        <ele>983</ele>
        <time>2016-09-01T12:23:02Z</time>
      </trkpt>
      <trkpt lat="44.86106" lon="3.09294">
        <ele>983</ele>
        <time>2016-09-01T12:23:03Z</time>
      </trkpt>
      <trkpt lat="44.86098" lon="3.09288">
        <ele>983</ele>
        <time>2016-09-01T12:23:13Z</time>
      </trkpt>
      <trkpt lat="44.86097" lon="3.09286">
        <ele>983</ele>
        <time>2016-09-01T12:23:14Z</time>
      </trkpt>
      <trkpt lat="44.86094" lon="3.09276">
        <ele>983</ele>
        <time>2016-09-01T12:23:20Z</time>
      </trkpt>
      <trkpt lat="44.86093" lon="3.09275">
        <ele>983</ele>
        <time>2016-09-01T12:23:21Z</time>
      </trkpt>
      <trkpt lat="44.86087" lon="3.09266">
        <ele>983</ele>
        <time>2016-09-01T12:23:26Z</time>
      </trkpt>
      <trkpt lat="44.86086" lon="3.09264">
        <ele>983</ele>
        <time>2016-09-01T12:23:27Z</time>
      </trkpt>
      <trkpt lat="44.86079" lon="3.09257">
        <ele>983</ele>
        <time>2016-09-01T12:23:35Z</time>
      </trkpt>
      <trkpt lat="44.86078" lon="3.09256">
        <ele>983</ele>
        <time>2016-09-01T12:23:36Z</time>
      </trkpt>
      <trkpt lat="44.8607" lon="3.09253">
        <ele>983</ele>
        <time>2016-09-01T12:23:41Z</time>
      </trkpt>
      <trkpt lat="44.86068" lon="3.09252">
        <ele>983</ele>
        <time>2016-09-01T12:23:42Z</time>
      </trkpt>
      <trkpt lat="44.8606" lon="3.09248">
        <ele>984</ele>
        <time>2016-09-01T12:23:48Z</time>
      </trkpt>
      <trkpt lat="44.86059" lon="3.09248">
        <ele>984</ele>
        <time>2016-09-01T12:23:49Z</time>
      </trkpt>
      <trkpt lat="44.86051" lon="3.09247">
        <ele>984</ele>
        <time>2016-09-01T12:23:55Z</time>
      </trkpt>
      <trkpt lat="44.8605" lon="3.09246">
        <ele>984</ele>
        <time>2016-09-01T12:23:56Z</time>
      </trkpt>
      <trkpt lat="44.86042" lon="3.0924">
        <ele>984</ele>
        <time>2016-09-01T12:24:04Z</time>
      </trkpt>
      <trkpt lat="44.86041" lon="3.09239">
        <ele>984</ele>
        <time>2016-09-01T12:24:05Z</time>
      </trkpt>
      <trkpt lat="44.86033" lon="3.09236">
        <ele>984</ele>
        <time>2016-09-01T12:24:12Z</time>
      </trkpt>
      <trkpt lat="44.86031" lon="3.09235">
        <ele>984</ele>
        <time>2016-09-01T12:24:13Z</time>
      </trkpt>
      <trkpt lat="44.86025" lon="3.09227">
        <ele>984</ele>
        <time>2016-09-01T12:24:18Z</time>
      </trkpt>
      <trkpt lat="44.86023" lon="3.09226">
        <ele>984</ele>
        <time>2016-09-01T12:24:19Z</time>
      </trkpt>
      <trkpt lat="44.86017" lon="3.09217">
        <ele>984</ele>
        <time>2016-09-01T12:24:28Z</time>
      </trkpt>
      <trkpt lat="44.86016" lon="3.09216">
        <ele>984</ele>
        <time>2016-09-01T12:24:29Z</time>
      </trkpt>
      <trkpt lat="44.86013" lon="3.09205">
        <ele>984</ele>
        <time>2016-09-01T12:24:35Z</time>
      </trkpt>
      <trkpt lat="44.86013" lon="3.09203">
        <ele>984</ele>
        <time>2016-09-01T12:24:36Z</time>
      </trkpt>
      <trkpt lat="44.86007" lon="3.09197">
        <ele>984</ele>
        <time>2016-09-01T12:24:43Z</time>
      </trkpt>
      <trkpt lat="44.86006" lon="3.09195">
        <ele>984</ele>
        <time>2016-09-01T12:24:44Z</time>
      </trkpt>
      <trkpt lat="44.86002" lon="3.09185">
        <ele>984</ele>
        <time>2016-09-01T12:24:50Z</time>
      </trkpt>
      <trkpt lat="44.86" lon="3.09184">
        <ele>984</ele>
        <time>2016-09-01T12:24:51Z</time>
      </trkpt>
      <trkpt lat="44.85998" lon="3.09173">
        <ele>983</ele>
        <time>2016-09-01T12:24:56Z</time>
      </trkpt>
      <trkpt lat="44.85998" lon="3.09172">
        <ele>983</ele>
        <time>2016-09-01T12:24:57Z</time>
      </trkpt>
      <trkpt lat="44.85996" lon="3.0916">
        <ele>984</ele>
        <time>2016-09-01T12:25:04Z</time>
      </trkpt>
      <trkpt lat="44.85995" lon="3.09158">
        <ele>984</ele>
        <time>2016-09-01T12:25:05Z</time>
      </trkpt>
      <trkpt lat="44.8599" lon="3.09148">
        <ele>983</ele>
        <time>2016-09-01T12:25:14Z</time>
      </trkpt>
      <trkpt lat="44.85989" lon="3.09147">
        <ele>983</ele>
        <time>2016-09-01T12:25:15Z</time>
      </trkpt>
      <trkpt lat="44.85984" lon="3.09137">
        <ele>983</ele>
        <time>2016-09-01T12:25:22Z</time>
      </trkpt>
      <trkpt lat="44.85983" lon="3.09135">
        <ele>983</ele>
        <time>2016-09-01T12:25:23Z</time>
      </trkpt>
      <trkpt lat="44.85976" lon="3.0913">
        <ele>983</ele>
        <time>2016-09-01T12:25:29Z</time>
      </trkpt>
      <trkpt lat="44.85975" lon="3.09129">
        <ele>983</ele>
        <time>2016-09-01T12:25:30Z</time>
      </trkpt>
      <trkpt lat="44.85968" lon="3.09122">
        <ele>983</ele>
        <time>2016-09-01T12:25:37Z</time>
      </trkpt>
      <trkpt lat="44.85967" lon="3.09121">
        <ele>983</ele>
        <time>2016-09-01T12:25:38Z</time>
      </trkpt>
      <trkpt lat="44.85959" lon="3.09118">
        <ele>983</ele>
        <time>2016-09-01T12:25:45Z</time>
      </trkpt>
      <trkpt lat="44.85957" lon="3.09118">
        <ele>983</ele>
        <time>2016-09-01T12:25:46Z</time>
      </trkpt>
      <trkpt lat="44.85949" lon="3.09116">
        <ele>982</ele>
        <time>2016-09-01T12:25:52Z</time>
      </trkpt>
      <trkpt lat="44.85947" lon="3.09115">
        <ele>982</ele>
        <time>2016-09-01T12:25:53Z</time>
      </trkpt>
      <trkpt lat="44.85939" lon="3.09113">
        <ele>982</ele>
        <time>2016-09-01T12:25:59Z</time>
      </trkpt>
      <trkpt lat="44.85938" lon="3.09113">
        <ele>982</ele>
        <time>2016-09-01T12:26:00Z</time>
      </trkpt>
      <trkpt lat="44.85929" lon="3.09113">
        <ele>982</ele>
        <time>2016-09-01T12:26:07Z</time>
      </trkpt>
      <trkpt lat="44.85928" lon="3.09113">
        <ele>982</ele>
        <time>2016-09-01T12:26:08Z</time>
      </trkpt>
      <trkpt lat="44.8592" lon="3.09113">
        <ele>982</ele>
        <time>2016-09-01T12:26:13Z</time>
      </trkpt>
      <trkpt lat="44.85919" lon="3.09114">
        <ele>982</ele>
        <time>2016-09-01T12:26:14Z</time>
      </trkpt>
      <trkpt lat="44.85911" lon="3.09114">
        <ele>977</ele>
        <time>2016-09-01T12:26:20Z</time>
      </trkpt>
      <trkpt lat="44.85909" lon="3.09113">
        <ele>977</ele>
        <time>2016-09-01T12:26:21Z</time>
      </trkpt>
      <trkpt lat="44.85901" lon="3.09112">
        <ele>976</ele>
        <time>2016-09-01T12:26:28Z</time>
      </trkpt>
      <trkpt lat="44.85899" lon="3.09112">
        <ele>976</ele>
        <time>2016-09-01T12:26:29Z</time>
      </trkpt>
      <trkpt lat="44.85891" lon="3.09109">
        <ele>976</ele>
        <time>2016-09-01T12:26:35Z</time>
      </trkpt>
      <trkpt lat="44.8589" lon="3.0911">
        <ele>976</ele>
        <time>2016-09-01T12:26:36Z</time>
      </trkpt>
      <trkpt lat="44.85882" lon="3.09104">
        <ele>975</ele>
        <time>2016-09-01T12:26:43Z</time>
      </trkpt>
      <trkpt lat="44.85881" lon="3.09103">
        <ele>975</ele>
        <time>2016-09-01T12:26:44Z</time>
      </trkpt>
      <trkpt lat="44.85875" lon="3.09096">
        <ele>975</ele>
        <time>2016-09-01T12:26:51Z</time>
      </trkpt>
      <trkpt lat="44.85875" lon="3.09095">
        <ele>975</ele>
        <time>2016-09-01T12:26:52Z</time>
      </trkpt>
      <trkpt lat="44.8587" lon="3.09086">
        <ele>974</ele>
        <time>2016-09-01T12:26:58Z</time>
      </trkpt>
      <trkpt lat="44.85869" lon="3.09085">
        <ele>974</ele>
        <time>2016-09-01T12:26:59Z</time>
      </trkpt>
      <trkpt lat="44.85864" lon="3.09076">
        <ele>975</ele>
        <time>2016-09-01T12:27:05Z</time>
      </trkpt>
      <trkpt lat="44.85863" lon="3.09074">
        <ele>975</ele>
        <time>2016-09-01T12:27:06Z</time>
      </trkpt>
      <trkpt lat="44.8586" lon="3.09064">
        <ele>975</ele>
        <time>2016-09-01T12:27:13Z</time>
      </trkpt>
      <trkpt lat="44.8586" lon="3.09062">
        <ele>975</ele>
        <time>2016-09-01T12:27:14Z</time>
      </trkpt>
      <trkpt lat="44.85859" lon="3.0905">
        <ele>975</ele>
        <time>2016-09-01T12:27:23Z</time>
      </trkpt>
      <trkpt lat="44.85858" lon="3.09048">
        <ele>975</ele>
        <time>2016-09-01T12:27:24Z</time>
      </trkpt>
      <trkpt lat="44.85857" lon="3.09036">
        <ele>975</ele>
        <time>2016-09-01T12:27:31Z</time>
      </trkpt>
      <trkpt lat="44.85858" lon="3.09034">
        <ele>975</ele>
        <time>2016-09-01T12:27:32Z</time>
      </trkpt>
      <trkpt lat="44.85858" lon="3.09023">
        <ele>975</ele>
        <time>2016-09-01T12:27:38Z</time>
      </trkpt>
      <trkpt lat="44.85857" lon="3.09021">
        <ele>975</ele>
        <time>2016-09-01T12:27:39Z</time>
      </trkpt>
      <trkpt lat="44.85855" lon="3.0901">
        <ele>975</ele>
        <time>2016-09-01T12:27:45Z</time>
      </trkpt>
      <trkpt lat="44.85855" lon="3.09008">
        <ele>975</ele>
        <time>2016-09-01T12:27:46Z</time>
      </trkpt>
      <trkpt lat="44.85854" lon="3.08997">
        <ele>977</ele>
        <time>2016-09-01T12:27:53Z</time>
      </trkpt>
      <trkpt lat="44.85854" lon="3.08995">
        <ele>977</ele>
        <time>2016-09-01T12:27:54Z</time>
      </trkpt>
      <trkpt lat="44.85851" lon="3.08984">
        <ele>977</ele>
        <time>2016-09-01T12:28:01Z</time>
      </trkpt>
      <trkpt lat="44.85851" lon="3.08982">
        <ele>977</ele>
        <time>2016-09-01T12:28:02Z</time>
      </trkpt>
      <trkpt lat="44.85849" lon="3.0897">
        <ele>978</ele>
        <time>2016-09-01T12:28:08Z</time>
      </trkpt>
      <trkpt lat="44.85847" lon="3.08968">
        <ele>978</ele>
        <time>2016-09-01T12:28:09Z</time>
      </trkpt>
      <trkpt lat="44.85841" lon="3.0896">
        <ele>978</ele>
        <time>2016-09-01T12:28:14Z</time>
      </trkpt>
      <trkpt lat="44.85841" lon="3.08958">
        <ele>978</ele>
        <time>2016-09-01T12:28:15Z</time>
      </trkpt>
      <trkpt lat="44.85836" lon="3.08948">
        <ele>979</ele>
        <time>2016-09-01T12:28:22Z</time>
      </trkpt>
      <trkpt lat="44.85835" lon="3.08947">
        <ele>979</ele>
        <time>2016-09-01T12:28:23Z</time>
      </trkpt>
      <trkpt lat="44.8583" lon="3.08937">
        <ele>975</ele>
        <time>2016-09-01T12:28:30Z</time>
      </trkpt>
      <trkpt lat="44.85829" lon="3.08936">
        <ele>975</ele>
        <time>2016-09-01T12:28:31Z</time>
      </trkpt>
      <trkpt lat="44.85824" lon="3.08929">
        <ele>976</ele>
        <time>2016-09-01T12:28:39Z</time>
      </trkpt>
      <trkpt lat="44.85822" lon="3.08927">
        <ele>976</ele>
        <time>2016-09-01T12:28:40Z</time>
      </trkpt>
      <trkpt lat="44.85817" lon="3.08919">
        <ele>976</ele>
        <time>2016-09-01T12:29:15Z</time>
      </trkpt>
      <trkpt lat="44.85815" lon="3.08918">
        <ele>976</ele>
        <time>2016-09-01T12:29:16Z</time>
      </trkpt>
      <trkpt lat="44.85806" lon="3.08915">
        <ele>979</ele>
        <time>2016-09-01T12:29:24Z</time>
      </trkpt>
      <trkpt lat="44.85805" lon="3.08915">
        <ele>979</ele>
        <time>2016-09-01T12:29:25Z</time>
      </trkpt>
      <trkpt lat="44.85796" lon="3.08915">
        <ele>978</ele>
        <time>2016-09-01T12:29:31Z</time>
      </trkpt>
      <trkpt lat="44.85795" lon="3.08916">
        <ele>978</ele>
        <time>2016-09-01T12:29:32Z</time>
      </trkpt>
      <trkpt lat="44.85787" lon="3.08917">
        <ele>975</ele>
        <time>2016-09-01T12:29:38Z</time>
      </trkpt>
      <trkpt lat="44.85786" lon="3.08917">
        <ele>975</ele>
        <time>2016-09-01T12:29:39Z</time>
      </trkpt>
      <trkpt lat="44.85777" lon="3.08919">
        <ele>975</ele>
        <time>2016-09-01T12:29:46Z</time>
      </trkpt>
      <trkpt lat="44.85776" lon="3.08919">
        <ele>975</ele>
        <time>2016-09-01T12:29:47Z</time>
      </trkpt>
      <trkpt lat="44.85768" lon="3.08916">
        <ele>978</ele>
        <time>2016-09-01T12:29:55Z</time>
      </trkpt>
      <trkpt lat="44.85767" lon="3.08915">
        <ele>977</ele>
        <time>2016-09-01T12:29:56Z</time>
      </trkpt>
      <trkpt lat="44.85762" lon="3.08905">
        <ele>977</ele>
        <time>2016-09-01T12:30:25Z</time>
      </trkpt>
      <trkpt lat="44.85761" lon="3.08904">
        <ele>978</ele>
        <time>2016-09-01T12:30:26Z</time>
      </trkpt>
      <trkpt lat="44.85758" lon="3.08894">
        <ele>978</ele>
        <time>2016-09-01T12:30:32Z</time>
      </trkpt>
      <trkpt lat="44.85758" lon="3.08892">
        <ele>978</ele>
        <time>2016-09-01T12:30:33Z</time>
      </trkpt>
      <trkpt lat="44.85753" lon="3.08881">
        <ele>978</ele>
        <time>2016-09-01T12:30:39Z</time>
      </trkpt>
      <trkpt lat="44.85753" lon="3.0888">
        <ele>978</ele>
        <time>2016-09-01T12:30:40Z</time>
      </trkpt>
      <trkpt lat="44.85751" lon="3.08868">
        <ele>979</ele>
        <time>2016-09-01T12:30:47Z</time>
      </trkpt>
      <trkpt lat="44.8575" lon="3.08867">
        <ele>979</ele>
        <time>2016-09-01T12:30:48Z</time>
      </trkpt>
      <trkpt lat="44.85747" lon="3.08857">
        <ele>976</ele>
        <time>2016-09-01T12:30:53Z</time>
      </trkpt>
      <trkpt lat="44.85746" lon="3.08855">
        <ele>976</ele>
        <time>2016-09-01T12:30:54Z</time>
      </trkpt>
      <trkpt lat="44.85745" lon="3.08844">
        <ele>977</ele>
        <time>2016-09-01T12:31:00Z</time>
      </trkpt>
      <trkpt lat="44.85745" lon="3.08842">
        <ele>977</ele>
        <time>2016-09-01T12:31:01Z</time>
      </trkpt>
      <trkpt lat="44.85743" lon="3.08831">
        <ele>979</ele>
        <time>2016-09-01T12:31:07Z</time>
      </trkpt>
      <trkpt lat="44.85743" lon="3.08829">
        <ele>979</ele>
        <time>2016-09-01T12:31:08Z</time>
      </trkpt>
      <trkpt lat="44.85741" lon="3.08817">
        <ele>978</ele>
        <time>2016-09-01T12:31:17Z</time>
      </trkpt>
      <trkpt lat="44.85741" lon="3.08815">
        <ele>978</ele>
        <time>2016-09-01T12:31:18Z</time>
      </trkpt>
      <trkpt lat="44.85738" lon="3.08803">
        <ele>978</ele>
        <time>2016-09-01T12:31:25Z</time>
      </trkpt>
      <trkpt lat="44.85738" lon="3.08802">
        <ele>978</ele>
        <time>2016-09-01T12:31:26Z</time>
      </trkpt>
      <trkpt lat="44.85735" lon="3.08791">
        <ele>979</ele>
        <time>2016-09-01T12:31:32Z</time>
      </trkpt>
      <trkpt lat="44.85735" lon="3.08789">
        <ele>979</ele>
        <time>2016-09-01T12:31:33Z</time>
      </trkpt>
      <trkpt lat="44.85731" lon="3.08778">
        <ele>979</ele>
        <time>2016-09-01T12:31:41Z</time>
      </trkpt>
      <trkpt lat="44.8573" lon="3.08777">
        <ele>979</ele>
        <time>2016-09-01T12:31:42Z</time>
      </trkpt>
      <trkpt lat="44.85727" lon="3.08766">
        <ele>980</ele>
        <time>2016-09-01T12:31:49Z</time>
      </trkpt>
      <trkpt lat="44.85727" lon="3.08765">
        <ele>980</ele>
        <time>2016-09-01T12:31:50Z</time>
      </trkpt>
      <trkpt lat="44.85729" lon="3.08754">
        <ele>980</ele>
        <time>2016-09-01T12:31:55Z</time>
      </trkpt>
      <trkpt lat="44.85729" lon="3.08752">
        <ele>980</ele>
        <time>2016-09-01T12:31:56Z</time>
      </trkpt>
      <trkpt lat="44.85726" lon="3.0874">
        <ele>984</ele>
        <time>2016-09-01T12:32:05Z</time>
      </trkpt>
      <trkpt lat="44.85725" lon="3.08739">
        <ele>984</ele>
        <time>2016-09-01T12:32:06Z</time>
      </trkpt>
      <trkpt lat="44.85719" lon="3.08731">
        <ele>984</ele>
        <time>2016-09-01T12:32:12Z</time>
      </trkpt>
      <trkpt lat="44.85718" lon="3.08729">
        <ele>984</ele>
        <time>2016-09-01T12:32:13Z</time>
      </trkpt>
      <trkpt lat="44.85712" lon="3.08722">
        <ele>984</ele>
        <time>2016-09-01T12:32:18Z</time>
      </trkpt>
      <trkpt lat="44.8571" lon="3.08721">
        <ele>984</ele>
        <time>2016-09-01T12:32:19Z</time>
      </trkpt>
      <trkpt lat="44.85703" lon="3.08714">
        <ele>984</ele>
        <time>2016-09-01T12:32:26Z</time>
      </trkpt>
      <trkpt lat="44.85702" lon="3.08713">
        <ele>984</ele>
        <time>2016-09-01T12:32:27Z</time>
      </trkpt>
      <trkpt lat="44.85696" lon="3.08705">
        <ele>984</ele>
        <time>2016-09-01T12:32:35Z</time>
      </trkpt>
      <trkpt lat="44.85695" lon="3.08704">
        <ele>984</ele>
        <time>2016-09-01T12:32:36Z</time>
      </trkpt>
      <trkpt lat="44.8569" lon="3.08696">
        <ele>985</ele>
        <time>2016-09-01T12:32:41Z</time>
      </trkpt>
      <trkpt lat="44.85689" lon="3.08694">
        <ele>985</ele>
        <time>2016-09-01T12:32:42Z</time>
      </trkpt>
      <trkpt lat="44.85685" lon="3.08683">
        <ele>985</ele>
        <time>2016-09-01T12:32:50Z</time>
      </trkpt>
      <trkpt lat="44.85684" lon="3.08682">
        <ele>985</ele>
        <time>2016-09-01T12:32:51Z</time>
      </trkpt>
      <trkpt lat="44.85679" lon="3.08673">
        <ele>985</ele>
        <time>2016-09-01T12:32:56Z</time>
      </trkpt>
      <trkpt lat="44.85679" lon="3.08671">
        <ele>985</ele>
        <time>2016-09-01T12:32:57Z</time>
      </trkpt>
      <trkpt lat="44.85675" lon="3.08661">
        <ele>987</ele>
        <time>2016-09-01T12:33:06Z</time>
      </trkpt>
      <trkpt lat="44.85675" lon="3.08659">
        <ele>987</ele>
        <time>2016-09-01T12:33:07Z</time>
      </trkpt>
      <trkpt lat="44.8567" lon="3.08649">
        <ele>988</ele>
        <time>2016-09-01T12:33:13Z</time>
      </trkpt>
      <trkpt lat="44.85669" lon="3.08648">
        <ele>988</ele>
        <time>2016-09-01T12:33:14Z</time>
      </trkpt>
      <trkpt lat="44.85666" lon="3.08637">
        <ele>986</ele>
        <time>2016-09-01T12:33:37Z</time>
      </trkpt>
      <trkpt lat="44.85666" lon="3.08632">
        <ele>986</ele>
        <time>2016-09-01T12:33:38Z</time>
      </trkpt>
      <trkpt lat="44.85659" lon="3.08625">
        <ele>987</ele>
        <time>2016-09-01T12:33:46Z</time>
      </trkpt>
      <trkpt lat="44.85658" lon="3.08623">
        <ele>987</ele>
        <time>2016-09-01T12:33:47Z</time>
      </trkpt>
      <trkpt lat="44.8565" lon="3.08617">
        <ele>987</ele>
        <time>2016-09-01T12:33:54Z</time>
      </trkpt>
      <trkpt lat="44.8565" lon="3.08616">
        <ele>987</ele>
        <time>2016-09-01T12:33:55Z</time>
      </trkpt>
      <trkpt lat="44.85642" lon="3.08612">
        <ele>987</ele>
        <time>2016-09-01T12:34:03Z</time>
      </trkpt>
      <trkpt lat="44.85641" lon="3.08612">
        <ele>987</ele>
        <time>2016-09-01T12:34:04Z</time>
      </trkpt>
      <trkpt lat="44.85632" lon="3.08612">
        <ele>987</ele>
        <time>2016-09-01T12:34:15Z</time>
      </trkpt>
      <trkpt lat="44.85631" lon="3.08612">
        <ele>987</ele>
        <time>2016-09-01T12:34:16Z</time>
      </trkpt>
      <trkpt lat="44.85622" lon="3.08614">
        <ele>987</ele>
        <time>2016-09-01T12:34:24Z</time>
      </trkpt>
      <trkpt lat="44.85621" lon="3.08613">
        <ele>987</ele>
        <time>2016-09-01T12:34:25Z</time>
      </trkpt>
      <trkpt lat="44.85613" lon="3.08615">
        <ele>986</ele>
        <time>2016-09-01T12:34:31Z</time>
      </trkpt>
      <trkpt lat="44.85612" lon="3.08615">
        <ele>986</ele>
        <time>2016-09-01T12:34:32Z</time>
      </trkpt>
      <trkpt lat="44.85604" lon="3.08621">
        <ele>986</ele>
        <time>2016-09-01T12:34:41Z</time>
      </trkpt>
      <trkpt lat="44.85603" lon="3.08622">
        <ele>986</ele>
        <time>2016-09-01T12:34:42Z</time>
      </trkpt>
      <trkpt lat="44.85595" lon="3.08626">
        <ele>986</ele>
        <time>2016-09-01T12:34:47Z</time>
      </trkpt>
      <trkpt lat="44.85594" lon="3.08629">
        <ele>986</ele>
        <time>2016-09-01T12:34:48Z</time>
      </trkpt>
      <trkpt lat="44.85587" lon="3.08635">
        <ele>986</ele>
        <time>2016-09-01T12:34:59Z</time>
      </trkpt>
      <trkpt lat="44.85585" lon="3.08635">
        <ele>986</ele>
        <time>2016-09-01T12:35:00Z</time>
      </trkpt>
      <trkpt lat="44.85576" lon="3.08634">
        <ele>986</ele>
        <time>2016-09-01T12:35:06Z</time>
      </trkpt>
      <trkpt lat="44.85575" lon="3.08634">
        <ele>986</ele>
        <time>2016-09-01T12:35:07Z</time>
      </trkpt>
      <trkpt lat="44.85567" lon="3.08632">
        <ele>986</ele>
        <time>2016-09-01T12:35:13Z</time>
      </trkpt>
      <trkpt lat="44.85565" lon="3.08632">
        <ele>986</ele>
        <time>2016-09-01T12:35:14Z</time>
      </trkpt>
      <trkpt lat="44.85557" lon="3.08634">
        <ele>986</ele>
        <time>2016-09-01T12:35:20Z</time>
      </trkpt>
      <trkpt lat="44.85556" lon="3.08635">
        <ele>986</ele>
        <time>2016-09-01T12:35:21Z</time>
      </trkpt>
      <trkpt lat="44.85548" lon="3.08639">
        <ele>986</ele>
        <time>2016-09-01T12:35:28Z</time>
      </trkpt>
      <trkpt lat="44.85546" lon="3.0864">
        <ele>986</ele>
        <time>2016-09-01T12:35:29Z</time>
      </trkpt>
      <trkpt lat="44.85541" lon="3.08648">
        <ele>986</ele>
        <time>2016-09-01T12:35:36Z</time>
      </trkpt>
      <trkpt lat="44.85541" lon="3.0865">
        <ele>986</ele>
        <time>2016-09-01T12:35:37Z</time>
      </trkpt>
      <trkpt lat="44.85533" lon="3.08656">
        <ele>986</ele>
        <time>2016-09-01T12:35:45Z</time>
      </trkpt>
      <trkpt lat="44.85533" lon="3.08657">
        <ele>986</ele>
        <time>2016-09-01T12:35:46Z</time>
      </trkpt>
      <trkpt lat="44.85525" lon="3.08663">
        <ele>987</ele>
        <time>2016-09-01T12:36:01Z</time>
      </trkpt>
      <trkpt lat="44.85524" lon="3.08664">
        <ele>987</ele>
        <time>2016-09-01T12:36:02Z</time>
      </trkpt>
      <trkpt lat="44.85522" lon="3.08676">
        <ele>984</ele>
        <time>2016-09-01T12:36:34Z</time>
      </trkpt>
      <trkpt lat="44.85522" lon="3.08677">
        <ele>984</ele>
        <time>2016-09-01T12:36:35Z</time>
      </trkpt>
      <trkpt lat="44.8552" lon="3.08687">
        <ele>984</ele>
        <time>2016-09-01T12:36:41Z</time>
      </trkpt>
      <trkpt lat="44.8552" lon="3.08689">
        <ele>984</ele>
        <time>2016-09-01T12:36:42Z</time>
      </trkpt>
      <trkpt lat="44.85518" lon="3.087">
        <ele>983</ele>
        <time>2016-09-01T12:36:47Z</time>
      </trkpt>
      <trkpt lat="44.85517" lon="3.08702">
        <ele>983</ele>
        <time>2016-09-01T12:36:48Z</time>
      </trkpt>
      <trkpt lat="44.85516" lon="3.08713">
        <ele>983</ele>
        <time>2016-09-01T12:36:55Z</time>
      </trkpt>
      <trkpt lat="44.85515" lon="3.08715">
        <ele>983</ele>
        <time>2016-09-01T12:36:56Z</time>
      </trkpt>
      <trkpt lat="44.85516" lon="3.08727">
        <ele>982</ele>
        <time>2016-09-01T12:37:03Z</time>
      </trkpt>
      <trkpt lat="44.85516" lon="3.08728">
        <ele>982</ele>
        <time>2016-09-01T12:37:04Z</time>
      </trkpt>
      <trkpt lat="44.85513" lon="3.08739">
        <ele>982</ele>
        <time>2016-09-01T12:37:13Z</time>
      </trkpt>
      <trkpt lat="44.85512" lon="3.08741">
        <ele>982</ele>
        <time>2016-09-01T12:37:14Z</time>
      </trkpt>
      <trkpt lat="44.8551" lon="3.08753">
        <ele>981</ele>
        <time>2016-09-01T12:37:22Z</time>
      </trkpt>
      <trkpt lat="44.8551" lon="3.08754">
        <ele>981</ele>
        <time>2016-09-01T12:37:23Z</time>
      </trkpt>
      <trkpt lat="44.85504" lon="3.08763">
        <ele>980</ele>
        <time>2016-09-01T12:37:31Z</time>
      </trkpt>
      <trkpt lat="44.85503" lon="3.08763">
        <ele>980</ele>
        <time>2016-09-01T12:37:32Z</time>
      </trkpt>
      <trkpt lat="44.85501" lon="3.08775">
        <ele>979</ele>
        <time>2016-09-01T12:38:12Z</time>
      </trkpt>
      <trkpt lat="44.85501" lon="3.08776">
        <ele>979</ele>
        <time>2016-09-01T12:38:13Z</time>
      </trkpt>
      <trkpt lat="44.85496" lon="3.08785">
        <ele>983</ele>
        <time>2016-09-01T12:38:19Z</time>
      </trkpt>
      <trkpt lat="44.85496" lon="3.08787">
        <ele>983</ele>
        <time>2016-09-01T12:38:20Z</time>
      </trkpt>
      <trkpt lat="44.85493" lon="3.08798">
        <ele>982</ele>
        <time>2016-09-01T12:38:27Z</time>
      </trkpt>
      <trkpt lat="44.85492" lon="3.08799">
        <ele>982</ele>
        <time>2016-09-01T12:38:28Z</time>
      </trkpt>
      <trkpt lat="44.85489" lon="3.0881">
        <ele>981</ele>
        <time>2016-09-01T12:38:36Z</time>
      </trkpt>
      <trkpt lat="44.85488" lon="3.08812">
        <ele>981</ele>
        <time>2016-09-01T12:38:37Z</time>
      </trkpt>
      <trkpt lat="44.85482" lon="3.08821">
        <ele>981</ele>
        <time>2016-09-01T12:38:42Z</time>
      </trkpt>
      <trkpt lat="44.85481" lon="3.08823">
        <ele>981</ele>
        <time>2016-09-01T12:38:43Z</time>
      </trkpt>
      <trkpt lat="44.85473" lon="3.08829">
        <ele>981</ele>
        <time>2016-09-01T12:38:47Z</time>
      </trkpt>
      <trkpt lat="44.85472" lon="3.08829">
        <ele>981</ele>
        <time>2016-09-01T12:38:48Z</time>
      </trkpt>
      <trkpt lat="44.85464" lon="3.0883">
        <ele>982</ele>
        <time>2016-09-01T12:38:56Z</time>
      </trkpt>
      <trkpt lat="44.85463" lon="3.0883">
        <ele>982</ele>
        <time>2016-09-01T12:38:57Z</time>
      </trkpt>
      <trkpt lat="44.85455" lon="3.08828">
        <ele>982</ele>
        <time>2016-09-01T12:39:21Z</time>
      </trkpt>
      <trkpt lat="44.85453" lon="3.08827">
        <ele>982</ele>
        <time>2016-09-01T12:39:22Z</time>
      </trkpt>
      <trkpt lat="44.85446" lon="3.08823">
        <ele>983</ele>
        <time>2016-09-01T12:39:28Z</time>
      </trkpt>
      <trkpt lat="44.85444" lon="3.08821">
        <ele>983</ele>
        <time>2016-09-01T12:39:29Z</time>
      </trkpt>
      <trkpt lat="44.85436" lon="3.08817">
        <ele>983</ele>
        <time>2016-09-01T12:39:36Z</time>
      </trkpt>
      <trkpt lat="44.85434" lon="3.08817">
        <ele>983</ele>
        <time>2016-09-01T12:39:37Z</time>
      </trkpt>
      <trkpt lat="44.85426" lon="3.08821">
        <ele>982</ele>
        <time>2016-09-01T12:39:44Z</time>
      </trkpt>
      <trkpt lat="44.85425" lon="3.08822">
        <ele>982</ele>
        <time>2016-09-01T12:39:45Z</time>
      </trkpt>
      <trkpt lat="44.85417" lon="3.0882">
        <ele>982</ele>
        <time>2016-09-01T12:39:51Z</time>
      </trkpt>
      <trkpt lat="44.85416" lon="3.0882">
        <ele>985</ele>
        <time>2016-09-01T12:39:52Z</time>
      </trkpt>
      <trkpt lat="44.85408" lon="3.08819">
        <ele>986</ele>
        <time>2016-09-01T12:39:58Z</time>
      </trkpt>
      <trkpt lat="44.85406" lon="3.08818">
        <ele>987</ele>
        <time>2016-09-01T12:39:59Z</time>
      </trkpt>
      <trkpt lat="44.85398" lon="3.08815">
        <ele>988</ele>
        <time>2016-09-01T12:40:06Z</time>
      </trkpt>
      <trkpt lat="44.85398" lon="3.08815">
        <ele>988</ele>
        <time>2016-09-01T12:40:07Z</time>
      </trkpt>
      <trkpt lat="44.8539" lon="3.08813">
        <ele>989</ele>
        <time>2016-09-01T12:40:14Z</time>
      </trkpt>
      <trkpt lat="44.85389" lon="3.08813">
        <ele>989</ele>
        <time>2016-09-01T12:40:15Z</time>
      </trkpt>
      <trkpt lat="44.85381" lon="3.08812">
        <ele>990</ele>
        <time>2016-09-01T12:40:22Z</time>
      </trkpt>
      <trkpt lat="44.85379" lon="3.08813">
        <ele>990</ele>
        <time>2016-09-01T12:40:23Z</time>
      </trkpt>
      <trkpt lat="44.85371" lon="3.08814">
        <ele>991</ele>
        <time>2016-09-01T12:40:31Z</time>
      </trkpt>
      <trkpt lat="44.8537" lon="3.08814">
        <ele>991</ele>
        <time>2016-09-01T12:40:32Z</time>
      </trkpt>
      <trkpt lat="44.85364" lon="3.08813">
        <ele>991</ele>
        <time>2016-09-01T12:40:37Z</time>
      </trkpt>
      <trkpt lat="44.85361" lon="3.08813">
        <ele>991</ele>
        <time>2016-09-01T12:40:38Z</time>
      </trkpt>
      <trkpt lat="44.85352" lon="3.08817">
        <ele>991</ele>
        <time>2016-09-01T12:40:49Z</time>
      </trkpt>
      <trkpt lat="44.85351" lon="3.08818">
        <ele>991</ele>
        <time>2016-09-01T12:40:50Z</time>
      </trkpt>
      <trkpt lat="44.85343" lon="3.08815">
        <ele>991</ele>
        <time>2016-09-01T12:40:58Z</time>
      </trkpt>
      <trkpt lat="44.85342" lon="3.08816">
        <ele>991</ele>
        <time>2016-09-01T12:40:59Z</time>
      </trkpt>
      <trkpt lat="44.85335" lon="3.08822">
        <ele>990</ele>
        <time>2016-09-01T12:41:05Z</time>
      </trkpt>
      <trkpt lat="44.85333" lon="3.08823">
        <ele>991</ele>
        <time>2016-09-01T12:41:06Z</time>
      </trkpt>
      <trkpt lat="44.85325" lon="3.08827">
        <ele>992</ele>
        <time>2016-09-01T12:41:13Z</time>
      </trkpt>
      <trkpt lat="44.85322" lon="3.08829">
        <ele>992</ele>
        <time>2016-09-01T12:41:14Z</time>
      </trkpt>
      <trkpt lat="44.85315" lon="3.08835">
        <ele>986</ele>
        <time>2016-09-01T12:41:20Z</time>
      </trkpt>
      <trkpt lat="44.85314" lon="3.08835">
        <ele>985</ele>
        <time>2016-09-01T12:41:21Z</time>
      </trkpt>
      <trkpt lat="44.85306" lon="3.08838">
        <ele>985</ele>
        <time>2016-09-01T12:41:32Z</time>
      </trkpt>
      <trkpt lat="44.85305" lon="3.08838">
        <ele>985</ele>
        <time>2016-09-01T12:41:33Z</time>
      </trkpt>
      <trkpt lat="44.85297" lon="3.08841">
        <ele>984</ele>
        <time>2016-09-01T12:41:41Z</time>
      </trkpt>
      <trkpt lat="44.85295" lon="3.08842">
        <ele>984</ele>
        <time>2016-09-01T12:41:42Z</time>
      </trkpt>
      <trkpt lat="44.85287" lon="3.08844">
        <ele>984</ele>
        <time>2016-09-01T12:41:48Z</time>
      </trkpt>
      <trkpt lat="44.85286" lon="3.08844">
        <ele>984</ele>
        <time>2016-09-01T12:41:49Z</time>
      </trkpt>
      <trkpt lat="44.85279" lon="3.08852">
        <ele>984</ele>
        <time>2016-09-01T12:41:56Z</time>
      </trkpt>
      <trkpt lat="44.85278" lon="3.08853">
        <ele>984</ele>
        <time>2016-09-01T12:41:57Z</time>
      </trkpt>
      <trkpt lat="44.85271" lon="3.08859">
        <ele>984</ele>
        <time>2016-09-01T12:42:02Z</time>
      </trkpt>
      <trkpt lat="44.85271" lon="3.08862">
        <ele>983</ele>
        <time>2016-09-01T12:42:03Z</time>
      </trkpt>
      <trkpt lat="44.85263" lon="3.08865">
        <ele>983</ele>
        <time>2016-09-01T12:42:12Z</time>
      </trkpt>
      <trkpt lat="44.85262" lon="3.08865">
        <ele>983</ele>
        <time>2016-09-01T12:42:13Z</time>
      </trkpt>
      <trkpt lat="44.85253" lon="3.08866">
        <ele>983</ele>
        <time>2016-09-01T12:42:20Z</time>
      </trkpt>
      <trkpt lat="44.85251" lon="3.08865">
        <ele>983</ele>
        <time>2016-09-01T12:42:21Z</time>
      </trkpt>
      <trkpt lat="44.85243" lon="3.08867">
        <ele>983</ele>
        <time>2016-09-01T12:42:27Z</time>
      </trkpt>
      <trkpt lat="44.85242" lon="3.08867">
        <ele>983</ele>
        <time>2016-09-01T12:42:28Z</time>
      </trkpt>
      <trkpt lat="44.85234" lon="3.08867">
        <ele>983</ele>
        <time>2016-09-01T12:42:35Z</time>
      </trkpt>
      <trkpt lat="44.85233" lon="3.08867">
        <ele>983</ele>
        <time>2016-09-01T12:42:36Z</time>
      </trkpt>
      <trkpt lat="44.85224" lon="3.08867">
        <ele>983</ele>
        <time>2016-09-01T12:42:42Z</time>
      </trkpt>
      <trkpt lat="44.85223" lon="3.08867">
        <ele>983</ele>
        <time>2016-09-01T12:42:43Z</time>
      </trkpt>
      <trkpt lat="44.85215" lon="3.08865">
        <ele>983</ele>
        <time>2016-09-01T12:42:49Z</time>
      </trkpt>
      <trkpt lat="44.85213" lon="3.08865">
        <ele>983</ele>
        <time>2016-09-01T12:42:50Z</time>
      </trkpt>
      <trkpt lat="44.85205" lon="3.08861">
        <ele>983</ele>
        <time>2016-09-01T12:42:57Z</time>
      </trkpt>
      <trkpt lat="44.85205" lon="3.0886">
        <ele>983</ele>
        <time>2016-09-01T12:42:58Z</time>
      </trkpt>
      <trkpt lat="44.85197" lon="3.08859">
        <ele>983</ele>
        <time>2016-09-01T12:43:05Z</time>
      </trkpt>
      <trkpt lat="44.85195" lon="3.08859">
        <ele>983</ele>
        <time>2016-09-01T12:43:06Z</time>
      </trkpt>
      <trkpt lat="44.85187" lon="3.08858">
        <ele>984</ele>
        <time>2016-09-01T12:43:13Z</time>
      </trkpt>
      <trkpt lat="44.85185" lon="3.08858">
        <ele>984</ele>
        <time>2016-09-01T12:43:14Z</time>
      </trkpt>
      <trkpt lat="44.85179" lon="3.08866">
        <ele>983</ele>
        <time>2016-09-01T12:43:21Z</time>
      </trkpt>
      <trkpt lat="44.85178" lon="3.08867">
        <ele>983</ele>
        <time>2016-09-01T12:43:22Z</time>
      </trkpt>
      <trkpt lat="44.85173" lon="3.08875">
        <ele>982</ele>
        <time>2016-09-01T12:43:26Z</time>
      </trkpt>
      <trkpt lat="44.85171" lon="3.08877">
        <ele>982</ele>
        <time>2016-09-01T12:43:27Z</time>
      </trkpt>
      <trkpt lat="44.85166" lon="3.08886">
        <ele>980</ele>
        <time>2016-09-01T12:43:35Z</time>
      </trkpt>
      <trkpt lat="44.85165" lon="3.08887">
        <ele>980</ele>
        <time>2016-09-01T12:43:36Z</time>
      </trkpt>
      <trkpt lat="44.85159" lon="3.08892">
        <ele>979</ele>
        <time>2016-09-01T12:44:10Z</time>
      </trkpt>
      <trkpt lat="44.85157" lon="3.08892">
        <ele>979</ele>
        <time>2016-09-01T12:44:11Z</time>
      </trkpt>
      <trkpt lat="44.85149" lon="3.08896">
        <ele>979</ele>
        <time>2016-09-01T12:44:19Z</time>
      </trkpt>
      <trkpt lat="44.85148" lon="3.08896">
        <ele>979</ele>
        <time>2016-09-01T12:44:20Z</time>
      </trkpt>
      <trkpt lat="44.85139" lon="3.08895">
        <ele>979</ele>
        <time>2016-09-01T12:44:27Z</time>
      </trkpt>
      <trkpt lat="44.85138" lon="3.08895">
        <ele>979</ele>
        <time>2016-09-01T12:44:28Z</time>
      </trkpt>
      <trkpt lat="44.85129" lon="3.08896">
        <ele>979</ele>
        <time>2016-09-01T12:44:34Z</time>
      </trkpt>
      <trkpt lat="44.85128" lon="3.08896">
        <ele>979</ele>
        <time>2016-09-01T12:44:35Z</time>
      </trkpt>
      <trkpt lat="44.85119" lon="3.08897">
        <ele>978</ele>
        <time>2016-09-01T12:44:42Z</time>
      </trkpt>
      <trkpt lat="44.85118" lon="3.08897">
        <ele>978</ele>
        <time>2016-09-01T12:44:43Z</time>
      </trkpt>
      <trkpt lat="44.8511" lon="3.08898">
        <ele>978</ele>
        <time>2016-09-01T12:44:51Z</time>
      </trkpt>
      <trkpt lat="44.85108" lon="3.08897">
        <ele>978</ele>
        <time>2016-09-01T12:44:52Z</time>
      </trkpt>
      <trkpt lat="44.85101" lon="3.08896">
        <ele>978</ele>
        <time>2016-09-01T12:44:58Z</time>
      </trkpt>
      <trkpt lat="44.85099" lon="3.08895">
        <ele>977</ele>
        <time>2016-09-01T12:44:59Z</time>
      </trkpt>
      <trkpt lat="44.85091" lon="3.0889">
        <ele>978</ele>
        <time>2016-09-01T12:45:06Z</time>
      </trkpt>
      <trkpt lat="44.8509" lon="3.08889">
        <ele>978</ele>
        <time>2016-09-01T12:45:07Z</time>
      </trkpt>
      <trkpt lat="44.85083" lon="3.08883">
        <ele>973</ele>
        <time>2016-09-01T12:45:15Z</time>
      </trkpt>
      <trkpt lat="44.85082" lon="3.08882">
        <ele>973</ele>
        <time>2016-09-01T12:45:16Z</time>
      </trkpt>
      <trkpt lat="44.85076" lon="3.08876">
        <ele>973</ele>
        <time>2016-09-01T12:45:21Z</time>
      </trkpt>
      <trkpt lat="44.85074" lon="3.08875">
        <ele>973</ele>
        <time>2016-09-01T12:45:22Z</time>
      </trkpt>
      <trkpt lat="44.85068" lon="3.08867">
        <ele>973</ele>
        <time>2016-09-01T12:45:28Z</time>
      </trkpt>
      <trkpt lat="44.85067" lon="3.08866">
        <ele>973</ele>
        <time>2016-09-01T12:45:29Z</time>
      </trkpt>
      <trkpt lat="44.85059" lon="3.0886">
        <ele>973</ele>
        <time>2016-09-01T12:45:35Z</time>
      </trkpt>
      <trkpt lat="44.85058" lon="3.08859">
        <ele>973</ele>
        <time>2016-09-01T12:45:36Z</time>
      </trkpt>
      <trkpt lat="44.85052" lon="3.0885">
        <ele>973</ele>
        <time>2016-09-01T12:45:44Z</time>
      </trkpt>
      <trkpt lat="44.85051" lon="3.08849">
        <ele>973</ele>
        <time>2016-09-01T12:45:45Z</time>
      </trkpt>
      <trkpt lat="44.85047" lon="3.08838">
        <ele>973</ele>
        <time>2016-09-01T12:45:52Z</time>
      </trkpt>
      <trkpt lat="44.85046" lon="3.08837">
        <ele>973</ele>
        <time>2016-09-01T12:45:53Z</time>
      </trkpt>
      <trkpt lat="44.85042" lon="3.08827">
        <ele>977</ele>
        <time>2016-09-01T12:45:59Z</time>
      </trkpt>
      <trkpt lat="44.85042" lon="3.08826">
        <ele>977</ele>
        <time>2016-09-01T12:46:00Z</time>
      </trkpt>
      <trkpt lat="44.85038" lon="3.08815">
        <ele>977</ele>
        <time>2016-09-01T12:46:08Z</time>
      </trkpt>
      <trkpt lat="44.85037" lon="3.08813">
        <ele>977</ele>
        <time>2016-09-01T12:46:09Z</time>
      </trkpt>
      <trkpt lat="44.85033" lon="3.08802">
        <ele>977</ele>
        <time>2016-09-01T12:46:15Z</time>
      </trkpt>
      <trkpt lat="44.85032" lon="3.08801">
        <ele>977</ele>
        <time>2016-09-01T12:46:16Z</time>
      </trkpt>
      <trkpt lat="44.85027" lon="3.0879">
        <ele>977</ele>
        <time>2016-09-01T12:46:22Z</time>
      </trkpt>
      <trkpt lat="44.85027" lon="3.08789">
        <ele>977</ele>
        <time>2016-09-01T12:46:23Z</time>
      </trkpt>
      <trkpt lat="44.85024" lon="3.08778">
        <ele>977</ele>
        <time>2016-09-01T12:46:31Z</time>
      </trkpt>
      <trkpt lat="44.85023" lon="3.08776">
        <ele>977</ele>
        <time>2016-09-01T12:46:32Z</time>
      </trkpt>
      <trkpt lat="44.85019" lon="3.08766">
        <ele>976</ele>
        <time>2016-09-01T12:46:38Z</time>
      </trkpt>
      <trkpt lat="44.85018" lon="3.08765">
        <ele>976</ele>
        <time>2016-09-01T12:46:39Z</time>
      </trkpt>
      <trkpt lat="44.85014" lon="3.08756">
        <ele>975</ele>
        <time>2016-09-01T12:46:47Z</time>
      </trkpt>
      <trkpt lat="44.85013" lon="3.08754">
        <ele>975</ele>
        <time>2016-09-01T12:46:48Z</time>
      </trkpt>
      <trkpt lat="44.8501" lon="3.08744">
        <ele>976</ele>
        <time>2016-09-01T12:46:55Z</time>
      </trkpt>
      <trkpt lat="44.85009" lon="3.08743">
        <ele>976</ele>
        <time>2016-09-01T12:46:56Z</time>
      </trkpt>
      <trkpt lat="44.85007" lon="3.08731">
        <ele>978</ele>
        <time>2016-09-01T12:47:04Z</time>
      </trkpt>
      <trkpt lat="44.85007" lon="3.08729">
        <ele>978</ele>
        <time>2016-09-01T12:47:05Z</time>
      </trkpt>
      <trkpt lat="44.85002" lon="3.08719">
        <ele>978</ele>
        <time>2016-09-01T12:47:12Z</time>
      </trkpt>
      <trkpt lat="44.85002" lon="3.08717">
        <ele>978</ele>
        <time>2016-09-01T12:47:13Z</time>
      </trkpt>
      <trkpt lat="44.84999" lon="3.08705">
        <ele>977</ele>
        <time>2016-09-01T12:47:22Z</time>
      </trkpt>
      <trkpt lat="44.84999" lon="3.08704">
        <ele>977</ele>
        <time>2016-09-01T12:47:23Z</time>
      </trkpt>
      <trkpt lat="44.84998" lon="3.08691">
        <ele>977</ele>
        <time>2016-09-01T12:47:32Z</time>
      </trkpt>
      <trkpt lat="44.84998" lon="3.0869">
        <ele>977</ele>
        <time>2016-09-01T12:47:33Z</time>
      </trkpt>
      <trkpt lat="44.84999" lon="3.08677">
        <ele>977</ele>
        <time>2016-09-01T12:47:41Z</time>
      </trkpt>
      <trkpt lat="44.84999" lon="3.08676">
        <ele>977</ele>
        <time>2016-09-01T12:47:42Z</time>
      </trkpt>
      <trkpt lat="44.84998" lon="3.08665">
        <ele>978</ele>
        <time>2016-09-01T12:47:50Z</time>
      </trkpt>
      <trkpt lat="44.84998" lon="3.08663">
        <ele>979</ele>
        <time>2016-09-01T12:47:51Z</time>
      </trkpt>
      <trkpt lat="44.84997" lon="3.08652">
        <ele>982</ele>
        <time>2016-09-01T12:47:57Z</time>
      </trkpt>
      <trkpt lat="44.84996" lon="3.0865">
        <ele>982</ele>
        <time>2016-09-01T12:47:58Z</time>
      </trkpt>
      <trkpt lat="44.84996" lon="3.08638">
        <ele>984</ele>
        <time>2016-09-01T12:48:05Z</time>
      </trkpt>
      <trkpt lat="44.84996" lon="3.08636">
        <ele>984</ele>
        <time>2016-09-01T12:48:06Z</time>
      </trkpt>
      <trkpt lat="44.85" lon="3.08625">
        <ele>985</ele>
        <time>2016-09-01T12:48:12Z</time>
      </trkpt>
      <trkpt lat="44.85" lon="3.08624">
        <ele>985</ele>
        <time>2016-09-01T12:48:13Z</time>
      </trkpt>
      <trkpt lat="44.85003" lon="3.08613">
        <ele>983</ele>
        <time>2016-09-01T12:48:21Z</time>
      </trkpt>
      <trkpt lat="44.85004" lon="3.08612">
        <ele>983</ele>
        <time>2016-09-01T12:48:22Z</time>
      </trkpt>
      <trkpt lat="44.85008" lon="3.08601">
        <ele>984</ele>
        <time>2016-09-01T12:48:33Z</time>
      </trkpt>
      <trkpt lat="44.8501" lon="3.086">
        <ele>984</ele>
        <time>2016-09-01T12:48:34Z</time>
      </trkpt>
      <trkpt lat="44.85014" lon="3.0859">
        <ele>984</ele>
        <time>2016-09-01T12:48:40Z</time>
      </trkpt>
      <trkpt lat="44.85014" lon="3.08589">
        <ele>984</ele>
        <time>2016-09-01T12:48:41Z</time>
      </trkpt>
      <trkpt lat="44.85018" lon="3.08578">
        <ele>986</ele>
        <time>2016-09-01T12:48:50Z</time>
      </trkpt>
      <trkpt lat="44.85019" lon="3.08578">
        <ele>986</ele>
        <time>2016-09-01T12:48:51Z</time>
      </trkpt>
      <trkpt lat="44.85021" lon="3.08566">
        <ele>986</ele>
        <time>2016-09-01T12:49:06Z</time>
      </trkpt>
      <trkpt lat="44.85021" lon="3.08564">
        <ele>986</ele>
        <time>2016-09-01T12:49:07Z</time>
      </trkpt>
      <trkpt lat="44.85013" lon="3.08559">
        <ele>986</ele>
        <time>2016-09-01T12:49:15Z</time>
      </trkpt>
      <trkpt lat="44.85012" lon="3.08557">
        <ele>986</ele>
        <time>2016-09-01T12:49:16Z</time>
      </trkpt>
      <trkpt lat="44.85003" lon="3.08556">
        <ele>986</ele>
        <time>2016-09-01T12:49:23Z</time>
      </trkpt>
      <trkpt lat="44.85002" lon="3.08558">
        <ele>986</ele>
        <time>2016-09-01T12:49:24Z</time>
      </trkpt>
      <trkpt lat="44.84997" lon="3.08568">
        <ele>992</ele>
        <time>2016-09-01T12:49:33Z</time>
      </trkpt>
      <trkpt lat="44.84996" lon="3.08569">
        <ele>991</ele>
        <time>2016-09-01T12:49:34Z</time>
      </trkpt>
      <trkpt lat="44.84991" lon="3.08579">
        <ele>990</ele>
        <time>2016-09-01T12:49:40Z</time>
      </trkpt>
      <trkpt lat="44.84991" lon="3.0858">
        <ele>990</ele>
        <time>2016-09-01T12:49:41Z</time>
      </trkpt>
      <trkpt lat="44.84984" lon="3.08588">
        <ele>987</ele>
        <time>2016-09-01T12:49:49Z</time>
      </trkpt>
      <trkpt lat="44.84983" lon="3.0859">
        <ele>987</ele>
        <time>2016-09-01T12:49:50Z</time>
      </trkpt>
      <trkpt lat="44.84974" lon="3.08593">
        <ele>988</ele>
        <time>2016-09-01T12:49:57Z</time>
      </trkpt>
      <trkpt lat="44.84973" lon="3.08594">
        <ele>988</ele>
        <time>2016-09-01T12:49:58Z</time>
      </trkpt>
      <trkpt lat="44.84965" lon="3.08596">
        <ele>989</ele>
        <time>2016-09-01T12:50:07Z</time>
      </trkpt>
      <trkpt lat="44.84964" lon="3.08596">
        <ele>989</ele>
        <time>2016-09-01T12:50:08Z</time>
      </trkpt>
      <trkpt lat="44.84956" lon="3.08598">
        <ele>990</ele>
        <time>2016-09-01T12:50:15Z</time>
      </trkpt>
      <trkpt lat="44.84955" lon="3.08599">
        <ele>990</ele>
        <time>2016-09-01T12:50:16Z</time>
      </trkpt>
      <trkpt lat="44.84947" lon="3.08603">
        <ele>991</ele>
        <time>2016-09-01T12:50:27Z</time>
      </trkpt>
      <trkpt lat="44.84946" lon="3.08604">
        <ele>991</ele>
        <time>2016-09-01T12:50:28Z</time>
      </trkpt>
      <trkpt lat="44.84938" lon="3.08607">
        <ele>991</ele>
        <time>2016-09-01T12:50:36Z</time>
      </trkpt>
      <trkpt lat="44.84938" lon="3.08609">
        <ele>991</ele>
        <time>2016-09-01T12:50:37Z</time>
      </trkpt>
      <trkpt lat="44.84932" lon="3.08618">
        <ele>991</ele>
        <time>2016-09-01T12:50:46Z</time>
      </trkpt>
      <trkpt lat="44.8493" lon="3.08619">
        <ele>991</ele>
        <time>2016-09-01T12:50:47Z</time>
      </trkpt>
      <trkpt lat="44.84926" lon="3.08629">
        <ele>990</ele>
        <time>2016-09-01T12:50:55Z</time>
      </trkpt>
      <trkpt lat="44.84925" lon="3.08631">
        <ele>989</ele>
        <time>2016-09-01T12:50:56Z</time>
      </trkpt>
      <trkpt lat="44.84919" lon="3.08639">
        <ele>989</ele>
        <time>2016-09-01T12:51:03Z</time>
      </trkpt>
      <trkpt lat="44.84919" lon="3.08641">
        <ele>989</ele>
        <time>2016-09-01T12:51:04Z</time>
      </trkpt>
      <trkpt lat="44.8491" lon="3.08644">
        <ele>996</ele>
        <time>2016-09-01T12:51:13Z</time>
      </trkpt>
      <trkpt lat="44.8491" lon="3.08645">
        <ele>996</ele>
        <time>2016-09-01T12:51:14Z</time>
      </trkpt>
      <trkpt lat="44.84902" lon="3.08649">
        <ele>996</ele>
        <time>2016-09-01T12:51:21Z</time>
      </trkpt>
      <trkpt lat="44.849" lon="3.08649">
        <ele>996</ele>
        <time>2016-09-01T12:51:22Z</time>
      </trkpt>
      <trkpt lat="44.84892" lon="3.08652">
        <ele>997</ele>
        <time>2016-09-01T12:51:29Z</time>
      </trkpt>
      <trkpt lat="44.84891" lon="3.08653">
        <ele>997</ele>
        <time>2016-09-01T12:51:30Z</time>
      </trkpt>
      <trkpt lat="44.84884" lon="3.0866">
        <ele>998</ele>
        <time>2016-09-01T12:51:37Z</time>
      </trkpt>
      <trkpt lat="44.84883" lon="3.08661">
        <ele>998</ele>
        <time>2016-09-01T12:51:38Z</time>
      </trkpt>
      <trkpt lat="44.84875" lon="3.08666">
        <ele>999</ele>
        <time>2016-09-01T12:51:49Z</time>
      </trkpt>
      <trkpt lat="44.84875" lon="3.08667">
        <ele>999</ele>
        <time>2016-09-01T12:51:50Z</time>
      </trkpt>
      <trkpt lat="44.84866" lon="3.08669">
        <ele>991</ele>
        <time>2016-09-01T12:51:59Z</time>
      </trkpt>
      <trkpt lat="44.84865" lon="3.08669">
        <ele>992</ele>
        <time>2016-09-01T12:52:00Z</time>
      </trkpt>
      <trkpt lat="44.84856" lon="3.08669">
        <ele>993</ele>
        <time>2016-09-01T12:52:11Z</time>
      </trkpt>
      <trkpt lat="44.84855" lon="3.08668">
        <ele>994</ele>
        <time>2016-09-01T12:52:12Z</time>
      </trkpt>
      <trkpt lat="44.84848" lon="3.08666">
        <ele>1002</ele>
        <time>2016-09-01T12:52:17Z</time>
      </trkpt>
      <trkpt lat="44.84846" lon="3.08666">
        <ele>1002</ele>
        <time>2016-09-01T12:52:18Z</time>
      </trkpt>
      <trkpt lat="44.84838" lon="3.08662">
        <ele>1002</ele>
        <time>2016-09-01T12:52:24Z</time>
      </trkpt>
      <trkpt lat="44.84837" lon="3.08662">
        <ele>1002</ele>
        <time>2016-09-01T12:52:25Z</time>
      </trkpt>
      <trkpt lat="44.84828" lon="3.08665">
        <ele>1005</ele>
        <time>2016-09-01T12:52:33Z</time>
      </trkpt>
      <trkpt lat="44.84827" lon="3.08665">
        <ele>1005</ele>
        <time>2016-09-01T12:52:34Z</time>
      </trkpt>
      <trkpt lat="44.8482" lon="3.08669">
        <ele>1002</ele>
        <time>2016-09-01T12:52:40Z</time>
      </trkpt>
      <trkpt lat="44.84818" lon="3.0867">
        <ele>1002</ele>
        <time>2016-09-01T12:52:41Z</time>
      </trkpt>
      <trkpt lat="44.84811" lon="3.08674">
        <ele>1002</ele>
        <time>2016-09-01T12:52:48Z</time>
      </trkpt>
      <trkpt lat="44.8481" lon="3.08675">
        <ele>1002</ele>
        <time>2016-09-01T12:52:49Z</time>
      </trkpt>
      <trkpt lat="44.84801" lon="3.08676">
        <ele>1002</ele>
        <time>2016-09-01T12:52:59Z</time>
      </trkpt>
      <trkpt lat="44.84799" lon="3.08676">
        <ele>1003</ele>
        <time>2016-09-01T12:53:00Z</time>
      </trkpt>
      <trkpt lat="44.84791" lon="3.0868">
        <ele>1003</ele>
        <time>2016-09-01T12:53:07Z</time>
      </trkpt>
      <trkpt lat="44.8479" lon="3.08681">
        <ele>1003</ele>
        <time>2016-09-01T12:53:08Z</time>
      </trkpt>
      <trkpt lat="44.84782" lon="3.08687">
        <ele>1003</ele>
        <time>2016-09-01T12:53:17Z</time>
      </trkpt>
      <trkpt lat="44.84782" lon="3.08688">
        <ele>1003</ele>
        <time>2016-09-01T12:53:18Z</time>
      </trkpt>
      <trkpt lat="44.84774" lon="3.0869">
        <ele>1004</ele>
        <time>2016-09-01T12:53:25Z</time>
      </trkpt>
      <trkpt lat="44.84772" lon="3.0869">
        <ele>1004</ele>
        <time>2016-09-01T12:53:26Z</time>
      </trkpt>
      <trkpt lat="44.84764" lon="3.08693">
        <ele>1005</ele>
        <time>2016-09-01T12:53:36Z</time>
      </trkpt>
      <trkpt lat="44.84763" lon="3.08693">
        <ele>1005</ele>
        <time>2016-09-01T12:53:37Z</time>
      </trkpt>
      <trkpt lat="44.84755" lon="3.087">
        <ele>1004</ele>
        <time>2016-09-01T12:53:46Z</time>
      </trkpt>
      <trkpt lat="44.84754" lon="3.08702">
        <ele>1004</ele>
        <time>2016-09-01T12:53:47Z</time>
      </trkpt>
      <trkpt lat="44.84748" lon="3.08708">
        <ele>1010</ele>
        <time>2016-09-01T12:53:55Z</time>
      </trkpt>
      <trkpt lat="44.84746" lon="3.08709">
        <ele>1010</ele>
        <time>2016-09-01T12:53:56Z</time>
      </trkpt>
      <trkpt lat="44.8474" lon="3.08716">
        <ele>1009</ele>
        <time>2016-09-01T12:54:03Z</time>
      </trkpt>
      <trkpt lat="44.84738" lon="3.08716">
        <ele>1009</ele>
        <time>2016-09-01T12:54:04Z</time>
      </trkpt>
      <trkpt lat="44.8473" lon="3.08721">
        <ele>1009</ele>
        <time>2016-09-01T12:54:16Z</time>
      </trkpt>
      <trkpt lat="44.84729" lon="3.08721">
        <ele>1009</ele>
        <time>2016-09-01T12:54:17Z</time>
      </trkpt>
      <trkpt lat="44.8472" lon="3.08722">
        <ele>1010</ele>
        <time>2016-09-01T12:54:26Z</time>
      </trkpt>
      <trkpt lat="44.8472" lon="3.08722">
        <ele>1010</ele>
        <time>2016-09-01T12:54:27Z</time>
      </trkpt>
      <trkpt lat="44.84712" lon="3.08722">
        <ele>1010</ele>
        <time>2016-09-01T12:54:37Z</time>
      </trkpt>
      <trkpt lat="44.8471" lon="3.08723">
        <ele>1010</ele>
        <time>2016-09-01T12:54:38Z</time>
      </trkpt>
      <trkpt lat="44.84702" lon="3.08722">
        <ele>1011</ele>
        <time>2016-09-01T12:54:46Z</time>
      </trkpt>
      <trkpt lat="44.847" lon="3.08722">
        <ele>1011</ele>
        <time>2016-09-01T12:54:47Z</time>
      </trkpt>
      <trkpt lat="44.84695" lon="3.08714">
        <ele>1012</ele>
        <time>2016-09-01T12:54:53Z</time>
      </trkpt>
      <trkpt lat="44.84693" lon="3.08713">
        <ele>1012</ele>
        <time>2016-09-01T12:54:54Z</time>
      </trkpt>
      <trkpt lat="44.84687" lon="3.08706">
        <ele>1013</ele>
        <time>2016-09-01T12:55:00Z</time>
      </trkpt>
      <trkpt lat="44.84685" lon="3.08705">
        <ele>1013</ele>
        <time>2016-09-01T12:55:01Z</time>
      </trkpt>
      <trkpt lat="44.84678" lon="3.087">
        <ele>1014</ele>
        <time>2016-09-01T12:55:08Z</time>
      </trkpt>
      <trkpt lat="44.84677" lon="3.08699">
        <ele>1014</ele>
        <time>2016-09-01T12:55:09Z</time>
      </trkpt>
      <trkpt lat="44.84668" lon="3.08696">
        <ele>1014</ele>
        <time>2016-09-01T12:55:20Z</time>
      </trkpt>
      <trkpt lat="44.84668" lon="3.08696">
        <ele>1015</ele>
        <time>2016-09-01T12:55:21Z</time>
      </trkpt>
      <trkpt lat="44.84659" lon="3.08696">
        <ele>1016</ele>
        <time>2016-09-01T12:55:30Z</time>
      </trkpt>
      <trkpt lat="44.84658" lon="3.08697">
        <ele>1016</ele>
        <time>2016-09-01T12:55:31Z</time>
      </trkpt>
      <trkpt lat="44.84661" lon="3.08685">
        <ele>1017</ele>
        <time>2016-09-01T12:55:58Z</time>
      </trkpt>
      <trkpt lat="44.84662" lon="3.08684">
        <ele>1017</ele>
        <time>2016-09-01T12:55:59Z</time>
      </trkpt>
      <trkpt lat="44.84657" lon="3.08689">
        <ele>1016</ele>
        <time>2016-09-01T12:56:16Z</time>
      </trkpt>
      <trkpt lat="44.84654" lon="3.0869">
        <ele>1016</ele>
        <time>2016-09-01T12:56:17Z</time>
      </trkpt>
      <trkpt lat="44.84647" lon="3.08688">
        <ele>1016</ele>
        <time>2016-09-01T12:56:22Z</time>
      </trkpt>
      <trkpt lat="44.84645" lon="3.08689">
        <ele>1016</ele>
        <time>2016-09-01T12:56:23Z</time>
      </trkpt>
      <trkpt lat="44.84636" lon="3.08691">
        <ele>1015</ele>
        <time>2016-09-01T12:56:33Z</time>
      </trkpt>
      <trkpt lat="44.84635" lon="3.08691">
        <ele>1015</ele>
        <time>2016-09-01T12:56:34Z</time>
      </trkpt>
      <trkpt lat="44.84628" lon="3.08686">
        <ele>1015</ele>
        <time>2016-09-01T12:56:40Z</time>
      </trkpt>
      <trkpt lat="44.84627" lon="3.08685">
        <ele>1015</ele>
        <time>2016-09-01T12:56:41Z</time>
      </trkpt>
      <trkpt lat="44.8462" lon="3.08679">
        <ele>1015</ele>
        <time>2016-09-01T12:56:50Z</time>
      </trkpt>
      <trkpt lat="44.84618" lon="3.08679">
        <ele>1015</ele>
        <time>2016-09-01T12:56:51Z</time>
      </trkpt>
      <trkpt lat="44.8461" lon="3.08674">
        <ele>1015</ele>
        <time>2016-09-01T12:56:59Z</time>
      </trkpt>
      <trkpt lat="44.84609" lon="3.08673">
        <ele>1015</ele>
        <time>2016-09-01T12:57:00Z</time>
      </trkpt>
      <trkpt lat="44.84601" lon="3.08668">
        <ele>1015</ele>
        <time>2016-09-01T12:57:09Z</time>
      </trkpt>
      <trkpt lat="44.846" lon="3.08668">
        <ele>1015</ele>
        <time>2016-09-01T12:57:10Z</time>
      </trkpt>
      <trkpt lat="44.84591" lon="3.08665">
        <ele>1018</ele>
        <time>2016-09-01T12:57:18Z</time>
      </trkpt>
      <trkpt lat="44.8459" lon="3.08666">
        <ele>1017</ele>
        <time>2016-09-01T12:57:19Z</time>
      </trkpt>
      <trkpt lat="44.84582" lon="3.08664">
        <ele>1017</ele>
        <time>2016-09-01T12:57:27Z</time>
      </trkpt>
      <trkpt lat="44.84581" lon="3.08663">
        <ele>1017</ele>
        <time>2016-09-01T12:57:28Z</time>
      </trkpt>
      <trkpt lat="44.84573" lon="3.08662">
        <ele>1018</ele>
        <time>2016-09-01T12:57:36Z</time>
      </trkpt>
      <trkpt lat="44.84572" lon="3.08662">
        <ele>1018</ele>
        <time>2016-09-01T12:57:37Z</time>
      </trkpt>
      <trkpt lat="44.84563" lon="3.0866">
        <ele>1020</ele>
        <time>2016-09-01T12:57:48Z</time>
      </trkpt>
      <trkpt lat="44.84563" lon="3.0866">
        <ele>1020</ele>
        <time>2016-09-01T12:57:49Z</time>
      </trkpt>
      <trkpt lat="44.84554" lon="3.08657">
        <ele>1020</ele>
        <time>2016-09-01T12:57:57Z</time>
      </trkpt>
      <trkpt lat="44.84552" lon="3.08657">
        <ele>1021</ele>
        <time>2016-09-01T12:57:58Z</time>
      </trkpt>
      <trkpt lat="44.84543" lon="3.08657">
        <ele>1021</ele>
        <time>2016-09-01T12:58:06Z</time>
      </trkpt>
      <trkpt lat="44.84542" lon="3.08658">
        <ele>1021</ele>
        <time>2016-09-01T12:58:07Z</time>
      </trkpt>
      <trkpt lat="44.84534" lon="3.08659">
        <ele>1022</ele>
        <time>2016-09-01T12:58:21Z</time>
      </trkpt>
      <trkpt lat="44.84533" lon="3.08659">
        <ele>1022</ele>
        <time>2016-09-01T12:58:22Z</time>
      </trkpt>
      <trkpt lat="44.84525" lon="3.08659">
        <ele>1022</ele>
        <time>2016-09-01T12:58:29Z</time>
      </trkpt>
      <trkpt lat="44.84523" lon="3.0866">
        <ele>1022</ele>
        <time>2016-09-01T12:58:30Z</time>
      </trkpt>
      <trkpt lat="44.84515" lon="3.08663">
        <ele>1023</ele>
        <time>2016-09-01T12:58:38Z</time>
      </trkpt>
      <trkpt lat="44.84514" lon="3.08662">
        <ele>1023</ele>
        <time>2016-09-01T12:58:39Z</time>
      </trkpt>
      <trkpt lat="44.84506" lon="3.08665">
        <ele>1023</ele>
        <time>2016-09-01T12:58:47Z</time>
      </trkpt>
      <trkpt lat="44.84505" lon="3.08665">
        <ele>1023</ele>
        <time>2016-09-01T12:58:48Z</time>
      </trkpt>
      <trkpt lat="44.84496" lon="3.08667">
        <ele>1024</ele>
        <time>2016-09-01T12:58:56Z</time>
      </trkpt>
      <trkpt lat="44.84495" lon="3.08667">
        <ele>1024</ele>
        <time>2016-09-01T12:58:57Z</time>
      </trkpt>
      <trkpt lat="44.84487" lon="3.0867">
        <ele>1025</ele>
        <time>2016-09-01T12:59:05Z</time>
      </trkpt>
      <trkpt lat="44.84486" lon="3.0867">
        <ele>1025</ele>
        <time>2016-09-01T12:59:06Z</time>
      </trkpt>
      <trkpt lat="44.84477" lon="3.08668">
        <ele>1026</ele>
        <time>2016-09-01T12:59:15Z</time>
      </trkpt>
      <trkpt lat="44.84476" lon="3.08667">
        <ele>1026</ele>
        <time>2016-09-01T12:59:16Z</time>
      </trkpt>
      <trkpt lat="44.84467" lon="3.0867">
        <ele>1027</ele>
        <time>2016-09-01T12:59:26Z</time>
      </trkpt>
      <trkpt lat="44.84467" lon="3.0867">
        <ele>1027</ele>
        <time>2016-09-01T12:59:27Z</time>
      </trkpt>
      <trkpt lat="44.84458" lon="3.08674">
        <ele>1028</ele>
        <time>2016-09-01T12:59:35Z</time>
      </trkpt>
      <trkpt lat="44.84458" lon="3.08674">
        <ele>1028</ele>
        <time>2016-09-01T12:59:36Z</time>
      </trkpt>
      <trkpt lat="44.8445" lon="3.08674">
        <ele>1028</ele>
        <time>2016-09-01T12:59:43Z</time>
      </trkpt>
      <trkpt lat="44.84448" lon="3.08674">
        <ele>1029</ele>
        <time>2016-09-01T12:59:44Z</time>
      </trkpt>
      <trkpt lat="44.8444" lon="3.08679">
        <ele>1029</ele>
        <time>2016-09-01T12:59:48Z</time>
      </trkpt>
      <trkpt lat="44.84439" lon="3.08679">
        <ele>1030</ele>
        <time>2016-09-01T12:59:49Z</time>
      </trkpt>
      <trkpt lat="44.84433" lon="3.08688">
        <ele>1030</ele>
        <time>2016-09-01T12:59:56Z</time>
      </trkpt>
      <trkpt lat="44.84432" lon="3.08689">
        <ele>1030</ele>
        <time>2016-09-01T12:59:57Z</time>
      </trkpt>
      <trkpt lat="44.84425" lon="3.08696">
        <ele>1029</ele>
        <time>2016-09-01T13:00:02Z</time>
      </trkpt>
      <trkpt lat="44.84425" lon="3.08697">
        <ele>1029</ele>
        <time>2016-09-01T13:00:03Z</time>
      </trkpt>
      <trkpt lat="44.84419" lon="3.08707">
        <ele>1029</ele>
        <time>2016-09-01T13:00:11Z</time>
      </trkpt>
      <trkpt lat="44.84419" lon="3.08708">
        <ele>1029</ele>
        <time>2016-09-01T13:00:12Z</time>
      </trkpt>
      <trkpt lat="44.8442" lon="3.0872">
        <ele>1029</ele>
        <time>2016-09-01T13:00:23Z</time>
      </trkpt>
      <trkpt lat="44.84419" lon="3.08721">
        <ele>1029</ele>
        <time>2016-09-01T13:00:24Z</time>
      </trkpt>
      <trkpt lat="44.84413" lon="3.08729">
        <ele>1032</ele>
        <time>2016-09-01T13:00:34Z</time>
      </trkpt>
      <trkpt lat="44.84412" lon="3.0873">
        <ele>1032</ele>
        <time>2016-09-01T13:00:35Z</time>
      </trkpt>
      <trkpt lat="44.84404" lon="3.08735">
        <ele>1032</ele>
        <time>2016-09-01T13:00:41Z</time>
      </trkpt>
      <trkpt lat="44.84403" lon="3.08736">
        <ele>1032</ele>
        <time>2016-09-01T13:00:42Z</time>
      </trkpt>
      <trkpt lat="44.84394" lon="3.08739">
        <ele>1032</ele>
        <time>2016-09-01T13:00:47Z</time>
      </trkpt>
      <trkpt lat="44.84393" lon="3.0874">
        <ele>1032</ele>
        <time>2016-09-01T13:00:48Z</time>
      </trkpt>
      <trkpt lat="44.84385" lon="3.08744">
        <ele>1032</ele>
        <time>2016-09-01T13:00:58Z</time>
      </trkpt>
      <trkpt lat="44.84384" lon="3.08744">
        <ele>1033</ele>
        <time>2016-09-01T13:00:59Z</time>
      </trkpt>
      <trkpt lat="44.84376" lon="3.08748">
        <ele>1033</ele>
        <time>2016-09-01T13:01:11Z</time>
      </trkpt>
      <trkpt lat="44.84374" lon="3.08748">
        <ele>1033</ele>
        <time>2016-09-01T13:01:12Z</time>
      </trkpt>
      <trkpt lat="44.84366" lon="3.08752">
        <ele>1032</ele>
        <time>2016-09-01T13:01:18Z</time>
      </trkpt>
      <trkpt lat="44.84364" lon="3.08752">
        <ele>1032</ele>
        <time>2016-09-01T13:01:19Z</time>
      </trkpt>
      <trkpt lat="44.84356" lon="3.08757">
        <ele>1033</ele>
        <time>2016-09-01T13:01:26Z</time>
      </trkpt>
      <trkpt lat="44.84355" lon="3.08758">
        <ele>1033</ele>
        <time>2016-09-01T13:01:27Z</time>
      </trkpt>
      <trkpt lat="44.84348" lon="3.08761">
        <ele>1033</ele>
        <time>2016-09-01T13:01:34Z</time>
      </trkpt>
      <trkpt lat="44.84347" lon="3.08762">
        <ele>1033</ele>
        <time>2016-09-01T13:01:35Z</time>
      </trkpt>
      <trkpt lat="44.84338" lon="3.0876">
        <ele>1033</ele>
        <time>2016-09-01T13:01:42Z</time>
      </trkpt>
      <trkpt lat="44.84338" lon="3.0876">
        <ele>1033</ele>
        <time>2016-09-01T13:01:43Z</time>
      </trkpt>
      <trkpt lat="44.84344" lon="3.08752">
        <ele>1033</ele>
        <time>2016-09-01T13:03:08Z</time>
      </trkpt>
      <trkpt lat="44.84344" lon="3.08751">
        <ele>1033</ele>
        <time>2016-09-01T13:03:09Z</time>
      </trkpt>
      <trkpt lat="44.84338" lon="3.08759">
        <ele>1033</ele>
        <time>2016-09-01T13:04:12Z</time>
      </trkpt>
      <trkpt lat="44.84337" lon="3.08761">
        <ele>1033</ele>
        <time>2016-09-01T13:04:13Z</time>
      </trkpt>
      <trkpt lat="44.84329" lon="3.08762">
        <ele>1033</ele>
        <time>2016-09-01T13:04:36Z</time>
      </trkpt>
      <trkpt lat="44.84328" lon="3.08762">
        <ele>1033</ele>
        <time>2016-09-01T13:04:37Z</time>
      </trkpt>
      <trkpt lat="44.84319" lon="3.08761">
        <ele>1033</ele>
        <time>2016-09-01T13:04:46Z</time>
      </trkpt>
      <trkpt lat="44.84318" lon="3.08761">
        <ele>1033</ele>
        <time>2016-09-01T13:04:47Z</time>
      </trkpt>
      <trkpt lat="44.8431" lon="3.08759">
        <ele>1033</ele>
        <time>2016-09-01T13:04:54Z</time>
      </trkpt>
      <trkpt lat="44.84309" lon="3.08758">
        <ele>1033</ele>
        <time>2016-09-01T13:04:55Z</time>
      </trkpt>
      <trkpt lat="44.84301" lon="3.08755">
        <ele>1033</ele>
        <time>2016-09-01T13:05:02Z</time>
      </trkpt>
      <trkpt lat="44.843" lon="3.08755">
        <ele>1033</ele>
        <time>2016-09-01T13:05:03Z</time>
      </trkpt>
      <trkpt lat="44.84292" lon="3.0875">
        <ele>1032</ele>
        <time>2016-09-01T13:05:09Z</time>
      </trkpt>
      <trkpt lat="44.8429" lon="3.08749">
        <ele>1032</ele>
        <time>2016-09-01T13:05:10Z</time>
      </trkpt>
      <trkpt lat="44.84282" lon="3.08747">
        <ele>1032</ele>
        <time>2016-09-01T13:05:17Z</time>
      </trkpt>
      <trkpt lat="44.84281" lon="3.08747">
        <ele>1032</ele>
        <time>2016-09-01T13:05:18Z</time>
      </trkpt>
      <trkpt lat="44.84272" lon="3.08749">
        <ele>1032</ele>
        <time>2016-09-01T13:05:25Z</time>
      </trkpt>
      <trkpt lat="44.84271" lon="3.0875">
        <ele>1032</ele>
        <time>2016-09-01T13:05:26Z</time>
      </trkpt>
      <trkpt lat="44.84263" lon="3.08751">
        <ele>1031</ele>
        <time>2016-09-01T13:05:32Z</time>
      </trkpt>
      <trkpt lat="44.84262" lon="3.08752">
        <ele>1031</ele>
        <time>2016-09-01T13:05:33Z</time>
      </trkpt>
      <trkpt lat="44.84254" lon="3.08754">
        <ele>1030</ele>
        <time>2016-09-01T13:05:38Z</time>
      </trkpt>
      <trkpt lat="44.84253" lon="3.08754">
        <ele>1030</ele>
        <time>2016-09-01T13:05:39Z</time>
      </trkpt>
      <trkpt lat="44.84245" lon="3.08755">
        <ele>1029</ele>
        <time>2016-09-01T13:05:47Z</time>
      </trkpt>
      <trkpt lat="44.84244" lon="3.08756">
        <ele>1029</ele>
        <time>2016-09-01T13:05:48Z</time>
      </trkpt>
      <trkpt lat="44.84235" lon="3.08759">
        <ele>1027</ele>
        <time>2016-09-01T13:05:56Z</time>
      </trkpt>
      <trkpt lat="44.84234" lon="3.08759">
        <ele>1027</ele>
        <time>2016-09-01T13:05:57Z</time>
      </trkpt>
      <trkpt lat="44.84226" lon="3.08763">
        <ele>1026</ele>
        <time>2016-09-01T13:06:05Z</time>
      </trkpt>
      <trkpt lat="44.84225" lon="3.08763">
        <ele>1026</ele>
        <time>2016-09-01T13:06:06Z</time>
      </trkpt>
      <trkpt lat="44.84217" lon="3.08768">
        <ele>1026</ele>
        <time>2016-09-01T13:06:16Z</time>
      </trkpt>
      <trkpt lat="44.84216" lon="3.08768">
        <ele>1025</ele>
        <time>2016-09-01T13:06:17Z</time>
      </trkpt>
      <trkpt lat="44.84208" lon="3.08775">
        <ele>1025</ele>
        <time>2016-09-01T13:06:25Z</time>
      </trkpt>
      <trkpt lat="44.84208" lon="3.08774">
        <ele>1025</ele>
        <time>2016-09-01T13:06:26Z</time>
      </trkpt>
      <trkpt lat="44.842" lon="3.08778">
        <ele>1024</ele>
        <time>2016-09-01T13:06:36Z</time>
      </trkpt>
      <trkpt lat="44.84199" lon="3.08778">
        <ele>1024</ele>
        <time>2016-09-01T13:06:37Z</time>
      </trkpt>
      <trkpt lat="44.84191" lon="3.08771">
        <ele>1023</ele>
        <time>2016-09-01T13:06:49Z</time>
      </trkpt>
      <trkpt lat="44.84191" lon="3.08771">
        <ele>1023</ele>
        <time>2016-09-01T13:06:50Z</time>
      </trkpt>
      <trkpt lat="44.84189" lon="3.08759">
        <ele>1023</ele>
        <time>2016-09-01T13:07:07Z</time>
      </trkpt>
      <trkpt lat="44.84189" lon="3.08758">
        <ele>1023</ele>
        <time>2016-09-01T13:07:08Z</time>
      </trkpt>
      <trkpt lat="44.84182" lon="3.08749">
        <ele>1022</ele>
        <time>2016-09-01T13:07:16Z</time>
      </trkpt>
      <trkpt lat="44.84182" lon="3.08748">
        <ele>1022</ele>
        <time>2016-09-01T13:07:17Z</time>
      </trkpt>
      <trkpt lat="44.84176" lon="3.08738">
        <ele>1022</ele>
        <time>2016-09-01T13:07:24Z</time>
      </trkpt>
      <trkpt lat="44.84175" lon="3.08737">
        <ele>1022</ele>
        <time>2016-09-01T13:07:25Z</time>
      </trkpt>
      <trkpt lat="44.84169" lon="3.08728">
        <ele>1023</ele>
        <time>2016-09-01T13:07:33Z</time>
      </trkpt>
      <trkpt lat="44.84168" lon="3.08728">
        <ele>1023</ele>
        <time>2016-09-01T13:07:34Z</time>
      </trkpt>
      <trkpt lat="44.8416" lon="3.08725">
        <ele>1017</ele>
        <time>2016-09-01T13:07:41Z</time>
      </trkpt>
      <trkpt lat="44.84159" lon="3.08725">
        <ele>1017</ele>
        <time>2016-09-01T13:07:42Z</time>
      </trkpt>
      <trkpt lat="44.8415" lon="3.08726">
        <ele>1017</ele>
        <time>2016-09-01T13:07:47Z</time>
      </trkpt>
      <trkpt lat="44.84149" lon="3.08727">
        <ele>1017</ele>
        <time>2016-09-01T13:07:48Z</time>
      </trkpt>
      <trkpt lat="44.8414" lon="3.08728">
        <ele>1016</ele>
        <time>2016-09-01T13:07:53Z</time>
      </trkpt>
      <trkpt lat="44.84139" lon="3.08728">
        <ele>1016</ele>
        <time>2016-09-01T13:07:54Z</time>
      </trkpt>
      <trkpt lat="44.84131" lon="3.08733">
        <ele>1016</ele>
        <time>2016-09-01T13:08:00Z</time>
      </trkpt>
      <trkpt lat="44.8413" lon="3.08734">
        <ele>1016</ele>
        <time>2016-09-01T13:08:01Z</time>
      </trkpt>
      <trkpt lat="44.84122" lon="3.08735">
        <ele>1015</ele>
        <time>2016-09-01T13:08:09Z</time>
      </trkpt>
      <trkpt lat="44.8412" lon="3.08736">
        <ele>1015</ele>
        <time>2016-09-01T13:08:10Z</time>
      </trkpt>
      <trkpt lat="44.84112" lon="3.08741">
        <ele>1014</ele>
        <time>2016-09-01T13:08:18Z</time>
      </trkpt>
      <trkpt lat="44.84111" lon="3.08741">
        <ele>1014</ele>
        <time>2016-09-01T13:08:19Z</time>
      </trkpt>
      <trkpt lat="44.84106" lon="3.08748">
        <ele>1013</ele>
        <time>2016-09-01T13:08:24Z</time>
      </trkpt>
      <trkpt lat="44.84104" lon="3.0875">
        <ele>1012</ele>
        <time>2016-09-01T13:08:25Z</time>
      </trkpt>
      <trkpt lat="44.84099" lon="3.08759">
        <ele>1011</ele>
        <time>2016-09-01T13:08:31Z</time>
      </trkpt>
      <trkpt lat="44.84097" lon="3.0876">
        <ele>1011</ele>
        <time>2016-09-01T13:08:32Z</time>
      </trkpt>
      <trkpt lat="44.8409" lon="3.08767">
        <ele>1011</ele>
        <time>2016-09-01T13:08:39Z</time>
      </trkpt>
      <trkpt lat="44.8409" lon="3.08768">
        <ele>1011</ele>
        <time>2016-09-01T13:08:40Z</time>
      </trkpt>
      <trkpt lat="44.84082" lon="3.08768">
        <ele>1005</ele>
        <time>2016-09-01T13:08:46Z</time>
      </trkpt>
      <trkpt lat="44.84081" lon="3.08768">
        <ele>1005</ele>
        <time>2016-09-01T13:08:47Z</time>
      </trkpt>
      <trkpt lat="44.84073" lon="3.08769">
        <ele>1005</ele>
        <time>2016-09-01T13:08:53Z</time>
      </trkpt>
      <trkpt lat="44.84071" lon="3.08768">
        <ele>1005</ele>
        <time>2016-09-01T13:08:54Z</time>
      </trkpt>
      <trkpt lat="44.84063" lon="3.08768">
        <ele>1004</ele>
        <time>2016-09-01T13:09:03Z</time>
      </trkpt>
      <trkpt lat="44.84062" lon="3.08768">
        <ele>1004</ele>
        <time>2016-09-01T13:09:04Z</time>
      </trkpt>
      <trkpt lat="44.84053" lon="3.08765">
        <ele>1004</ele>
        <time>2016-09-01T13:09:11Z</time>
      </trkpt>
      <trkpt lat="44.84052" lon="3.08765">
        <ele>1003</ele>
        <time>2016-09-01T13:09:12Z</time>
      </trkpt>
      <trkpt lat="44.84044" lon="3.08766">
        <ele>1003</ele>
        <time>2016-09-01T13:09:20Z</time>
      </trkpt>
      <trkpt lat="44.84043" lon="3.08766">
        <ele>1003</ele>
        <time>2016-09-01T13:09:21Z</time>
      </trkpt>
      <trkpt lat="44.84036" lon="3.08763">
        <ele>1002</ele>
        <time>2016-09-01T13:09:28Z</time>
      </trkpt>
      <trkpt lat="44.84034" lon="3.08763">
        <ele>1002</ele>
        <time>2016-09-01T13:09:29Z</time>
      </trkpt>
      <trkpt lat="44.84026" lon="3.08761">
        <ele>1001</ele>
        <time>2016-09-01T13:09:35Z</time>
      </trkpt>
      <trkpt lat="44.84024" lon="3.0876">
        <ele>1001</ele>
        <time>2016-09-01T13:09:36Z</time>
      </trkpt>
      <trkpt lat="44.84016" lon="3.08758">
        <ele>1000</ele>
        <time>2016-09-01T13:09:43Z</time>
      </trkpt>
      <trkpt lat="44.84015" lon="3.08758">
        <ele>1000</ele>
        <time>2016-09-01T13:09:44Z</time>
      </trkpt>
      <trkpt lat="44.84006" lon="3.08759">
        <ele>998</ele>
        <time>2016-09-01T13:09:53Z</time>
      </trkpt>
      <trkpt lat="44.84005" lon="3.08759">
        <ele>998</ele>
        <time>2016-09-01T13:09:54Z</time>
      </trkpt>
      <trkpt lat="44.83997" lon="3.08761">
        <ele>995</ele>
        <time>2016-09-01T13:10:05Z</time>
      </trkpt>
      <trkpt lat="44.83996" lon="3.08761">
        <ele>995</ele>
        <time>2016-09-01T13:10:06Z</time>
      </trkpt>
      <trkpt lat="44.83987" lon="3.08761">
        <ele>995</ele>
        <time>2016-09-01T13:10:14Z</time>
      </trkpt>
      <trkpt lat="44.83986" lon="3.08761">
        <ele>995</ele>
        <time>2016-09-01T13:10:15Z</time>
      </trkpt>
      <trkpt lat="44.83977" lon="3.08763">
        <ele>995</ele>
        <time>2016-09-01T13:10:21Z</time>
      </trkpt>
      <trkpt lat="44.83975" lon="3.08763">
        <ele>995</ele>
        <time>2016-09-01T13:10:22Z</time>
      </trkpt>
      <trkpt lat="44.83967" lon="3.08766">
        <ele>994</ele>
        <time>2016-09-01T13:10:29Z</time>
      </trkpt>
      <trkpt lat="44.83965" lon="3.08766">
        <ele>994</ele>
        <time>2016-09-01T13:10:30Z</time>
      </trkpt>
      <trkpt lat="44.83957" lon="3.08763">
        <ele>994</ele>
        <time>2016-09-01T13:10:35Z</time>
      </trkpt>
      <trkpt lat="44.83956" lon="3.08764">
        <ele>994</ele>
        <time>2016-09-01T13:10:36Z</time>
      </trkpt>
      <trkpt lat="44.83948" lon="3.08763">
        <ele>994</ele>
        <time>2016-09-01T13:10:41Z</time>
      </trkpt>
      <trkpt lat="44.83947" lon="3.08763">
        <ele>993</ele>
        <time>2016-09-01T13:10:42Z</time>
      </trkpt>
      <trkpt lat="44.83939" lon="3.08766">
        <ele>993</ele>
        <time>2016-09-01T13:10:51Z</time>
      </trkpt>
      <trkpt lat="44.83937" lon="3.08767">
        <ele>993</ele>
        <time>2016-09-01T13:10:52Z</time>
      </trkpt>
      <trkpt lat="44.8393" lon="3.08771">
        <ele>993</ele>
        <time>2016-09-01T13:10:58Z</time>
      </trkpt>
      <trkpt lat="44.83929" lon="3.08772">
        <ele>993</ele>
        <time>2016-09-01T13:10:59Z</time>
      </trkpt>
      <trkpt lat="44.83926" lon="3.08783">
        <ele>993</ele>
        <time>2016-09-01T13:11:04Z</time>
      </trkpt>
      <trkpt lat="44.83925" lon="3.08784">
        <ele>993</ele>
        <time>2016-09-01T13:11:05Z</time>
      </trkpt>
      <trkpt lat="44.83921" lon="3.08795">
        <ele>993</ele>
        <time>2016-09-01T13:11:11Z</time>
      </trkpt>
      <trkpt lat="44.8392" lon="3.08797">
        <ele>993</ele>
        <time>2016-09-01T13:11:12Z</time>
      </trkpt>
      <trkpt lat="44.83918" lon="3.08808">
        <ele>992</ele>
        <time>2016-09-01T13:11:19Z</time>
      </trkpt>
      <trkpt lat="44.83918" lon="3.0881">
        <ele>992</ele>
        <time>2016-09-01T13:11:20Z</time>
      </trkpt>
      <trkpt lat="44.83917" lon="3.08822">
        <ele>992</ele>
        <time>2016-09-01T13:11:28Z</time>
      </trkpt>
      <trkpt lat="44.83917" lon="3.08824">
        <ele>991</ele>
        <time>2016-09-01T13:11:29Z</time>
      </trkpt>
      <trkpt lat="44.83917" lon="3.08836">
        <ele>990</ele>
        <time>2016-09-01T13:11:36Z</time>
      </trkpt>
      <trkpt lat="44.83917" lon="3.08837">
        <ele>991</ele>
        <time>2016-09-01T13:11:37Z</time>
      </trkpt>
      <trkpt lat="44.83916" lon="3.0885">
        <ele>988</ele>
        <time>2016-09-01T13:11:46Z</time>
      </trkpt>
      <trkpt lat="44.83916" lon="3.0885">
        <ele>988</ele>
        <time>2016-09-01T13:11:47Z</time>
      </trkpt>
      <trkpt lat="44.83915" lon="3.08862">
        <ele>988</ele>
        <time>2016-09-01T13:12:33Z</time>
      </trkpt>
      <trkpt lat="44.83915" lon="3.08864">
        <ele>988</ele>
        <time>2016-09-01T13:12:34Z</time>
      </trkpt>
      <trkpt lat="44.83915" lon="3.08875">
        <ele>987</ele>
        <time>2016-09-01T13:12:39Z</time>
      </trkpt>
      <trkpt lat="44.83914" lon="3.08877">
        <ele>987</ele>
        <time>2016-09-01T13:12:40Z</time>
      </trkpt>
      <trkpt lat="44.83911" lon="3.08889">
        <ele>987</ele>
        <time>2016-09-01T13:12:46Z</time>
      </trkpt>
      <trkpt lat="44.8391" lon="3.08891">
        <ele>987</ele>
        <time>2016-09-01T13:12:47Z</time>
      </trkpt>
      <trkpt lat="44.83906" lon="3.089">
        <ele>987</ele>
        <time>2016-09-01T13:12:53Z</time>
      </trkpt>
      <trkpt lat="44.83905" lon="3.08901">
        <ele>987</ele>
        <time>2016-09-01T13:12:54Z</time>
      </trkpt>
      <trkpt lat="44.839" lon="3.08911">
        <ele>987</ele>
        <time>2016-09-01T13:13:01Z</time>
      </trkpt>
      <trkpt lat="44.83899" lon="3.08912">
        <ele>987</ele>
        <time>2016-09-01T13:13:02Z</time>
      </trkpt>
      <trkpt lat="44.83894" lon="3.08922">
        <ele>983</ele>
        <time>2016-09-01T13:13:10Z</time>
      </trkpt>
      <trkpt lat="44.83893" lon="3.08923">
        <ele>983</ele>
        <time>2016-09-01T13:13:11Z</time>
      </trkpt>
      <trkpt lat="44.8389" lon="3.08933">
        <ele>982</ele>
        <time>2016-09-01T13:13:18Z</time>
      </trkpt>
      <trkpt lat="44.8389" lon="3.08935">
        <ele>982</ele>
        <time>2016-09-01T13:13:19Z</time>
      </trkpt>
      <trkpt lat="44.83885" lon="3.08945">
        <ele>981</ele>
        <time>2016-09-01T13:13:25Z</time>
      </trkpt>
      <trkpt lat="44.83885" lon="3.08947">
        <ele>981</ele>
        <time>2016-09-01T13:13:26Z</time>
      </trkpt>
      <trkpt lat="44.83883" lon="3.08958">
        <ele>980</ele>
        <time>2016-09-01T13:13:32Z</time>
      </trkpt>
      <trkpt lat="44.83883" lon="3.0896">
        <ele>980</ele>
        <time>2016-09-01T13:13:33Z</time>
      </trkpt>
      <trkpt lat="44.83882" lon="3.08972">
        <ele>980</ele>
        <time>2016-09-01T13:13:40Z</time>
      </trkpt>
      <trkpt lat="44.83882" lon="3.08973">
        <ele>980</ele>
        <time>2016-09-01T13:13:41Z</time>
      </trkpt>
      <trkpt lat="44.83881" lon="3.08985">
        <ele>980</ele>
        <time>2016-09-01T13:13:47Z</time>
      </trkpt>
      <trkpt lat="44.83881" lon="3.08988">
        <ele>979</ele>
        <time>2016-09-01T13:13:48Z</time>
      </trkpt>
      <trkpt lat="44.83882" lon="3.08999">
        <ele>979</ele>
        <time>2016-09-01T13:13:55Z</time>
      </trkpt>
      <trkpt lat="44.83882" lon="3.09">
        <ele>977</ele>
        <time>2016-09-01T13:13:56Z</time>
      </trkpt>
      <trkpt lat="44.83884" lon="3.09012">
        <ele>977</ele>
        <time>2016-09-01T13:14:06Z</time>
      </trkpt>
      <trkpt lat="44.83885" lon="3.09015">
        <ele>977</ele>
        <time>2016-09-01T13:14:07Z</time>
      </trkpt>
      <trkpt lat="44.83885" lon="3.09027">
        <ele>976</ele>
        <time>2016-09-01T13:14:15Z</time>
      </trkpt>
      <trkpt lat="44.83885" lon="3.09028">
        <ele>976</ele>
        <time>2016-09-01T13:14:16Z</time>
      </trkpt>
      <trkpt lat="44.83891" lon="3.09035">
        <ele>976</ele>
        <time>2016-09-01T13:14:43Z</time>
      </trkpt>
      <trkpt lat="44.83892" lon="3.09035">
        <ele>976</ele>
        <time>2016-09-01T13:14:44Z</time>
      </trkpt>
      <trkpt lat="44.83896" lon="3.09047">
        <ele>976</ele>
        <time>2016-09-01T13:15:14Z</time>
      </trkpt>
      <trkpt lat="44.83897" lon="3.09049">
        <ele>976</ele>
        <time>2016-09-01T13:15:15Z</time>
      </trkpt>
      <trkpt lat="44.83896" lon="3.09061">
        <ele>976</ele>
        <time>2016-09-01T13:15:38Z</time>
      </trkpt>
      <trkpt lat="44.83896" lon="3.09062">
        <ele>976</ele>
        <time>2016-09-01T13:15:39Z</time>
      </trkpt>
      <trkpt lat="44.83894" lon="3.0905">
        <ele>976</ele>
        <time>2016-09-01T13:15:50Z</time>
      </trkpt>
      <trkpt lat="44.83893" lon="3.09049">
        <ele>976</ele>
        <time>2016-09-01T13:15:51Z</time>
      </trkpt>
      <trkpt lat="44.83888" lon="3.0904">
        <ele>976</ele>
        <time>2016-09-01T13:15:56Z</time>
      </trkpt>
      <trkpt lat="44.83888" lon="3.09039">
        <ele>976</ele>
        <time>2016-09-01T13:15:57Z</time>
      </trkpt>
      <trkpt lat="44.83881" lon="3.09031">
        <ele>976</ele>
        <time>2016-09-01T13:16:03Z</time>
      </trkpt>
      <trkpt lat="44.8388" lon="3.09031">
        <ele>976</ele>
        <time>2016-09-01T13:16:04Z</time>
      </trkpt>
      <trkpt lat="44.83873" lon="3.09024">
        <ele>975</ele>
        <time>2016-09-01T13:16:13Z</time>
      </trkpt>
      <trkpt lat="44.83873" lon="3.09022">
        <ele>975</ele>
        <time>2016-09-01T13:16:14Z</time>
      </trkpt>
      <trkpt lat="44.8387" lon="3.09013">
        <ele>975</ele>
        <time>2016-09-01T13:16:28Z</time>
      </trkpt>
      <trkpt lat="44.8387" lon="3.09009">
        <ele>975</ele>
        <time>2016-09-01T13:16:29Z</time>
      </trkpt>
      <trkpt lat="44.83869" lon="3.08996">
        <ele>978</ele>
        <time>2016-09-01T13:16:38Z</time>
      </trkpt>
      <trkpt lat="44.8387" lon="3.08995">
        <ele>978</ele>
        <time>2016-09-01T13:16:39Z</time>
      </trkpt>
      <trkpt lat="44.8387" lon="3.08982">
        <ele>978</ele>
        <time>2016-09-01T13:16:47Z</time>
      </trkpt>
      <trkpt lat="44.83868" lon="3.08982">
        <ele>978</ele>
        <time>2016-09-01T13:16:48Z</time>
      </trkpt>
      <trkpt lat="44.83866" lon="3.08993">
        <ele>977</ele>
        <time>2016-09-01T13:18:15Z</time>
      </trkpt>
      <trkpt lat="44.83866" lon="3.08994">
        <ele>977</ele>
        <time>2016-09-01T13:18:16Z</time>
      </trkpt>
      <trkpt lat="44.83868" lon="3.09006">
        <ele>975</ele>
        <time>2016-09-01T13:18:24Z</time>
      </trkpt>
      <trkpt lat="44.83868" lon="3.09007">
        <ele>975</ele>
        <time>2016-09-01T13:18:25Z</time>
      </trkpt>
      <trkpt lat="44.83873" lon="3.09018">
        <ele>975</ele>
        <time>2016-09-01T13:18:33Z</time>
      </trkpt>
      <trkpt lat="44.83874" lon="3.09019">
        <ele>975</ele>
        <time>2016-09-01T13:18:34Z</time>
      </trkpt>
      <trkpt lat="44.83881" lon="3.09025">
        <ele>976</ele>
        <time>2016-09-01T13:18:45Z</time>
      </trkpt>
      <trkpt lat="44.83882" lon="3.09025">
        <ele>976</ele>
        <time>2016-09-01T13:18:46Z</time>
      </trkpt>
      <trkpt lat="44.83889" lon="3.09031">
        <ele>976</ele>
        <time>2016-09-01T13:18:55Z</time>
      </trkpt>
      <trkpt lat="44.8389" lon="3.09032">
        <ele>976</ele>
        <time>2016-09-01T13:18:56Z</time>
      </trkpt>
      <trkpt lat="44.8389" lon="3.09045">
        <ele>976</ele>
        <time>2016-09-01T13:21:09Z</time>
      </trkpt>
      <trkpt lat="44.8389" lon="3.09045">
        <ele>976</ele>
        <time>2016-09-01T13:21:10Z</time>
      </trkpt>
      <trkpt lat="44.83893" lon="3.09057">
        <ele>976</ele>
        <time>2016-09-01T13:25:54Z</time>
      </trkpt>
      <trkpt lat="44.83893" lon="3.09058">
        <ele>976</ele>
        <time>2016-09-01T13:25:55Z</time>
      </trkpt>
      <trkpt lat="44.83895" lon="3.0907">
        <ele>976</ele>
        <time>2016-09-01T13:26:03Z</time>
      </trkpt>
      <trkpt lat="44.83895" lon="3.09073">
        <ele>976</ele>
        <time>2016-09-01T13:26:04Z</time>
      </trkpt>
      <trkpt lat="44.83896" lon="3.09085">
        <ele>976</ele>
        <time>2016-09-01T13:26:12Z</time>
      </trkpt>
      <trkpt lat="44.83896" lon="3.09087">
        <ele>976</ele>
        <time>2016-09-01T13:26:13Z</time>
      </trkpt>
      <trkpt lat="44.83895" lon="3.09099">
        <ele>976</ele>
        <time>2016-09-01T13:26:34Z</time>
      </trkpt>
      <trkpt lat="44.83895" lon="3.091">
        <ele>976</ele>
        <time>2016-09-01T13:26:35Z</time>
      </trkpt>
      <trkpt lat="44.83893" lon="3.09112">
        <ele>976</ele>
        <time>2016-09-01T13:27:15Z</time>
      </trkpt>
      <trkpt lat="44.83892" lon="3.09113">
        <ele>976</ele>
        <time>2016-09-01T13:27:16Z</time>
      </trkpt>
      <trkpt lat="44.83887" lon="3.09122">
        <ele>976</ele>
        <time>2016-09-01T13:27:24Z</time>
      </trkpt>
      <trkpt lat="44.83887" lon="3.09124">
        <ele>976</ele>
        <time>2016-09-01T13:27:25Z</time>
      </trkpt>
      <trkpt lat="44.83882" lon="3.09134">
        <ele>976</ele>
        <time>2016-09-01T13:27:37Z</time>
      </trkpt>
      <trkpt lat="44.83881" lon="3.09134">
        <ele>976</ele>
        <time>2016-09-01T13:27:38Z</time>
      </trkpt>
      <trkpt lat="44.83877" lon="3.09145">
        <ele>976</ele>
        <time>2016-09-01T13:27:48Z</time>
      </trkpt>
      <trkpt lat="44.83876" lon="3.09146">
        <ele>976</ele>
        <time>2016-09-01T13:27:49Z</time>
      </trkpt>
      <trkpt lat="44.83872" lon="3.09157">
        <ele>976</ele>
        <time>2016-09-01T13:27:58Z</time>
      </trkpt>
      <trkpt lat="44.8387" lon="3.09158">
        <ele>976</ele>
        <time>2016-09-01T13:27:59Z</time>
      </trkpt>
      <trkpt lat="44.83864" lon="3.09164">
        <ele>975</ele>
        <time>2016-09-01T13:28:06Z</time>
      </trkpt>
      <trkpt lat="44.83862" lon="3.09165">
        <ele>975</ele>
        <time>2016-09-01T13:28:07Z</time>
      </trkpt>
      <trkpt lat="44.83854" lon="3.09169">
        <ele>977</ele>
        <time>2016-09-01T13:28:14Z</time>
      </trkpt>
      <trkpt lat="44.83853" lon="3.09169">
        <ele>977</ele>
        <time>2016-09-01T13:28:15Z</time>
      </trkpt>
      <trkpt lat="44.83844" lon="3.09173">
        <ele>976</ele>
        <time>2016-09-01T13:28:22Z</time>
      </trkpt>
      <trkpt lat="44.83843" lon="3.09174">
        <ele>976</ele>
        <time>2016-09-01T13:28:23Z</time>
      </trkpt>
      <trkpt lat="44.83836" lon="3.0918">
        <ele>976</ele>
        <time>2016-09-01T13:28:29Z</time>
      </trkpt>
      <trkpt lat="44.83835" lon="3.09181">
        <ele>976</ele>
        <time>2016-09-01T13:28:30Z</time>
      </trkpt>
      <trkpt lat="44.8383" lon="3.0919">
        <ele>973</ele>
        <time>2016-09-01T13:28:38Z</time>
      </trkpt>
      <trkpt lat="44.83829" lon="3.09192">
        <ele>973</ele>
        <time>2016-09-01T13:28:39Z</time>
      </trkpt>
      <trkpt lat="44.83821" lon="3.09196">
        <ele>973</ele>
        <time>2016-09-01T13:29:06Z</time>
      </trkpt>
      <trkpt lat="44.83821" lon="3.09197">
        <ele>973</ele>
        <time>2016-09-01T13:29:07Z</time>
      </trkpt>
      <trkpt lat="44.83827" lon="3.09205">
        <ele>974</ele>
        <time>2016-09-01T13:29:16Z</time>
      </trkpt>
      <trkpt lat="44.83829" lon="3.09205">
        <ele>974</ele>
        <time>2016-09-01T13:29:17Z</time>
      </trkpt>
      <trkpt lat="44.83836" lon="3.09201">
        <ele>979</ele>
        <time>2016-09-01T13:29:23Z</time>
      </trkpt>
      <trkpt lat="44.83838" lon="3.092">
        <ele>979</ele>
        <time>2016-09-01T13:29:24Z</time>
      </trkpt>
      <trkpt lat="44.83843" lon="3.09189">
        <ele>978</ele>
        <time>2016-09-01T13:29:34Z</time>
      </trkpt>
      <trkpt lat="44.83843" lon="3.09188">
        <ele>978</ele>
        <time>2016-09-01T13:29:35Z</time>
      </trkpt>
      <trkpt lat="44.83846" lon="3.09176">
        <ele>977</ele>
        <time>2016-09-01T13:29:46Z</time>
      </trkpt>
      <trkpt lat="44.83846" lon="3.09175">
        <ele>976</ele>
        <time>2016-09-01T13:29:47Z</time>
      </trkpt>
      <trkpt lat="44.83854" lon="3.09172">
        <ele>977</ele>
        <time>2016-09-01T13:30:12Z</time>
      </trkpt>
      <trkpt lat="44.83854" lon="3.09171">
        <ele>977</ele>
        <time>2016-09-01T13:30:13Z</time>
      </trkpt>
      <trkpt lat="44.83863" lon="3.09167">
        <ele>975</ele>
        <time>2016-09-01T13:30:21Z</time>
      </trkpt>
      <trkpt lat="44.83864" lon="3.09167">
        <ele>975</ele>
        <time>2016-09-01T13:30:22Z</time>
      </trkpt>
      <trkpt lat="44.83872" lon="3.09161">
        <ele>976</ele>
        <time>2016-09-01T13:30:29Z</time>
      </trkpt>
      <trkpt lat="44.83872" lon="3.0916">
        <ele>976</ele>
        <time>2016-09-01T13:30:30Z</time>
      </trkpt>
      <trkpt lat="44.83878" lon="3.09151">
        <ele>976</ele>
        <time>2016-09-01T13:30:37Z</time>
      </trkpt>
      <trkpt lat="44.83879" lon="3.09149">
        <ele>976</ele>
        <time>2016-09-01T13:30:38Z</time>
      </trkpt>
      <trkpt lat="44.83885" lon="3.09142">
        <ele>976</ele>
        <time>2016-09-01T13:30:45Z</time>
      </trkpt>
      <trkpt lat="44.83886" lon="3.0914">
        <ele>977</ele>
        <time>2016-09-01T13:30:46Z</time>
      </trkpt>
      <trkpt lat="44.83891" lon="3.09132">
        <ele>976</ele>
        <time>2016-09-01T13:30:52Z</time>
      </trkpt>
      <trkpt lat="44.83892" lon="3.0913">
        <ele>976</ele>
        <time>2016-09-01T13:30:53Z</time>
      </trkpt>
      <trkpt lat="44.83896" lon="3.0912">
        <ele>976</ele>
        <time>2016-09-01T13:30:59Z</time>
      </trkpt>
      <trkpt lat="44.83897" lon="3.09119">
        <ele>976</ele>
        <time>2016-09-01T13:31:00Z</time>
      </trkpt>
      <trkpt lat="44.839" lon="3.09108">
        <ele>976</ele>
        <time>2016-09-01T13:31:07Z</time>
      </trkpt>
      <trkpt lat="44.839" lon="3.09107">
        <ele>976</ele>
        <time>2016-09-01T13:31:08Z</time>
      </trkpt>
      <trkpt lat="44.83898" lon="3.09095">
        <ele>976</ele>
        <time>2016-09-01T13:31:15Z</time>
      </trkpt>
      <trkpt lat="44.83897" lon="3.09094">
        <ele>976</ele>
        <time>2016-09-01T13:31:16Z</time>
      </trkpt>
      <trkpt lat="44.83899" lon="3.09082">
        <ele>976</ele>
        <time>2016-09-01T13:31:24Z</time>
      </trkpt>
      <trkpt lat="44.83898" lon="3.0908">
        <ele>976</ele>
        <time>2016-09-01T13:31:25Z</time>
      </trkpt>
      <trkpt lat="44.83897" lon="3.09068">
        <ele>976</ele>
        <time>2016-09-01T13:31:33Z</time>
      </trkpt>
      <trkpt lat="44.83896" lon="3.09067">
        <ele>976</ele>
        <time>2016-09-01T13:31:34Z</time>
      </trkpt>
      <trkpt lat="44.83898" lon="3.09055">
        <ele>976</ele>
        <time>2016-09-01T13:32:15Z</time>
      </trkpt>
      <trkpt lat="44.83894" lon="3.09052">
        <ele>976</ele>
        <time>2016-09-01T13:32:16Z</time>
      </trkpt>
      <trkpt lat="44.83891" lon="3.0904">
        <ele>976</ele>
        <time>2016-09-01T13:32:23Z</time>
      </trkpt>
      <trkpt lat="44.83891" lon="3.09038">
        <ele>976</ele>
        <time>2016-09-01T13:32:24Z</time>
      </trkpt>
      <trkpt lat="44.83887" lon="3.09028">
        <ele>976</ele>
        <time>2016-09-01T13:32:32Z</time>
      </trkpt>
      <trkpt lat="44.83886" lon="3.09026">
        <ele>976</ele>
        <time>2016-09-01T13:32:33Z</time>
      </trkpt>
      <trkpt lat="44.83887" lon="3.09014">
        <ele>977</ele>
        <time>2016-09-01T13:32:47Z</time>
      </trkpt>
      <trkpt lat="44.83887" lon="3.09013">
        <ele>977</ele>
        <time>2016-09-01T13:32:48Z</time>
      </trkpt>
      <trkpt lat="44.83888" lon="3.09001">
        <ele>977</ele>
        <time>2016-09-01T13:32:56Z</time>
      </trkpt>
      <trkpt lat="44.83888" lon="3.09">
        <ele>980</ele>
        <time>2016-09-01T13:32:57Z</time>
      </trkpt>
      <trkpt lat="44.83885" lon="3.08988">
        <ele>980</ele>
        <time>2016-09-01T13:33:04Z</time>
      </trkpt>
      <trkpt lat="44.83885" lon="3.08988">
        <ele>980</ele>
        <time>2016-09-01T13:33:05Z</time>
      </trkpt>
      <trkpt lat="44.83883" lon="3.08977">
        <ele>980</ele>
        <time>2016-09-01T13:33:14Z</time>
      </trkpt>
      <trkpt lat="44.83883" lon="3.08975">
        <ele>980</ele>
        <time>2016-09-01T13:33:15Z</time>
      </trkpt>
      <trkpt lat="44.83884" lon="3.08962">
        <ele>980</ele>
        <time>2016-09-01T13:33:22Z</time>
      </trkpt>
      <trkpt lat="44.83884" lon="3.08961">
        <ele>980</ele>
        <time>2016-09-01T13:33:23Z</time>
      </trkpt>
      <trkpt lat="44.83887" lon="3.0895">
        <ele>981</ele>
        <time>2016-09-01T13:33:30Z</time>
      </trkpt>
      <trkpt lat="44.83888" lon="3.08948">
        <ele>981</ele>
        <time>2016-09-01T13:33:31Z</time>
      </trkpt>
      <trkpt lat="44.83891" lon="3.08938">
        <ele>982</ele>
        <time>2016-09-01T13:33:39Z</time>
      </trkpt>
      <trkpt lat="44.83892" lon="3.08936">
        <ele>982</ele>
        <time>2016-09-01T13:33:40Z</time>
      </trkpt>
      <trkpt lat="44.83896" lon="3.08927">
        <ele>983</ele>
        <time>2016-09-01T13:33:48Z</time>
      </trkpt>
      <trkpt lat="44.83898" lon="3.08925">
        <ele>984</ele>
        <time>2016-09-01T13:33:49Z</time>
      </trkpt>
      <trkpt lat="44.83903" lon="3.08917">
        <ele>985</ele>
        <time>2016-09-01T13:33:56Z</time>
      </trkpt>
      <trkpt lat="44.83904" lon="3.08916">
        <ele>988</ele>
        <time>2016-09-01T13:33:57Z</time>
      </trkpt>
      <trkpt lat="44.83906" lon="3.08904">
        <ele>987</ele>
        <time>2016-09-01T13:34:05Z</time>
      </trkpt>
      <trkpt lat="44.83907" lon="3.08903">
        <ele>987</ele>
        <time>2016-09-01T13:34:06Z</time>
      </trkpt>
      <trkpt lat="44.83911" lon="3.08893">
        <ele>987</ele>
        <time>2016-09-01T13:34:14Z</time>
      </trkpt>
      <trkpt lat="44.83912" lon="3.08891">
        <ele>987</ele>
        <time>2016-09-01T13:34:15Z</time>
      </trkpt>
      <trkpt lat="44.83916" lon="3.08879">
        <ele>987</ele>
        <time>2016-09-01T13:34:22Z</time>
      </trkpt>
      <trkpt lat="44.83916" lon="3.08878">
        <ele>987</ele>
        <time>2016-09-01T13:34:23Z</time>
      </trkpt>
      <trkpt lat="44.83918" lon="3.08866">
        <ele>993</ele>
        <time>2016-09-01T13:34:32Z</time>
      </trkpt>
      <trkpt lat="44.83918" lon="3.08864">
        <ele>993</ele>
        <time>2016-09-01T13:34:33Z</time>
      </trkpt>
      <trkpt lat="44.83917" lon="3.08853">
        <ele>992</ele>
        <time>2016-09-01T13:35:04Z</time>
      </trkpt>
      <trkpt lat="44.83917" lon="3.08851">
        <ele>992</ele>
        <time>2016-09-01T13:35:05Z</time>
      </trkpt>
      <trkpt lat="44.83918" lon="3.08839">
        <ele>991</ele>
        <time>2016-09-01T13:35:12Z</time>
      </trkpt>
      <trkpt lat="44.83918" lon="3.08838">
        <ele>991</ele>
        <time>2016-09-01T13:35:13Z</time>
      </trkpt>
      <trkpt lat="44.8392" lon="3.08828">
        <ele>991</ele>
        <time>2016-09-01T13:35:19Z</time>
      </trkpt>
      <trkpt lat="44.8392" lon="3.08825">
        <ele>991</ele>
        <time>2016-09-01T13:35:20Z</time>
      </trkpt>
      <trkpt lat="44.83923" lon="3.08814">
        <ele>992</ele>
        <time>2016-09-01T13:35:26Z</time>
      </trkpt>
      <trkpt lat="44.83923" lon="3.08813">
        <ele>992</ele>
        <time>2016-09-01T13:35:27Z</time>
      </trkpt>
      <trkpt lat="44.83928" lon="3.08802">
        <ele>993</ele>
        <time>2016-09-01T13:35:34Z</time>
      </trkpt>
      <trkpt lat="44.83929" lon="3.08801">
        <ele>993</ele>
        <time>2016-09-01T13:35:35Z</time>
      </trkpt>
      <trkpt lat="44.83933" lon="3.08792">
        <ele>993</ele>
        <time>2016-09-01T13:35:43Z</time>
      </trkpt>
      <trkpt lat="44.83934" lon="3.0879">
        <ele>993</ele>
        <time>2016-09-01T13:35:44Z</time>
      </trkpt>
      <trkpt lat="44.83941" lon="3.08783">
        <ele>993</ele>
        <time>2016-09-01T13:35:51Z</time>
      </trkpt>
      <trkpt lat="44.83942" lon="3.08783">
        <ele>993</ele>
        <time>2016-09-01T13:35:52Z</time>
      </trkpt>
      <trkpt lat="44.83947" lon="3.08772">
        <ele>994</ele>
        <time>2016-09-01T13:36:02Z</time>
      </trkpt>
      <trkpt lat="44.83947" lon="3.08771">
        <ele>994</ele>
        <time>2016-09-01T13:36:03Z</time>
      </trkpt>
      <trkpt lat="44.83954" lon="3.08767">
        <ele>994</ele>
        <time>2016-09-01T13:36:20Z</time>
      </trkpt>
      <trkpt lat="44.83956" lon="3.08767">
        <ele>994</ele>
        <time>2016-09-01T13:36:21Z</time>
      </trkpt>
      <trkpt lat="44.83964" lon="3.08765">
        <ele>994</ele>
        <time>2016-09-01T13:36:28Z</time>
      </trkpt>
      <trkpt lat="44.83965" lon="3.08765">
        <ele>994</ele>
        <time>2016-09-01T13:36:29Z</time>
      </trkpt>
      <trkpt lat="44.83974" lon="3.08761">
        <ele>995</ele>
        <time>2016-09-01T13:36:39Z</time>
      </trkpt>
      <trkpt lat="44.83974" lon="3.08761">
        <ele>995</ele>
        <time>2016-09-01T13:36:40Z</time>
      </trkpt>
      <trkpt lat="44.83983" lon="3.0876">
        <ele>995</ele>
        <time>2016-09-01T13:36:49Z</time>
      </trkpt>
      <trkpt lat="44.83984" lon="3.08761">
        <ele>995</ele>
        <time>2016-09-01T13:36:50Z</time>
      </trkpt>
      <trkpt lat="44.83992" lon="3.0876">
        <ele>995</ele>
        <time>2016-09-01T13:36:59Z</time>
      </trkpt>
      <trkpt lat="44.83993" lon="3.0876">
        <ele>995</ele>
        <time>2016-09-01T13:37:00Z</time>
      </trkpt>
      <trkpt lat="44.84001" lon="3.0876">
        <ele>998</ele>
        <time>2016-09-01T13:37:11Z</time>
      </trkpt>
      <trkpt lat="44.84002" lon="3.08761">
        <ele>998</ele>
        <time>2016-09-01T13:37:12Z</time>
      </trkpt>
      <trkpt lat="44.8401" lon="3.08762">
        <ele>999</ele>
        <time>2016-09-01T13:37:20Z</time>
      </trkpt>
      <trkpt lat="44.84011" lon="3.08762">
        <ele>999</ele>
        <time>2016-09-01T13:37:21Z</time>
      </trkpt>
      <trkpt lat="44.84019" lon="3.08763">
        <ele>1000</ele>
        <time>2016-09-01T13:37:30Z</time>
      </trkpt>
      <trkpt lat="44.8402" lon="3.08763">
        <ele>1000</ele>
        <time>2016-09-01T13:37:31Z</time>
      </trkpt>
      <trkpt lat="44.84028" lon="3.08764">
        <ele>1001</ele>
        <time>2016-09-01T13:37:39Z</time>
      </trkpt>
      <trkpt lat="44.84029" lon="3.08764">
        <ele>1001</ele>
        <time>2016-09-01T13:37:40Z</time>
      </trkpt>
      <trkpt lat="44.84038" lon="3.08762">
        <ele>1002</ele>
        <time>2016-09-01T13:38:01Z</time>
      </trkpt>
      <trkpt lat="44.84038" lon="3.08762">
        <ele>1002</ele>
        <time>2016-09-01T13:38:02Z</time>
      </trkpt>
      <trkpt lat="44.84047" lon="3.08764">
        <ele>1003</ele>
        <time>2016-09-01T13:38:11Z</time>
      </trkpt>
      <trkpt lat="44.84048" lon="3.08765">
        <ele>1003</ele>
        <time>2016-09-01T13:38:12Z</time>
      </trkpt>
      <trkpt lat="44.84056" lon="3.08766">
        <ele>1004</ele>
        <time>2016-09-01T13:38:20Z</time>
      </trkpt>
      <trkpt lat="44.84057" lon="3.08766">
        <ele>1004</ele>
        <time>2016-09-01T13:38:21Z</time>
      </trkpt>
      <trkpt lat="44.84066" lon="3.08768">
        <ele>1005</ele>
        <time>2016-09-01T13:38:30Z</time>
      </trkpt>
      <trkpt lat="44.84067" lon="3.08769">
        <ele>1005</ele>
        <time>2016-09-01T13:38:31Z</time>
      </trkpt>
      <trkpt lat="44.84075" lon="3.0877">
        <ele>1005</ele>
        <time>2016-09-01T13:38:40Z</time>
      </trkpt>
      <trkpt lat="44.84076" lon="3.08771">
        <ele>1005</ele>
        <time>2016-09-01T13:38:41Z</time>
      </trkpt>
      <trkpt lat="44.84084" lon="3.08771">
        <ele>1011</ele>
        <time>2016-09-01T13:38:50Z</time>
      </trkpt>
      <trkpt lat="44.84085" lon="3.08771">
        <ele>1011</ele>
        <time>2016-09-01T13:38:51Z</time>
      </trkpt>
      <trkpt lat="44.84093" lon="3.08767">
        <ele>1011</ele>
        <time>2016-09-01T13:38:59Z</time>
      </trkpt>
      <trkpt lat="44.84094" lon="3.08766">
        <ele>1011</ele>
        <time>2016-09-01T13:39:00Z</time>
      </trkpt>
      <trkpt lat="44.84101" lon="3.08762">
        <ele>1011</ele>
        <time>2016-09-01T13:39:07Z</time>
      </trkpt>
      <trkpt lat="44.84103" lon="3.0876">
        <ele>1011</ele>
        <time>2016-09-01T13:39:08Z</time>
      </trkpt>
      <trkpt lat="44.84111" lon="3.08759">
        <ele>1012</ele>
        <time>2016-09-01T13:39:16Z</time>
      </trkpt>
      <trkpt lat="44.84113" lon="3.08758">
        <ele>1012</ele>
        <time>2016-09-01T13:39:17Z</time>
      </trkpt>
      <trkpt lat="44.8412" lon="3.0875">
        <ele>1014</ele>
        <time>2016-09-01T13:39:25Z</time>
      </trkpt>
      <trkpt lat="44.84121" lon="3.0875">
        <ele>1014</ele>
        <time>2016-09-01T13:39:26Z</time>
      </trkpt>
      <trkpt lat="44.84128" lon="3.08744">
        <ele>1015</ele>
        <time>2016-09-01T13:39:34Z</time>
      </trkpt>
      <trkpt lat="44.84129" lon="3.08743">
        <ele>1015</ele>
        <time>2016-09-01T13:39:35Z</time>
      </trkpt>
      <trkpt lat="44.84136" lon="3.08736">
        <ele>1016</ele>
        <time>2016-09-01T13:39:42Z</time>
      </trkpt>
      <trkpt lat="44.84137" lon="3.08735">
        <ele>1016</ele>
        <time>2016-09-01T13:39:43Z</time>
      </trkpt>
      <trkpt lat="44.84144" lon="3.08728">
        <ele>1017</ele>
        <time>2016-09-01T13:39:52Z</time>
      </trkpt>
      <trkpt lat="44.84145" lon="3.08727">
        <ele>1017</ele>
        <time>2016-09-01T13:39:53Z</time>
      </trkpt>
      <trkpt lat="44.84154" lon="3.08724">
        <ele>1017</ele>
        <time>2016-09-01T13:40:01Z</time>
      </trkpt>
      <trkpt lat="44.84155" lon="3.08724">
        <ele>1017</ele>
        <time>2016-09-01T13:40:02Z</time>
      </trkpt>
      <trkpt lat="44.84164" lon="3.08723">
        <ele>1018</ele>
        <time>2016-09-01T13:40:10Z</time>
      </trkpt>
      <trkpt lat="44.84165" lon="3.08723">
        <ele>1018</ele>
        <time>2016-09-01T13:40:11Z</time>
      </trkpt>
      <trkpt lat="44.84173" lon="3.08726">
        <ele>1024</ele>
        <time>2016-09-01T13:40:18Z</time>
      </trkpt>
      <trkpt lat="44.84174" lon="3.08726">
        <ele>1024</ele>
        <time>2016-09-01T13:40:19Z</time>
      </trkpt>
      <trkpt lat="44.8418" lon="3.08735">
        <ele>1023</ele>
        <time>2016-09-01T13:40:26Z</time>
      </trkpt>
      <trkpt lat="44.8418" lon="3.08737">
        <ele>1023</ele>
        <time>2016-09-01T13:40:27Z</time>
      </trkpt>
      <trkpt lat="44.84188" lon="3.08742">
        <ele>1024</ele>
        <time>2016-09-01T13:40:36Z</time>
      </trkpt>
      <trkpt lat="44.84189" lon="3.08742">
        <ele>1024</ele>
        <time>2016-09-01T13:40:37Z</time>
      </trkpt>
      <trkpt lat="44.84195" lon="3.0875">
        <ele>1024</ele>
        <time>2016-09-01T13:40:46Z</time>
      </trkpt>
      <trkpt lat="44.84196" lon="3.08751">
        <ele>1023</ele>
        <time>2016-09-01T13:40:47Z</time>
      </trkpt>
      <trkpt lat="44.84198" lon="3.08762">
        <ele>1024</ele>
        <time>2016-09-01T13:40:58Z</time>
      </trkpt>
      <trkpt lat="44.84198" lon="3.08763">
        <ele>1024</ele>
        <time>2016-09-01T13:40:59Z</time>
      </trkpt>
      <trkpt lat="44.84204" lon="3.08773">
        <ele>1025</ele>
        <time>2016-09-01T13:41:10Z</time>
      </trkpt>
      <trkpt lat="44.84204" lon="3.08774">
        <ele>1025</ele>
        <time>2016-09-01T13:41:11Z</time>
      </trkpt>
      <trkpt lat="44.84211" lon="3.08781">
        <ele>1025</ele>
        <time>2016-09-01T13:41:21Z</time>
      </trkpt>
      <trkpt lat="44.84211" lon="3.08782">
        <ele>1025</ele>
        <time>2016-09-01T13:41:22Z</time>
      </trkpt>
      <trkpt lat="44.8422" lon="3.08782">
        <ele>1026</ele>
        <time>2016-09-01T13:41:34Z</time>
      </trkpt>
      <trkpt lat="44.84221" lon="3.08781">
        <ele>1026</ele>
        <time>2016-09-01T13:41:35Z</time>
      </trkpt>
      <trkpt lat="44.84226" lon="3.08774">
        <ele>1026</ele>
        <time>2016-09-01T13:41:46Z</time>
      </trkpt>
      <trkpt lat="44.84227" lon="3.08773">
        <ele>1026</ele>
        <time>2016-09-01T13:41:47Z</time>
      </trkpt>
      <trkpt lat="44.84234" lon="3.08766">
        <ele>1027</ele>
        <time>2016-09-01T13:41:53Z</time>
      </trkpt>
      <trkpt lat="44.84236" lon="3.08765">
        <ele>1027</ele>
        <time>2016-09-01T13:41:54Z</time>
      </trkpt>
      <trkpt lat="44.84243" lon="3.08761">
        <ele>1028</ele>
        <time>2016-09-01T13:42:04Z</time>
      </trkpt>
      <trkpt lat="44.84244" lon="3.08761">
        <ele>1028</ele>
        <time>2016-09-01T13:42:05Z</time>
      </trkpt>
      <trkpt lat="44.84253" lon="3.08759">
        <ele>1031</ele>
        <time>2016-09-01T13:42:14Z</time>
      </trkpt>
      <trkpt lat="44.84254" lon="3.08758">
        <ele>1031</ele>
        <time>2016-09-01T13:42:15Z</time>
      </trkpt>
      <trkpt lat="44.84263" lon="3.08757">
        <ele>1031</ele>
        <time>2016-09-01T13:42:26Z</time>
      </trkpt>
      <trkpt lat="44.84264" lon="3.08756">
        <ele>1031</ele>
        <time>2016-09-01T13:42:27Z</time>
      </trkpt>
      <trkpt lat="44.84272" lon="3.08759">
        <ele>1032</ele>
        <time>2016-09-01T13:42:39Z</time>
      </trkpt>
      <trkpt lat="44.84273" lon="3.0876">
        <ele>1032</ele>
        <time>2016-09-01T13:42:40Z</time>
      </trkpt>
      <trkpt lat="44.84282" lon="3.0876">
        <ele>1032</ele>
        <time>2016-09-01T13:42:50Z</time>
      </trkpt>
      <trkpt lat="44.84283" lon="3.0876">
        <ele>1032</ele>
        <time>2016-09-01T13:42:51Z</time>
      </trkpt>
      <trkpt lat="44.84291" lon="3.08761">
        <ele>1032</ele>
        <time>2016-09-01T13:43:00Z</time>
      </trkpt>
      <trkpt lat="44.84293" lon="3.0876">
        <ele>1032</ele>
        <time>2016-09-01T13:43:01Z</time>
      </trkpt>
      <trkpt lat="44.843" lon="3.08757">
        <ele>1033</ele>
        <time>2016-09-01T13:43:06Z</time>
      </trkpt>
      <trkpt lat="44.84302" lon="3.08756">
        <ele>1033</ele>
        <time>2016-09-01T13:43:07Z</time>
      </trkpt>
      <trkpt lat="44.8431" lon="3.08756">
        <ele>1033</ele>
        <time>2016-09-01T13:43:15Z</time>
      </trkpt>
      <trkpt lat="44.84311" lon="3.08757">
        <ele>1033</ele>
        <time>2016-09-01T13:43:16Z</time>
      </trkpt>
      <trkpt lat="44.8432" lon="3.08758">
        <ele>1033</ele>
        <time>2016-09-01T13:43:25Z</time>
      </trkpt>
      <trkpt lat="44.84321" lon="3.08758">
        <ele>1033</ele>
        <time>2016-09-01T13:43:26Z</time>
      </trkpt>
      <trkpt lat="44.84329" lon="3.0876">
        <ele>1033</ele>
        <time>2016-09-01T13:43:34Z</time>
      </trkpt>
      <trkpt lat="44.8433" lon="3.0876">
        <ele>1034</ele>
        <time>2016-09-01T13:43:35Z</time>
      </trkpt>
      <trkpt lat="44.84337" lon="3.08759">
        <ele>1033</ele>
        <time>2016-09-01T13:45:10Z</time>
      </trkpt>
      <trkpt lat="44.8434" lon="3.08759">
        <ele>1033</ele>
        <time>2016-09-01T13:45:11Z</time>
      </trkpt>
      <trkpt lat="44.84348" lon="3.0876">
        <ele>1033</ele>
        <time>2016-09-01T13:45:21Z</time>
      </trkpt>
      <trkpt lat="44.84349" lon="3.08761">
        <ele>1033</ele>
        <time>2016-09-01T13:45:22Z</time>
      </trkpt>
      <trkpt lat="44.84357" lon="3.08762">
        <ele>1033</ele>
        <time>2016-09-01T13:45:38Z</time>
      </trkpt>
      <trkpt lat="44.84358" lon="3.08762">
        <ele>1033</ele>
        <time>2016-09-01T13:45:39Z</time>
      </trkpt>
      <trkpt lat="44.84367" lon="3.08761">
        <ele>1032</ele>
        <time>2016-09-01T13:45:46Z</time>
      </trkpt>
      <trkpt lat="44.84368" lon="3.08761">
        <ele>1032</ele>
        <time>2016-09-01T13:45:47Z</time>
      </trkpt>
      <trkpt lat="44.84375" lon="3.08761">
        <ele>1032</ele>
        <time>2016-09-01T13:45:56Z</time>
      </trkpt>
      <trkpt lat="44.84377" lon="3.08759">
        <ele>1032</ele>
        <time>2016-09-01T13:45:57Z</time>
      </trkpt>
      <trkpt lat="44.84385" lon="3.08756">
        <ele>1032</ele>
        <time>2016-09-01T13:46:04Z</time>
      </trkpt>
      <trkpt lat="44.84387" lon="3.08755">
        <ele>1032</ele>
        <time>2016-09-01T13:46:05Z</time>
      </trkpt>
      <trkpt lat="44.84395" lon="3.08751">
        <ele>1031</ele>
        <time>2016-09-01T13:46:10Z</time>
      </trkpt>
      <trkpt lat="44.84396" lon="3.0875">
        <ele>1031</ele>
        <time>2016-09-01T13:46:11Z</time>
      </trkpt>
      <trkpt lat="44.84403" lon="3.08746">
        <ele>1031</ele>
        <time>2016-09-01T13:46:16Z</time>
      </trkpt>
      <trkpt lat="44.84405" lon="3.08745">
        <ele>1031</ele>
        <time>2016-09-01T13:46:17Z</time>
      </trkpt>
      <trkpt lat="44.84412" lon="3.08741">
        <ele>1031</ele>
        <time>2016-09-01T13:46:22Z</time>
      </trkpt>
      <trkpt lat="44.84414" lon="3.0874">
        <ele>1031</ele>
        <time>2016-09-01T13:46:23Z</time>
      </trkpt>
      <trkpt lat="44.8442" lon="3.08733">
        <ele>1029</ele>
        <time>2016-09-01T13:46:29Z</time>
      </trkpt>
      <trkpt lat="44.84421" lon="3.08731">
        <ele>1029</ele>
        <time>2016-09-01T13:46:30Z</time>
      </trkpt>
      <trkpt lat="44.84427" lon="3.08722">
        <ele>1028</ele>
        <time>2016-09-01T13:46:38Z</time>
      </trkpt>
      <trkpt lat="44.84428" lon="3.08721">
        <ele>1028</ele>
        <time>2016-09-01T13:46:39Z</time>
      </trkpt>
      <trkpt lat="44.84433" lon="3.08712">
        <ele>1028</ele>
        <time>2016-09-01T13:46:48Z</time>
      </trkpt>
      <trkpt lat="44.84433" lon="3.0871">
        <ele>1028</ele>
        <time>2016-09-01T13:46:49Z</time>
      </trkpt>
      <trkpt lat="44.84438" lon="3.08702">
        <ele>1028</ele>
        <time>2016-09-01T13:46:58Z</time>
      </trkpt>
      <trkpt lat="44.84439" lon="3.08701">
        <ele>1028</ele>
        <time>2016-09-01T13:46:59Z</time>
      </trkpt>
      <trkpt lat="44.84446" lon="3.08695">
        <ele>1028</ele>
        <time>2016-09-01T13:47:04Z</time>
      </trkpt>
      <trkpt lat="44.84449" lon="3.08693">
        <ele>1028</ele>
        <time>2016-09-01T13:47:05Z</time>
      </trkpt>
      <trkpt lat="44.84457" lon="3.08688">
        <ele>1027</ele>
        <time>2016-09-01T13:47:12Z</time>
      </trkpt>
      <trkpt lat="44.84458" lon="3.08687">
        <ele>1027</ele>
        <time>2016-09-01T13:47:13Z</time>
      </trkpt>
      <trkpt lat="44.84467" lon="3.08686">
        <ele>1027</ele>
        <time>2016-09-01T13:47:27Z</time>
      </trkpt>
      <trkpt lat="44.84468" lon="3.08685">
        <ele>1026</ele>
        <time>2016-09-01T13:47:28Z</time>
      </trkpt>
      <trkpt lat="44.84477" lon="3.08684">
        <ele>1026</ele>
        <time>2016-09-01T13:47:37Z</time>
      </trkpt>
      <trkpt lat="44.84478" lon="3.08684">
        <ele>1026</ele>
        <time>2016-09-01T13:47:38Z</time>
      </trkpt>
      <trkpt lat="44.84487" lon="3.08685">
        <ele>1025</ele>
        <time>2016-09-01T13:47:44Z</time>
      </trkpt>
      <trkpt lat="44.84488" lon="3.08685">
        <ele>1025</ele>
        <time>2016-09-01T13:47:45Z</time>
      </trkpt>
      <trkpt lat="44.84493" lon="3.08695">
        <ele>1025</ele>
        <time>2016-09-01T13:48:02Z</time>
      </trkpt>
      <trkpt lat="44.84493" lon="3.08696">
        <ele>1025</ele>
        <time>2016-09-01T13:48:03Z</time>
      </trkpt>
      <trkpt lat="44.84494" lon="3.08684">
        <ele>1025</ele>
        <time>2016-09-01T13:48:31Z</time>
      </trkpt>
      <trkpt lat="44.84496" lon="3.08683">
        <ele>1025</ele>
        <time>2016-09-01T13:48:32Z</time>
      </trkpt>
      <trkpt lat="44.84502" lon="3.08676">
        <ele>1021</ele>
        <time>2016-09-01T13:48:40Z</time>
      </trkpt>
      <trkpt lat="44.84503" lon="3.08675">
        <ele>1021</ele>
        <time>2016-09-01T13:48:41Z</time>
      </trkpt>
      <trkpt lat="44.84512" lon="3.08671">
        <ele>1020</ele>
        <time>2016-09-01T13:48:48Z</time>
      </trkpt>
      <trkpt lat="44.84513" lon="3.08671">
        <ele>1020</ele>
        <time>2016-09-01T13:48:49Z</time>
      </trkpt>
      <trkpt lat="44.84521" lon="3.08671">
        <ele>1019</ele>
        <time>2016-09-01T13:48:54Z</time>
      </trkpt>
      <trkpt lat="44.84522" lon="3.08671">
        <ele>1019</ele>
        <time>2016-09-01T13:48:55Z</time>
      </trkpt>
      <trkpt lat="44.84531" lon="3.0867">
        <ele>1018</ele>
        <time>2016-09-01T13:49:01Z</time>
      </trkpt>
      <trkpt lat="44.84533" lon="3.0867">
        <ele>1018</ele>
        <time>2016-09-01T13:49:02Z</time>
      </trkpt>
      <trkpt lat="44.8454" lon="3.08671">
        <ele>1018</ele>
        <time>2016-09-01T13:49:08Z</time>
      </trkpt>
      <trkpt lat="44.84542" lon="3.08671">
        <ele>1018</ele>
        <time>2016-09-01T13:49:09Z</time>
      </trkpt>
      <trkpt lat="44.8455" lon="3.08673">
        <ele>1017</ele>
        <time>2016-09-01T13:49:23Z</time>
      </trkpt>
      <trkpt lat="44.84551" lon="3.08672">
        <ele>1017</ele>
        <time>2016-09-01T13:49:24Z</time>
      </trkpt>
      <trkpt lat="44.84559" lon="3.08672">
        <ele>1017</ele>
        <time>2016-09-01T13:49:31Z</time>
      </trkpt>
      <trkpt lat="44.84561" lon="3.08672">
        <ele>1017</ele>
        <time>2016-09-01T13:49:32Z</time>
      </trkpt>
      <trkpt lat="44.84569" lon="3.0867">
        <ele>1016</ele>
        <time>2016-09-01T13:49:39Z</time>
      </trkpt>
      <trkpt lat="44.84571" lon="3.08669">
        <ele>1016</ele>
        <time>2016-09-01T13:49:40Z</time>
      </trkpt>
      <trkpt lat="44.8458" lon="3.08667">
        <ele>1017</ele>
        <time>2016-09-01T13:49:58Z</time>
      </trkpt>
      <trkpt lat="44.84581" lon="3.08667">
        <ele>1016</ele>
        <time>2016-09-01T13:49:59Z</time>
      </trkpt>
      <trkpt lat="44.84589" lon="3.08667">
        <ele>1016</ele>
        <time>2016-09-01T13:50:05Z</time>
      </trkpt>
      <trkpt lat="44.8459" lon="3.08667">
        <ele>1016</ele>
        <time>2016-09-01T13:50:06Z</time>
      </trkpt>
      <trkpt lat="44.84598" lon="3.08673">
        <ele>1015</ele>
        <time>2016-09-01T13:50:20Z</time>
      </trkpt>
      <trkpt lat="44.84599" lon="3.08674">
        <ele>1015</ele>
        <time>2016-09-01T13:50:21Z</time>
      </trkpt>
      <trkpt lat="44.84606" lon="3.08681">
        <ele>1015</ele>
        <time>2016-09-01T13:50:26Z</time>
      </trkpt>
      <trkpt lat="44.84607" lon="3.08682">
        <ele>1015</ele>
        <time>2016-09-01T13:50:27Z</time>
      </trkpt>
      <trkpt lat="44.84614" lon="3.08689">
        <ele>1015</ele>
        <time>2016-09-01T13:50:35Z</time>
      </trkpt>
      <trkpt lat="44.84615" lon="3.0869">
        <ele>1015</ele>
        <time>2016-09-01T13:50:36Z</time>
      </trkpt>
      <trkpt lat="44.84623" lon="3.08694">
        <ele>1015</ele>
        <time>2016-09-01T13:50:43Z</time>
      </trkpt>
      <trkpt lat="44.84623" lon="3.08694">
        <ele>1015</ele>
        <time>2016-09-01T13:50:44Z</time>
      </trkpt>
      <trkpt lat="44.84631" lon="3.08697">
        <ele>1015</ele>
        <time>2016-09-01T13:50:52Z</time>
      </trkpt>
      <trkpt lat="44.84633" lon="3.08697">
        <ele>1015</ele>
        <time>2016-09-01T13:50:53Z</time>
      </trkpt>
      <trkpt lat="44.84641" lon="3.08696">
        <ele>1015</ele>
        <time>2016-09-01T13:50:56Z</time>
      </trkpt>
      <trkpt lat="44.84642" lon="3.08696">
        <ele>1015</ele>
        <time>2016-09-01T13:50:57Z</time>
      </trkpt>
      <trkpt lat="44.84651" lon="3.08698">
        <ele>1015</ele>
        <time>2016-09-01T13:51:04Z</time>
      </trkpt>
      <trkpt lat="44.84653" lon="3.08697">
        <ele>1016</ele>
        <time>2016-09-01T13:51:05Z</time>
      </trkpt>
      <trkpt lat="44.84661" lon="3.08695">
        <ele>1016</ele>
        <time>2016-09-01T13:51:13Z</time>
      </trkpt>
      <trkpt lat="44.84662" lon="3.08695">
        <ele>1016</ele>
        <time>2016-09-01T13:51:14Z</time>
      </trkpt>
      <trkpt lat="44.84668" lon="3.087">
        <ele>1014</ele>
        <time>2016-09-01T13:51:21Z</time>
      </trkpt>
      <trkpt lat="44.8467" lon="3.08701">
        <ele>1014</ele>
        <time>2016-09-01T13:51:22Z</time>
      </trkpt>
      <trkpt lat="44.84679" lon="3.08704">
        <ele>1013</ele>
        <time>2016-09-01T13:51:30Z</time>
      </trkpt>
      <trkpt lat="44.84679" lon="3.08704">
        <ele>1013</ele>
        <time>2016-09-01T13:51:31Z</time>
      </trkpt>
      <trkpt lat="44.84688" lon="3.08707">
        <ele>1013</ele>
        <time>2016-09-01T13:51:37Z</time>
      </trkpt>
      <trkpt lat="44.84689" lon="3.08708">
        <ele>1013</ele>
        <time>2016-09-01T13:51:38Z</time>
      </trkpt>
      <trkpt lat="44.84696" lon="3.08712">
        <ele>1012</ele>
        <time>2016-09-01T13:51:47Z</time>
      </trkpt>
      <trkpt lat="44.84697" lon="3.08713">
        <ele>1012</ele>
        <time>2016-09-01T13:51:48Z</time>
      </trkpt>
      <trkpt lat="44.84705" lon="3.08718">
        <ele>1011</ele>
        <time>2016-09-01T13:51:57Z</time>
      </trkpt>
      <trkpt lat="44.84706" lon="3.08718">
        <ele>1011</ele>
        <time>2016-09-01T13:51:58Z</time>
      </trkpt>
      <trkpt lat="44.84714" lon="3.08722">
        <ele>1010</ele>
        <time>2016-09-01T13:52:06Z</time>
      </trkpt>
      <trkpt lat="44.84715" lon="3.08723">
        <ele>1010</ele>
        <time>2016-09-01T13:52:07Z</time>
      </trkpt>
      <trkpt lat="44.84724" lon="3.08725">
        <ele>1009</ele>
        <time>2016-09-01T13:52:15Z</time>
      </trkpt>
      <trkpt lat="44.84725" lon="3.08725">
        <ele>1009</ele>
        <time>2016-09-01T13:52:16Z</time>
      </trkpt>
      <trkpt lat="44.84733" lon="3.08723">
        <ele>1009</ele>
        <time>2016-09-01T13:52:23Z</time>
      </trkpt>
      <trkpt lat="44.84734" lon="3.08723">
        <ele>1009</ele>
        <time>2016-09-01T13:52:24Z</time>
      </trkpt>
      <trkpt lat="44.84742" lon="3.08719">
        <ele>1009</ele>
        <time>2016-09-01T13:52:31Z</time>
      </trkpt>
      <trkpt lat="44.84744" lon="3.08719">
        <ele>1009</ele>
        <time>2016-09-01T13:52:32Z</time>
      </trkpt>
      <trkpt lat="44.84751" lon="3.08711">
        <ele>1003</ele>
        <time>2016-09-01T13:52:42Z</time>
      </trkpt>
      <trkpt lat="44.84751" lon="3.08711">
        <ele>1003</ele>
        <time>2016-09-01T13:52:43Z</time>
      </trkpt>
      <trkpt lat="44.84758" lon="3.08705">
        <ele>1003</ele>
        <time>2016-09-01T13:52:50Z</time>
      </trkpt>
      <trkpt lat="44.8476" lon="3.08704">
        <ele>1004</ele>
        <time>2016-09-01T13:52:51Z</time>
      </trkpt>
      <trkpt lat="44.84767" lon="3.08699">
        <ele>1004</ele>
        <time>2016-09-01T13:52:58Z</time>
      </trkpt>
      <trkpt lat="44.84769" lon="3.08699">
        <ele>1004</ele>
        <time>2016-09-01T13:52:59Z</time>
      </trkpt>
      <trkpt lat="44.84775" lon="3.08693">
        <ele>1004</ele>
        <time>2016-09-01T13:53:06Z</time>
      </trkpt>
      <trkpt lat="44.84777" lon="3.08693">
        <ele>1004</ele>
        <time>2016-09-01T13:53:07Z</time>
      </trkpt>
      <trkpt lat="44.84785" lon="3.0869">
        <ele>1003</ele>
        <time>2016-09-01T13:53:17Z</time>
      </trkpt>
      <trkpt lat="44.84786" lon="3.08689">
        <ele>1003</ele>
        <time>2016-09-01T13:53:18Z</time>
      </trkpt>
      <trkpt lat="44.84795" lon="3.08686">
        <ele>1002</ele>
        <time>2016-09-01T13:53:27Z</time>
      </trkpt>
      <trkpt lat="44.84795" lon="3.08686">
        <ele>1002</ele>
        <time>2016-09-01T13:53:28Z</time>
      </trkpt>
      <trkpt lat="44.84803" lon="3.08684">
        <ele>1002</ele>
        <time>2016-09-01T13:53:33Z</time>
      </trkpt>
      <trkpt lat="44.84805" lon="3.08684">
        <ele>1002</ele>
        <time>2016-09-01T13:53:34Z</time>
      </trkpt>
      <trkpt lat="44.84813" lon="3.08682">
        <ele>1002</ele>
        <time>2016-09-01T13:53:44Z</time>
      </trkpt>
      <trkpt lat="44.84814" lon="3.08682">
        <ele>1002</ele>
        <time>2016-09-01T13:53:45Z</time>
      </trkpt>
      <trkpt lat="44.84822" lon="3.08678">
        <ele>1001</ele>
        <time>2016-09-01T13:53:54Z</time>
      </trkpt>
      <trkpt lat="44.84823" lon="3.08678">
        <ele>1001</ele>
        <time>2016-09-01T13:53:55Z</time>
      </trkpt>
      <trkpt lat="44.84831" lon="3.08673">
        <ele>1002</ele>
        <time>2016-09-01T13:54:02Z</time>
      </trkpt>
      <trkpt lat="44.84834" lon="3.08672">
        <ele>999</ele>
        <time>2016-09-01T13:54:03Z</time>
      </trkpt>
      <trkpt lat="44.84842" lon="3.0867">
        <ele>997</ele>
        <time>2016-09-01T13:54:08Z</time>
      </trkpt>
      <trkpt lat="44.84843" lon="3.08669">
        <ele>997</ele>
        <time>2016-09-01T13:54:09Z</time>
      </trkpt>
      <trkpt lat="44.84851" lon="3.08669">
        <ele>995</ele>
        <time>2016-09-01T13:54:17Z</time>
      </trkpt>
      <trkpt lat="44.84853" lon="3.08667">
        <ele>994</ele>
        <time>2016-09-01T13:54:18Z</time>
      </trkpt>
      <trkpt lat="44.84861" lon="3.08663">
        <ele>1001</ele>
        <time>2016-09-01T13:54:22Z</time>
      </trkpt>
      <trkpt lat="44.84862" lon="3.08663">
        <ele>1001</ele>
        <time>2016-09-01T13:54:23Z</time>
      </trkpt>
      <trkpt lat="44.8487" lon="3.08662">
        <ele>1000</ele>
        <time>2016-09-01T13:54:33Z</time>
      </trkpt>
      <trkpt lat="44.84871" lon="3.08662">
        <ele>1000</ele>
        <time>2016-09-01T13:54:34Z</time>
      </trkpt>
      <trkpt lat="44.84879" lon="3.08659">
        <ele>999</ele>
        <time>2016-09-01T13:54:45Z</time>
      </trkpt>
      <trkpt lat="44.8488" lon="3.08659">
        <ele>999</ele>
        <time>2016-09-01T13:54:46Z</time>
      </trkpt>
      <trkpt lat="44.84888" lon="3.08659">
        <ele>997</ele>
        <time>2016-09-01T13:54:53Z</time>
      </trkpt>
      <trkpt lat="44.8489" lon="3.0866">
        <ele>997</ele>
        <time>2016-09-01T13:54:54Z</time>
      </trkpt>
      <trkpt lat="44.84898" lon="3.08663">
        <ele>995</ele>
        <time>2016-09-01T13:55:02Z</time>
      </trkpt>
      <trkpt lat="44.84899" lon="3.08663">
        <ele>995</ele>
        <time>2016-09-01T13:55:03Z</time>
      </trkpt>
      <trkpt lat="44.84906" lon="3.08658">
        <ele>993</ele>
        <time>2016-09-01T13:55:12Z</time>
      </trkpt>
      <trkpt lat="44.84907" lon="3.08657">
        <ele>993</ele>
        <time>2016-09-01T13:55:13Z</time>
      </trkpt>
      <trkpt lat="44.84913" lon="3.08649">
        <ele>995</ele>
        <time>2016-09-01T13:55:21Z</time>
      </trkpt>
      <trkpt lat="44.84914" lon="3.08648">
        <ele>995</ele>
        <time>2016-09-01T13:55:22Z</time>
      </trkpt>
      <trkpt lat="44.84919" lon="3.08641">
        <ele>989</ele>
        <time>2016-09-01T13:55:31Z</time>
      </trkpt>
      <trkpt lat="44.84921" lon="3.08639">
        <ele>989</ele>
        <time>2016-09-01T13:55:32Z</time>
      </trkpt>
      <trkpt lat="44.84927" lon="3.08631">
        <ele>989</ele>
        <time>2016-09-01T13:55:39Z</time>
      </trkpt>
      <trkpt lat="44.84928" lon="3.08629">
        <ele>989</ele>
        <time>2016-09-01T13:55:40Z</time>
      </trkpt>
      <trkpt lat="44.84933" lon="3.0862">
        <ele>990</ele>
        <time>2016-09-01T13:55:48Z</time>
      </trkpt>
      <trkpt lat="44.84934" lon="3.08619">
        <ele>990</ele>
        <time>2016-09-01T13:55:49Z</time>
      </trkpt>
      <trkpt lat="44.84941" lon="3.08614">
        <ele>990</ele>
        <time>2016-09-01T13:55:56Z</time>
      </trkpt>
      <trkpt lat="44.84942" lon="3.08612">
        <ele>990</ele>
        <time>2016-09-01T13:55:57Z</time>
      </trkpt>
      <trkpt lat="44.84949" lon="3.08608">
        <ele>990</ele>
        <time>2016-09-01T13:56:02Z</time>
      </trkpt>
      <trkpt lat="44.84951" lon="3.08607">
        <ele>990</ele>
        <time>2016-09-01T13:56:03Z</time>
      </trkpt>
      <trkpt lat="44.84959" lon="3.08603">
        <ele>989</ele>
        <time>2016-09-01T13:56:11Z</time>
      </trkpt>
      <trkpt lat="44.8496" lon="3.08603">
        <ele>989</ele>
        <time>2016-09-01T13:56:12Z</time>
      </trkpt>
      <trkpt lat="44.84968" lon="3.086">
        <ele>988</ele>
        <time>2016-09-01T13:56:18Z</time>
      </trkpt>
      <trkpt lat="44.8497" lon="3.08599">
        <ele>988</ele>
        <time>2016-09-01T13:56:19Z</time>
      </trkpt>
      <trkpt lat="44.84978" lon="3.08593">
        <ele>987</ele>
        <time>2016-09-01T13:56:28Z</time>
      </trkpt>
      <trkpt lat="44.84979" lon="3.08593">
        <ele>987</ele>
        <time>2016-09-01T13:56:29Z</time>
      </trkpt>
      <trkpt lat="44.84987" lon="3.08588">
        <ele>986</ele>
        <time>2016-09-01T13:56:35Z</time>
      </trkpt>
      <trkpt lat="44.84988" lon="3.08587">
        <ele>986</ele>
        <time>2016-09-01T13:56:36Z</time>
      </trkpt>
      <trkpt lat="44.84994" lon="3.0858">
        <ele>988</ele>
        <time>2016-09-01T13:56:43Z</time>
      </trkpt>
      <trkpt lat="44.84995" lon="3.08579">
        <ele>988</ele>
        <time>2016-09-01T13:56:44Z</time>
      </trkpt>
      <trkpt lat="44.84999" lon="3.0857">
        <ele>991</ele>
        <time>2016-09-01T13:56:51Z</time>
      </trkpt>
      <trkpt lat="44.85" lon="3.08569">
        <ele>986</ele>
        <time>2016-09-01T13:56:52Z</time>
      </trkpt>
      <trkpt lat="44.85005" lon="3.08558">
        <ele>986</ele>
        <time>2016-09-01T13:57:00Z</time>
      </trkpt>
      <trkpt lat="44.85006" lon="3.08557">
        <ele>986</ele>
        <time>2016-09-01T13:57:01Z</time>
      </trkpt>
      <trkpt lat="44.85014" lon="3.08554">
        <ele>986</ele>
        <time>2016-09-01T13:57:13Z</time>
      </trkpt>
      <trkpt lat="44.85015" lon="3.08555">
        <ele>986</ele>
        <time>2016-09-01T13:57:14Z</time>
      </trkpt>
      <trkpt lat="44.85013" lon="3.08567">
        <ele>986</ele>
        <time>2016-09-01T13:57:25Z</time>
      </trkpt>
      <trkpt lat="44.85013" lon="3.08568">
        <ele>986</ele>
        <time>2016-09-01T13:57:26Z</time>
      </trkpt>
      <trkpt lat="44.8501" lon="3.08579">
        <ele>985</ele>
        <time>2016-09-01T13:57:34Z</time>
      </trkpt>
      <trkpt lat="44.8501" lon="3.0858">
        <ele>985</ele>
        <time>2016-09-01T13:57:35Z</time>
      </trkpt>
      <trkpt lat="44.85003" lon="3.08588">
        <ele>984</ele>
        <time>2016-09-01T13:57:44Z</time>
      </trkpt>
      <trkpt lat="44.85003" lon="3.08589">
        <ele>984</ele>
        <time>2016-09-01T13:57:45Z</time>
      </trkpt>
      <trkpt lat="44.85" lon="3.086">
        <ele>986</ele>
        <time>2016-09-01T13:57:53Z</time>
      </trkpt>
      <trkpt lat="44.84999" lon="3.08601">
        <ele>986</ele>
        <time>2016-09-01T13:57:54Z</time>
      </trkpt>
      <trkpt lat="44.84998" lon="3.08613">
        <ele>986</ele>
        <time>2016-09-01T13:58:00Z</time>
      </trkpt>
      <trkpt lat="44.84998" lon="3.08615">
        <ele>986</ele>
        <time>2016-09-01T13:58:01Z</time>
      </trkpt>
      <trkpt lat="44.84995" lon="3.08626">
        <ele>985</ele>
        <time>2016-09-01T13:58:09Z</time>
      </trkpt>
      <trkpt lat="44.84994" lon="3.08627">
        <ele>985</ele>
        <time>2016-09-01T13:58:10Z</time>
      </trkpt>
      <trkpt lat="44.84991" lon="3.08637">
        <ele>984</ele>
        <time>2016-09-01T13:58:17Z</time>
      </trkpt>
      <trkpt lat="44.84991" lon="3.08639">
        <ele>984</ele>
        <time>2016-09-01T13:58:18Z</time>
      </trkpt>
      <trkpt lat="44.8499" lon="3.0865">
        <ele>983</ele>
        <time>2016-09-01T13:58:25Z</time>
      </trkpt>
      <trkpt lat="44.8499" lon="3.08652">
        <ele>982</ele>
        <time>2016-09-01T13:58:26Z</time>
      </trkpt>
      <trkpt lat="44.84989" lon="3.08663">
        <ele>981</ele>
        <time>2016-09-01T13:58:33Z</time>
      </trkpt>
      <trkpt lat="44.84989" lon="3.08665">
        <ele>981</ele>
        <time>2016-09-01T13:58:34Z</time>
      </trkpt>
      <trkpt lat="44.8499" lon="3.08678">
        <ele>977</ele>
        <time>2016-09-01T13:58:41Z</time>
      </trkpt>
      <trkpt lat="44.8499" lon="3.08679">
        <ele>977</ele>
        <time>2016-09-01T13:58:42Z</time>
      </trkpt>
      <trkpt lat="44.84991" lon="3.08691">
        <ele>977</ele>
        <time>2016-09-01T13:58:50Z</time>
      </trkpt>
      <trkpt lat="44.84991" lon="3.08692">
        <ele>977</ele>
        <time>2016-09-01T13:58:51Z</time>
      </trkpt>
      <trkpt lat="44.84995" lon="3.08702">
        <ele>977</ele>
        <time>2016-09-01T13:58:58Z</time>
      </trkpt>
      <trkpt lat="44.84996" lon="3.08703">
        <ele>977</ele>
        <time>2016-09-01T13:58:59Z</time>
      </trkpt>
      <trkpt lat="44.84998" lon="3.08715">
        <ele>976</ele>
        <time>2016-09-01T13:59:07Z</time>
      </trkpt>
      <trkpt lat="44.84999" lon="3.08716">
        <ele>976</ele>
        <time>2016-09-01T13:59:08Z</time>
      </trkpt>
      <trkpt lat="44.85004" lon="3.08725">
        <ele>978</ele>
        <time>2016-09-01T13:59:16Z</time>
      </trkpt>
      <trkpt lat="44.85004" lon="3.08727">
        <ele>978</ele>
        <time>2016-09-01T13:59:17Z</time>
      </trkpt>
      <trkpt lat="44.85009" lon="3.08736">
        <ele>977</ele>
        <time>2016-09-01T13:59:24Z</time>
      </trkpt>
      <trkpt lat="44.85009" lon="3.08737">
        <ele>977</ele>
        <time>2016-09-01T13:59:25Z</time>
      </trkpt>
      <trkpt lat="44.85013" lon="3.08747">
        <ele>977</ele>
        <time>2016-09-01T13:59:33Z</time>
      </trkpt>
      <trkpt lat="44.85013" lon="3.08749">
        <ele>977</ele>
        <time>2016-09-01T13:59:34Z</time>
      </trkpt>
      <trkpt lat="44.85018" lon="3.0876">
        <ele>976</ele>
        <time>2016-09-01T13:59:43Z</time>
      </trkpt>
      <trkpt lat="44.85018" lon="3.08762">
        <ele>976</ele>
        <time>2016-09-01T13:59:44Z</time>
      </trkpt>
      <trkpt lat="44.85022" lon="3.08771">
        <ele>976</ele>
        <time>2016-09-01T13:59:52Z</time>
      </trkpt>
      <trkpt lat="44.85023" lon="3.08773">
        <ele>977</ele>
        <time>2016-09-01T13:59:53Z</time>
      </trkpt>
      <trkpt lat="44.85027" lon="3.08784">
        <ele>977</ele>
        <time>2016-09-01T14:00:01Z</time>
      </trkpt>
      <trkpt lat="44.85027" lon="3.08785">
        <ele>977</ele>
        <time>2016-09-01T14:00:02Z</time>
      </trkpt>
      <trkpt lat="44.85031" lon="3.08796">
        <ele>977</ele>
        <time>2016-09-01T14:00:10Z</time>
      </trkpt>
      <trkpt lat="44.85031" lon="3.08797">
        <ele>977</ele>
        <time>2016-09-01T14:00:11Z</time>
      </trkpt>
      <trkpt lat="44.85033" lon="3.08807">
        <ele>976</ele>
        <time>2016-09-01T14:00:17Z</time>
      </trkpt>
      <trkpt lat="44.85034" lon="3.08809">
        <ele>976</ele>
        <time>2016-09-01T14:00:18Z</time>
      </trkpt>
      <trkpt lat="44.85038" lon="3.0882">
        <ele>977</ele>
        <time>2016-09-01T14:00:27Z</time>
      </trkpt>
      <trkpt lat="44.85039" lon="3.08821">
        <ele>977</ele>
        <time>2016-09-01T14:00:28Z</time>
      </trkpt>
      <trkpt lat="44.85043" lon="3.08831">
        <ele>977</ele>
        <time>2016-09-01T14:00:35Z</time>
      </trkpt>
      <trkpt lat="44.85044" lon="3.08832">
        <ele>977</ele>
        <time>2016-09-01T14:00:36Z</time>
      </trkpt>
      <trkpt lat="44.85049" lon="3.08841">
        <ele>973</ele>
        <time>2016-09-01T14:00:44Z</time>
      </trkpt>
      <trkpt lat="44.85049" lon="3.08842">
        <ele>973</ele>
        <time>2016-09-01T14:00:45Z</time>
      </trkpt>
      <trkpt lat="44.85056" lon="3.0885">
        <ele>974</ele>
        <time>2016-09-01T14:00:53Z</time>
      </trkpt>
      <trkpt lat="44.85056" lon="3.08851">
        <ele>974</ele>
        <time>2016-09-01T14:00:54Z</time>
      </trkpt>
      <trkpt lat="44.85063" lon="3.08859">
        <ele>974</ele>
        <time>2016-09-01T14:01:02Z</time>
      </trkpt>
      <trkpt lat="44.85063" lon="3.0886">
        <ele>974</ele>
        <time>2016-09-01T14:01:03Z</time>
      </trkpt>
      <trkpt lat="44.8507" lon="3.08867">
        <ele>974</ele>
        <time>2016-09-01T14:01:10Z</time>
      </trkpt>
      <trkpt lat="44.85071" lon="3.08868">
        <ele>974</ele>
        <time>2016-09-01T14:01:11Z</time>
      </trkpt>
      <trkpt lat="44.85077" lon="3.08876">
        <ele>973</ele>
        <time>2016-09-01T14:01:19Z</time>
      </trkpt>
      <trkpt lat="44.85078" lon="3.08877">
        <ele>973</ele>
        <time>2016-09-01T14:01:20Z</time>
      </trkpt>
      <trkpt lat="44.85085" lon="3.08884">
        <ele>978</ele>
        <time>2016-09-01T14:01:28Z</time>
      </trkpt>
      <trkpt lat="44.85086" lon="3.08885">
        <ele>978</ele>
        <time>2016-09-01T14:01:29Z</time>
      </trkpt>
      <trkpt lat="44.85093" lon="3.08889">
        <ele>978</ele>
        <time>2016-09-01T14:01:36Z</time>
      </trkpt>
      <trkpt lat="44.85094" lon="3.0889">
        <ele>978</ele>
        <time>2016-09-01T14:01:37Z</time>
      </trkpt>
      <trkpt lat="44.851" lon="3.08896">
        <ele>977</ele>
        <time>2016-09-01T14:02:30Z</time>
      </trkpt>
      <trkpt lat="44.85101" lon="3.08898">
        <ele>977</ele>
        <time>2016-09-01T14:02:31Z</time>
      </trkpt>
      <trkpt lat="44.8511" lon="3.08895">
        <ele>978</ele>
        <time>2016-09-01T14:02:38Z</time>
      </trkpt>
      <trkpt lat="44.85111" lon="3.08895">
        <ele>978</ele>
        <time>2016-09-01T14:02:39Z</time>
      </trkpt>
      <trkpt lat="44.85118" lon="3.08895">
        <ele>978</ele>
        <time>2016-09-01T14:02:48Z</time>
      </trkpt>
      <trkpt lat="44.8512" lon="3.08894">
        <ele>979</ele>
        <time>2016-09-01T14:02:49Z</time>
      </trkpt>
      <trkpt lat="44.85128" lon="3.08894">
        <ele>979</ele>
        <time>2016-09-01T14:02:56Z</time>
      </trkpt>
      <trkpt lat="44.85129" lon="3.08894">
        <ele>979</ele>
        <time>2016-09-01T14:02:57Z</time>
      </trkpt>
      <trkpt lat="44.85137" lon="3.08893">
        <ele>979</ele>
        <time>2016-09-01T14:03:04Z</time>
      </trkpt>
      <trkpt lat="44.85138" lon="3.08893">
        <ele>979</ele>
        <time>2016-09-01T14:03:05Z</time>
      </trkpt>
      <trkpt lat="44.85146" lon="3.0889">
        <ele>979</ele>
        <time>2016-09-01T14:03:12Z</time>
      </trkpt>
      <trkpt lat="44.85147" lon="3.0889">
        <ele>979</ele>
        <time>2016-09-01T14:03:13Z</time>
      </trkpt>
      <trkpt lat="44.85156" lon="3.08886">
        <ele>980</ele>
        <time>2016-09-01T14:03:21Z</time>
      </trkpt>
      <trkpt lat="44.85157" lon="3.08886">
        <ele>980</ele>
        <time>2016-09-01T14:03:22Z</time>
      </trkpt>
      <trkpt lat="44.85164" lon="3.0888">
        <ele>980</ele>
        <time>2016-09-01T14:03:29Z</time>
      </trkpt>
      <trkpt lat="44.85164" lon="3.08879">
        <ele>980</ele>
        <time>2016-09-01T14:03:30Z</time>
      </trkpt>
      <trkpt lat="44.8517" lon="3.08871">
        <ele>983</ele>
        <time>2016-09-01T14:03:38Z</time>
      </trkpt>
      <trkpt lat="44.85172" lon="3.0887">
        <ele>983</ele>
        <time>2016-09-01T14:03:39Z</time>
      </trkpt>
      <trkpt lat="44.85179" lon="3.08864">
        <ele>983</ele>
        <time>2016-09-01T14:03:47Z</time>
      </trkpt>
      <trkpt lat="44.8518" lon="3.08863">
        <ele>983</ele>
        <time>2016-09-01T14:03:48Z</time>
      </trkpt>
      <trkpt lat="44.85189" lon="3.08862">
        <ele>983</ele>
        <time>2016-09-01T14:03:55Z</time>
      </trkpt>
      <trkpt lat="44.8519" lon="3.08862">
        <ele>983</ele>
        <time>2016-09-01T14:03:56Z</time>
      </trkpt>
      <trkpt lat="44.85198" lon="3.08862">
        <ele>983</ele>
        <time>2016-09-01T14:04:03Z</time>
      </trkpt>
      <trkpt lat="44.85199" lon="3.08862">
        <ele>983</ele>
        <time>2016-09-01T14:04:04Z</time>
      </trkpt>
      <trkpt lat="44.85208" lon="3.08864">
        <ele>983</ele>
        <time>2016-09-01T14:04:11Z</time>
      </trkpt>
      <trkpt lat="44.85209" lon="3.08864">
        <ele>983</ele>
        <time>2016-09-01T14:04:12Z</time>
      </trkpt>
      <trkpt lat="44.85217" lon="3.08866">
        <ele>983</ele>
        <time>2016-09-01T14:04:19Z</time>
      </trkpt>
      <trkpt lat="44.85218" lon="3.08867">
        <ele>983</ele>
        <time>2016-09-01T14:04:20Z</time>
      </trkpt>
      <trkpt lat="44.85226" lon="3.08866">
        <ele>983</ele>
        <time>2016-09-01T14:04:28Z</time>
      </trkpt>
      <trkpt lat="44.85228" lon="3.08866">
        <ele>983</ele>
        <time>2016-09-01T14:04:29Z</time>
      </trkpt>
      <trkpt lat="44.85235" lon="3.08866">
        <ele>983</ele>
        <time>2016-09-01T14:04:37Z</time>
      </trkpt>
      <trkpt lat="44.85237" lon="3.08866">
        <ele>983</ele>
        <time>2016-09-01T14:04:38Z</time>
      </trkpt>
      <trkpt lat="44.85246" lon="3.08865">
        <ele>984</ele>
        <time>2016-09-01T14:04:45Z</time>
      </trkpt>
      <trkpt lat="44.85247" lon="3.08865">
        <ele>984</ele>
        <time>2016-09-01T14:04:46Z</time>
      </trkpt>
      <trkpt lat="44.85255" lon="3.08862">
        <ele>984</ele>
        <time>2016-09-01T14:04:53Z</time>
      </trkpt>
      <trkpt lat="44.85256" lon="3.08862">
        <ele>984</ele>
        <time>2016-09-01T14:04:54Z</time>
      </trkpt>
      <trkpt lat="44.85264" lon="3.08859">
        <ele>984</ele>
        <time>2016-09-01T14:05:02Z</time>
      </trkpt>
      <trkpt lat="44.85265" lon="3.08859">
        <ele>984</ele>
        <time>2016-09-01T14:05:03Z</time>
      </trkpt>
      <trkpt lat="44.85273" lon="3.08855">
        <ele>984</ele>
        <time>2016-09-01T14:05:10Z</time>
      </trkpt>
      <trkpt lat="44.85274" lon="3.08855">
        <ele>984</ele>
        <time>2016-09-01T14:05:11Z</time>
      </trkpt>
      <trkpt lat="44.85282" lon="3.0885">
        <ele>984</ele>
        <time>2016-09-01T14:05:18Z</time>
      </trkpt>
      <trkpt lat="44.85283" lon="3.08849">
        <ele>984</ele>
        <time>2016-09-01T14:05:19Z</time>
      </trkpt>
      <trkpt lat="44.85291" lon="3.08844">
        <ele>984</ele>
        <time>2016-09-01T14:05:29Z</time>
      </trkpt>
      <trkpt lat="44.85292" lon="3.08843">
        <ele>984</ele>
        <time>2016-09-01T14:05:30Z</time>
      </trkpt>
      <trkpt lat="44.85301" lon="3.08841">
        <ele>984</ele>
        <time>2016-09-01T14:05:38Z</time>
      </trkpt>
      <trkpt lat="44.85302" lon="3.08841">
        <ele>985</ele>
        <time>2016-09-01T14:05:39Z</time>
      </trkpt>
      <trkpt lat="44.85308" lon="3.08834">
        <ele>985</ele>
        <time>2016-09-01T14:05:48Z</time>
      </trkpt>
      <trkpt lat="44.8531" lon="3.08833">
        <ele>993</ele>
        <time>2016-09-01T14:05:49Z</time>
      </trkpt>
      <trkpt lat="44.85318" lon="3.08831">
        <ele>992</ele>
        <time>2016-09-01T14:05:58Z</time>
      </trkpt>
      <trkpt lat="44.85319" lon="3.0883">
        <ele>992</ele>
        <time>2016-09-01T14:05:59Z</time>
      </trkpt>
      <trkpt lat="44.85328" lon="3.08827">
        <ele>991</ele>
        <time>2016-09-01T14:06:08Z</time>
      </trkpt>
      <trkpt lat="44.85329" lon="3.08826">
        <ele>991</ele>
        <time>2016-09-01T14:06:09Z</time>
      </trkpt>
      <trkpt lat="44.85337" lon="3.08822">
        <ele>990</ele>
        <time>2016-09-01T14:06:17Z</time>
      </trkpt>
      <trkpt lat="44.85337" lon="3.0882">
        <ele>991</ele>
        <time>2016-09-01T14:06:18Z</time>
      </trkpt>
      <trkpt lat="44.85345" lon="3.08815">
        <ele>991</ele>
        <time>2016-09-01T14:06:26Z</time>
      </trkpt>
      <trkpt lat="44.85346" lon="3.08814">
        <ele>991</ele>
        <time>2016-09-01T14:06:27Z</time>
      </trkpt>
      <trkpt lat="44.85355" lon="3.08816">
        <ele>991</ele>
        <time>2016-09-01T14:06:36Z</time>
      </trkpt>
      <trkpt lat="44.85355" lon="3.08815">
        <ele>991</ele>
        <time>2016-09-01T14:06:37Z</time>
      </trkpt>
      <trkpt lat="44.85364" lon="3.08817">
        <ele>991</ele>
        <time>2016-09-01T14:06:44Z</time>
      </trkpt>
      <trkpt lat="44.85366" lon="3.08817">
        <ele>991</ele>
        <time>2016-09-01T14:06:45Z</time>
      </trkpt>
      <trkpt lat="44.85374" lon="3.08816">
        <ele>990</ele>
        <time>2016-09-01T14:06:51Z</time>
      </trkpt>
      <trkpt lat="44.85375" lon="3.08816">
        <ele>990</ele>
        <time>2016-09-01T14:06:52Z</time>
      </trkpt>
      <trkpt lat="44.85383" lon="3.08817">
        <ele>989</ele>
        <time>2016-09-01T14:06:58Z</time>
      </trkpt>
      <trkpt lat="44.85385" lon="3.08817">
        <ele>989</ele>
        <time>2016-09-01T14:06:59Z</time>
      </trkpt>
      <trkpt lat="44.85393" lon="3.08818">
        <ele>988</ele>
        <time>2016-09-01T14:07:06Z</time>
      </trkpt>
      <trkpt lat="44.85394" lon="3.08818">
        <ele>988</ele>
        <time>2016-09-01T14:07:07Z</time>
      </trkpt>
      <trkpt lat="44.85402" lon="3.08819">
        <ele>987</ele>
        <time>2016-09-01T14:07:15Z</time>
      </trkpt>
      <trkpt lat="44.85404" lon="3.08819">
        <ele>987</ele>
        <time>2016-09-01T14:07:16Z</time>
      </trkpt>
      <trkpt lat="44.85412" lon="3.08818">
        <ele>986</ele>
        <time>2016-09-01T14:07:24Z</time>
      </trkpt>
      <trkpt lat="44.85413" lon="3.08819">
        <ele>986</ele>
        <time>2016-09-01T14:07:25Z</time>
      </trkpt>
      <trkpt lat="44.85421" lon="3.08818">
        <ele>983</ele>
        <time>2016-09-01T14:07:32Z</time>
      </trkpt>
      <trkpt lat="44.85422" lon="3.08818">
        <ele>983</ele>
        <time>2016-09-01T14:07:33Z</time>
      </trkpt>
      <trkpt lat="44.85431" lon="3.08817">
        <ele>983</ele>
        <time>2016-09-01T14:07:42Z</time>
      </trkpt>
      <trkpt lat="44.85432" lon="3.08817">
        <ele>983</ele>
        <time>2016-09-01T14:07:43Z</time>
      </trkpt>
      <trkpt lat="44.85441" lon="3.08817">
        <ele>983</ele>
        <time>2016-09-01T14:07:52Z</time>
      </trkpt>
      <trkpt lat="44.85443" lon="3.08817">
        <ele>983</ele>
        <time>2016-09-01T14:07:53Z</time>
      </trkpt>
      <trkpt lat="44.8545" lon="3.08819">
        <ele>983</ele>
        <time>2016-09-01T14:07:59Z</time>
      </trkpt>
      <trkpt lat="44.85452" lon="3.08819">
        <ele>983</ele>
        <time>2016-09-01T14:08:00Z</time>
      </trkpt>
      <trkpt lat="44.8546" lon="3.08822">
        <ele>982</ele>
        <time>2016-09-01T14:08:23Z</time>
      </trkpt>
      <trkpt lat="44.85464" lon="3.08827">
        <ele>982</ele>
        <time>2016-09-01T14:08:24Z</time>
      </trkpt>
      <trkpt lat="44.85473" lon="3.08824">
        <ele>981</ele>
        <time>2016-09-01T14:08:32Z</time>
      </trkpt>
      <trkpt lat="44.85474" lon="3.08824">
        <ele>981</ele>
        <time>2016-09-01T14:08:33Z</time>
      </trkpt>
      <trkpt lat="44.85483" lon="3.08822">
        <ele>981</ele>
        <time>2016-09-01T14:08:42Z</time>
      </trkpt>
      <trkpt lat="44.85483" lon="3.08821">
        <ele>981</ele>
        <time>2016-09-01T14:08:43Z</time>
      </trkpt>
      <trkpt lat="44.85487" lon="3.0881">
        <ele>981</ele>
        <time>2016-09-01T14:08:52Z</time>
      </trkpt>
      <trkpt lat="44.85488" lon="3.08808">
        <ele>981</ele>
        <time>2016-09-01T14:08:53Z</time>
      </trkpt>
      <trkpt lat="44.8549" lon="3.08798">
        <ele>982</ele>
        <time>2016-09-01T14:08:58Z</time>
      </trkpt>
      <trkpt lat="44.8549" lon="3.08796">
        <ele>982</ele>
        <time>2016-09-01T14:08:59Z</time>
      </trkpt>
      <trkpt lat="44.85494" lon="3.08785">
        <ele>983</ele>
        <time>2016-09-01T14:09:05Z</time>
      </trkpt>
      <trkpt lat="44.85494" lon="3.08783">
        <ele>983</ele>
        <time>2016-09-01T14:09:06Z</time>
      </trkpt>
      <trkpt lat="44.85498" lon="3.08773">
        <ele>983</ele>
        <time>2016-09-01T14:09:14Z</time>
      </trkpt>
      <trkpt lat="44.85498" lon="3.08772">
        <ele>983</ele>
        <time>2016-09-01T14:09:15Z</time>
      </trkpt>
      <trkpt lat="44.85502" lon="3.08761">
        <ele>981</ele>
        <time>2016-09-01T14:09:22Z</time>
      </trkpt>
      <trkpt lat="44.85503" lon="3.0876">
        <ele>981</ele>
        <time>2016-09-01T14:09:23Z</time>
      </trkpt>
      <trkpt lat="44.85508" lon="3.08751">
        <ele>981</ele>
        <time>2016-09-01T14:09:31Z</time>
      </trkpt>
      <trkpt lat="44.85508" lon="3.0875">
        <ele>983</ele>
        <time>2016-09-01T14:09:32Z</time>
      </trkpt>
      <trkpt lat="44.85511" lon="3.08739">
        <ele>982</ele>
        <time>2016-09-01T14:09:40Z</time>
      </trkpt>
      <trkpt lat="44.85511" lon="3.08738">
        <ele>982</ele>
        <time>2016-09-01T14:09:41Z</time>
      </trkpt>
      <trkpt lat="44.85512" lon="3.08725">
        <ele>982</ele>
        <time>2016-09-01T14:09:51Z</time>
      </trkpt>
      <trkpt lat="44.85512" lon="3.08724">
        <ele>983</ele>
        <time>2016-09-01T14:09:52Z</time>
      </trkpt>
      <trkpt lat="44.85514" lon="3.08713">
        <ele>983</ele>
        <time>2016-09-01T14:09:59Z</time>
      </trkpt>
      <trkpt lat="44.85515" lon="3.08711">
        <ele>983</ele>
        <time>2016-09-01T14:10:00Z</time>
      </trkpt>
      <trkpt lat="44.85515" lon="3.08699">
        <ele>983</ele>
        <time>2016-09-01T14:10:07Z</time>
      </trkpt>
      <trkpt lat="44.85516" lon="3.08697">
        <ele>983</ele>
        <time>2016-09-01T14:10:08Z</time>
      </trkpt>
      <trkpt lat="44.85518" lon="3.08687">
        <ele>984</ele>
        <time>2016-09-01T14:10:13Z</time>
      </trkpt>
      <trkpt lat="44.85519" lon="3.08685">
        <ele>984</ele>
        <time>2016-09-01T14:10:14Z</time>
      </trkpt>
      <trkpt lat="44.85522" lon="3.08674">
        <ele>984</ele>
        <time>2016-09-01T14:10:22Z</time>
      </trkpt>
      <trkpt lat="44.85523" lon="3.08672">
        <ele>984</ele>
        <time>2016-09-01T14:10:23Z</time>
      </trkpt>
      <trkpt lat="44.85528" lon="3.08661">
        <ele>987</ele>
        <time>2016-09-01T14:10:32Z</time>
      </trkpt>
      <trkpt lat="44.85528" lon="3.0866">
        <ele>987</ele>
        <time>2016-09-01T14:10:33Z</time>
      </trkpt>
      <trkpt lat="44.85534" lon="3.08652">
        <ele>986</ele>
        <time>2016-09-01T14:10:42Z</time>
      </trkpt>
      <trkpt lat="44.85535" lon="3.08651">
        <ele>986</ele>
        <time>2016-09-01T14:10:43Z</time>
      </trkpt>
      <trkpt lat="44.85541" lon="3.08643">
        <ele>986</ele>
        <time>2016-09-01T14:10:49Z</time>
      </trkpt>
      <trkpt lat="44.85542" lon="3.08642">
        <ele>986</ele>
        <time>2016-09-01T14:10:50Z</time>
      </trkpt>
      <trkpt lat="44.85551" lon="3.08639">
        <ele>986</ele>
        <time>2016-09-01T14:10:59Z</time>
      </trkpt>
      <trkpt lat="44.85552" lon="3.08638">
        <ele>986</ele>
        <time>2016-09-01T14:11:00Z</time>
      </trkpt>
      <trkpt lat="44.8556" lon="3.08635">
        <ele>986</ele>
        <time>2016-09-01T14:11:10Z</time>
      </trkpt>
      <trkpt lat="44.85561" lon="3.08635">
        <ele>986</ele>
        <time>2016-09-01T14:11:11Z</time>
      </trkpt>
      <trkpt lat="44.85568" lon="3.08634">
        <ele>986</ele>
        <time>2016-09-01T14:11:19Z</time>
      </trkpt>
      <trkpt lat="44.8557" lon="3.08632">
        <ele>986</ele>
        <time>2016-09-01T14:11:20Z</time>
      </trkpt>
      <trkpt lat="44.85578" lon="3.08629">
        <ele>986</ele>
        <time>2016-09-01T14:11:25Z</time>
      </trkpt>
      <trkpt lat="44.85579" lon="3.08629">
        <ele>986</ele>
        <time>2016-09-01T14:11:26Z</time>
      </trkpt>
      <trkpt lat="44.85588" lon="3.08629">
        <ele>986</ele>
        <time>2016-09-01T14:11:35Z</time>
      </trkpt>
      <trkpt lat="44.85589" lon="3.08629">
        <ele>986</ele>
        <time>2016-09-01T14:11:36Z</time>
      </trkpt>
      <trkpt lat="44.85597" lon="3.08626">
        <ele>986</ele>
        <time>2016-09-01T14:11:44Z</time>
      </trkpt>
      <trkpt lat="44.85598" lon="3.08625">
        <ele>986</ele>
        <time>2016-09-01T14:11:45Z</time>
      </trkpt>
      <trkpt lat="44.85606" lon="3.08618">
        <ele>986</ele>
        <time>2016-09-01T14:11:55Z</time>
      </trkpt>
      <trkpt lat="44.85607" lon="3.08617">
        <ele>986</ele>
        <time>2016-09-01T14:11:56Z</time>
      </trkpt>
      <trkpt lat="44.85615" lon="3.08614">
        <ele>986</ele>
        <time>2016-09-01T14:12:03Z</time>
      </trkpt>
      <trkpt lat="44.85616" lon="3.08613">
        <ele>987</ele>
        <time>2016-09-01T14:12:04Z</time>
      </trkpt>
      <trkpt lat="44.85625" lon="3.08611">
        <ele>987</ele>
        <time>2016-09-01T14:12:11Z</time>
      </trkpt>
      <trkpt lat="44.85626" lon="3.08611">
        <ele>987</ele>
        <time>2016-09-01T14:12:12Z</time>
      </trkpt>
      <trkpt lat="44.85634" lon="3.0861">
        <ele>987</ele>
        <time>2016-09-01T14:12:20Z</time>
      </trkpt>
      <trkpt lat="44.85635" lon="3.0861">
        <ele>987</ele>
        <time>2016-09-01T14:12:21Z</time>
      </trkpt>
      <trkpt lat="44.85643" lon="3.08612">
        <ele>987</ele>
        <time>2016-09-01T14:12:29Z</time>
      </trkpt>
      <trkpt lat="44.85644" lon="3.08613">
        <ele>987</ele>
        <time>2016-09-01T14:12:30Z</time>
      </trkpt>
      <trkpt lat="44.85651" lon="3.08618">
        <ele>987</ele>
        <time>2016-09-01T14:12:36Z</time>
      </trkpt>
      <trkpt lat="44.85653" lon="3.08619">
        <ele>987</ele>
        <time>2016-09-01T14:12:37Z</time>
      </trkpt>
      <trkpt lat="44.85659" lon="3.08625">
        <ele>987</ele>
        <time>2016-09-01T14:12:44Z</time>
      </trkpt>
      <trkpt lat="44.8566" lon="3.08626">
        <ele>986</ele>
        <time>2016-09-01T14:12:45Z</time>
      </trkpt>
      <trkpt lat="44.85666" lon="3.08633">
        <ele>986</ele>
        <time>2016-09-01T14:12:50Z</time>
      </trkpt>
      <trkpt lat="44.85667" lon="3.08635">
        <ele>989</ele>
        <time>2016-09-01T14:12:51Z</time>
      </trkpt>
      <trkpt lat="44.85671" lon="3.08646">
        <ele>989</ele>
        <time>2016-09-01T14:13:01Z</time>
      </trkpt>
      <trkpt lat="44.85672" lon="3.08647">
        <ele>989</ele>
        <time>2016-09-01T14:13:02Z</time>
      </trkpt>
      <trkpt lat="44.85675" lon="3.08658">
        <ele>988</ele>
        <time>2016-09-01T14:13:11Z</time>
      </trkpt>
      <trkpt lat="44.85675" lon="3.08659">
        <ele>987</ele>
        <time>2016-09-01T14:13:12Z</time>
      </trkpt>
      <trkpt lat="44.85678" lon="3.0867">
        <ele>985</ele>
        <time>2016-09-01T14:13:18Z</time>
      </trkpt>
      <trkpt lat="44.85678" lon="3.08672">
        <ele>985</ele>
        <time>2016-09-01T14:13:19Z</time>
      </trkpt>
      <trkpt lat="44.85683" lon="3.08683">
        <ele>985</ele>
        <time>2016-09-01T14:13:28Z</time>
      </trkpt>
      <trkpt lat="44.85684" lon="3.08684">
        <ele>985</ele>
        <time>2016-09-01T14:13:29Z</time>
      </trkpt>
      <trkpt lat="44.85688" lon="3.08695">
        <ele>985</ele>
        <time>2016-09-01T14:13:37Z</time>
      </trkpt>
      <trkpt lat="44.85689" lon="3.08696">
        <ele>985</ele>
        <time>2016-09-01T14:13:38Z</time>
      </trkpt>
      <trkpt lat="44.85695" lon="3.08703">
        <ele>984</ele>
        <time>2016-09-01T14:13:46Z</time>
      </trkpt>
      <trkpt lat="44.85696" lon="3.08703">
        <ele>984</ele>
        <time>2016-09-01T14:13:47Z</time>
      </trkpt>
      <trkpt lat="44.85702" lon="3.08711">
        <ele>984</ele>
        <time>2016-09-01T14:13:53Z</time>
      </trkpt>
      <trkpt lat="44.85703" lon="3.08712">
        <ele>984</ele>
        <time>2016-09-01T14:13:54Z</time>
      </trkpt>
      <trkpt lat="44.8571" lon="3.08719">
        <ele>984</ele>
        <time>2016-09-01T14:14:02Z</time>
      </trkpt>
      <trkpt lat="44.8571" lon="3.0872">
        <ele>984</ele>
        <time>2016-09-01T14:14:03Z</time>
      </trkpt>
      <trkpt lat="44.85717" lon="3.08727">
        <ele>984</ele>
        <time>2016-09-01T14:14:10Z</time>
      </trkpt>
      <trkpt lat="44.85718" lon="3.08728">
        <ele>984</ele>
        <time>2016-09-01T14:14:11Z</time>
      </trkpt>
      <trkpt lat="44.85722" lon="3.08736">
        <ele>984</ele>
        <time>2016-09-01T14:14:18Z</time>
      </trkpt>
      <trkpt lat="44.85723" lon="3.08737">
        <ele>984</ele>
        <time>2016-09-01T14:14:19Z</time>
      </trkpt>
      <trkpt lat="44.85727" lon="3.08748">
        <ele>984</ele>
        <time>2016-09-01T14:14:26Z</time>
      </trkpt>
      <trkpt lat="44.85727" lon="3.08749">
        <ele>984</ele>
        <time>2016-09-01T14:14:27Z</time>
      </trkpt>
      <trkpt lat="44.85731" lon="3.0876">
        <ele>980</ele>
        <time>2016-09-01T14:14:35Z</time>
      </trkpt>
      <trkpt lat="44.85732" lon="3.08762">
        <ele>980</ele>
        <time>2016-09-01T14:14:36Z</time>
      </trkpt>
      <trkpt lat="44.85732" lon="3.08774">
        <ele>979</ele>
        <time>2016-09-01T14:14:42Z</time>
      </trkpt>
      <trkpt lat="44.85733" lon="3.08776">
        <ele>979</ele>
        <time>2016-09-01T14:14:43Z</time>
      </trkpt>
      <trkpt lat="44.85734" lon="3.08786">
        <ele>979</ele>
        <time>2016-09-01T14:14:49Z</time>
      </trkpt>
      <trkpt lat="44.85735" lon="3.08788">
        <ele>979</ele>
        <time>2016-09-01T14:14:50Z</time>
      </trkpt>
      <trkpt lat="44.85737" lon="3.08799">
        <ele>978</ele>
        <time>2016-09-01T14:14:56Z</time>
      </trkpt>
      <trkpt lat="44.85737" lon="3.08801">
        <ele>978</ele>
        <time>2016-09-01T14:14:57Z</time>
      </trkpt>
      <trkpt lat="44.85739" lon="3.08813">
        <ele>978</ele>
        <time>2016-09-01T14:15:04Z</time>
      </trkpt>
      <trkpt lat="44.85739" lon="3.08816">
        <ele>978</ele>
        <time>2016-09-01T14:15:05Z</time>
      </trkpt>
      <trkpt lat="44.85742" lon="3.08827">
        <ele>978</ele>
        <time>2016-09-01T14:15:12Z</time>
      </trkpt>
      <trkpt lat="44.85743" lon="3.08828">
        <ele>979</ele>
        <time>2016-09-01T14:15:13Z</time>
      </trkpt>
      <trkpt lat="44.85745" lon="3.08839">
        <ele>978</ele>
        <time>2016-09-01T14:15:20Z</time>
      </trkpt>
      <trkpt lat="44.85744" lon="3.08841">
        <ele>977</ele>
        <time>2016-09-01T14:15:21Z</time>
      </trkpt>
      <trkpt lat="44.85748" lon="3.08851">
        <ele>976</ele>
        <time>2016-09-01T14:15:29Z</time>
      </trkpt>
      <trkpt lat="44.85748" lon="3.08852">
        <ele>976</ele>
        <time>2016-09-01T14:15:30Z</time>
      </trkpt>
      <trkpt lat="44.85752" lon="3.08862">
        <ele>979</ele>
        <time>2016-09-01T14:15:36Z</time>
      </trkpt>
      <trkpt lat="44.85753" lon="3.08864">
        <ele>979</ele>
        <time>2016-09-01T14:15:37Z</time>
      </trkpt>
      <trkpt lat="44.85756" lon="3.08875">
        <ele>979</ele>
        <time>2016-09-01T14:15:46Z</time>
      </trkpt>
      <trkpt lat="44.85756" lon="3.08876">
        <ele>979</ele>
        <time>2016-09-01T14:15:47Z</time>
      </trkpt>
      <trkpt lat="44.85758" lon="3.08888">
        <ele>978</ele>
        <time>2016-09-01T14:15:54Z</time>
      </trkpt>
      <trkpt lat="44.85759" lon="3.08889">
        <ele>978</ele>
        <time>2016-09-01T14:15:55Z</time>
      </trkpt>
      <trkpt lat="44.85762" lon="3.089">
        <ele>978</ele>
        <time>2016-09-01T14:16:03Z</time>
      </trkpt>
      <trkpt lat="44.85763" lon="3.08902">
        <ele>978</ele>
        <time>2016-09-01T14:16:04Z</time>
      </trkpt>
      <trkpt lat="44.85768" lon="3.08912">
        <ele>978</ele>
        <time>2016-09-01T14:16:12Z</time>
      </trkpt>
      <trkpt lat="44.85769" lon="3.08913">
        <ele>978</ele>
        <time>2016-09-01T14:16:13Z</time>
      </trkpt>
      <trkpt lat="44.85777" lon="3.08917">
        <ele>978</ele>
        <time>2016-09-01T14:16:20Z</time>
      </trkpt>
      <trkpt lat="44.85778" lon="3.08916">
        <ele>978</ele>
        <time>2016-09-01T14:16:21Z</time>
      </trkpt>
      <trkpt lat="44.85786" lon="3.08913">
        <ele>978</ele>
        <time>2016-09-01T14:16:28Z</time>
      </trkpt>
      <trkpt lat="44.85787" lon="3.08913">
        <ele>978</ele>
        <time>2016-09-01T14:16:29Z</time>
      </trkpt>
      <trkpt lat="44.85795" lon="3.08912">
        <ele>979</ele>
        <time>2016-09-01T14:16:38Z</time>
      </trkpt>
      <trkpt lat="44.85796" lon="3.08912">
        <ele>979</ele>
        <time>2016-09-01T14:16:39Z</time>
      </trkpt>
      <trkpt lat="44.85804" lon="3.08915">
        <ele>979</ele>
        <time>2016-09-01T14:16:46Z</time>
      </trkpt>
      <trkpt lat="44.85805" lon="3.08915">
        <ele>979</ele>
        <time>2016-09-01T14:16:47Z</time>
      </trkpt>
      <trkpt lat="44.85813" lon="3.08919">
        <ele>976</ele>
        <time>2016-09-01T14:16:54Z</time>
      </trkpt>
      <trkpt lat="44.85814" lon="3.0892">
        <ele>976</ele>
        <time>2016-09-01T14:16:55Z</time>
      </trkpt>
      <trkpt lat="44.8582" lon="3.08928">
        <ele>976</ele>
        <time>2016-09-01T14:17:02Z</time>
      </trkpt>
      <trkpt lat="44.85821" lon="3.08929">
        <ele>976</ele>
        <time>2016-09-01T14:17:03Z</time>
      </trkpt>
      <trkpt lat="44.85826" lon="3.08938">
        <ele>975</ele>
        <time>2016-09-01T14:17:10Z</time>
      </trkpt>
      <trkpt lat="44.85828" lon="3.0894">
        <ele>975</ele>
        <time>2016-09-01T14:17:11Z</time>
      </trkpt>
      <trkpt lat="44.85834" lon="3.08948">
        <ele>979</ele>
        <time>2016-09-01T14:17:19Z</time>
      </trkpt>
      <trkpt lat="44.85835" lon="3.08949">
        <ele>979</ele>
        <time>2016-09-01T14:17:20Z</time>
      </trkpt>
      <trkpt lat="44.85841" lon="3.08958">
        <ele>979</ele>
        <time>2016-09-01T14:17:27Z</time>
      </trkpt>
      <trkpt lat="44.85842" lon="3.08959">
        <ele>978</ele>
        <time>2016-09-01T14:17:28Z</time>
      </trkpt>
      <trkpt lat="44.85846" lon="3.0897">
        <ele>978</ele>
        <time>2016-09-01T14:17:36Z</time>
      </trkpt>
      <trkpt lat="44.85846" lon="3.08972">
        <ele>978</ele>
        <time>2016-09-01T14:17:37Z</time>
      </trkpt>
      <trkpt lat="44.85848" lon="3.08983">
        <ele>977</ele>
        <time>2016-09-01T14:17:45Z</time>
      </trkpt>
      <trkpt lat="44.85849" lon="3.08985">
        <ele>977</ele>
        <time>2016-09-01T14:17:46Z</time>
      </trkpt>
      <trkpt lat="44.85852" lon="3.08996">
        <ele>976</ele>
        <time>2016-09-01T14:17:53Z</time>
      </trkpt>
      <trkpt lat="44.85852" lon="3.08997">
        <ele>976</ele>
        <time>2016-09-01T14:17:54Z</time>
      </trkpt>
      <trkpt lat="44.85852" lon="3.09009">
        <ele>974</ele>
        <time>2016-09-01T14:18:02Z</time>
      </trkpt>
      <trkpt lat="44.85853" lon="3.0901">
        <ele>975</ele>
        <time>2016-09-01T14:18:03Z</time>
      </trkpt>
      <trkpt lat="44.85854" lon="3.09022">
        <ele>975</ele>
        <time>2016-09-01T14:18:13Z</time>
      </trkpt>
      <trkpt lat="44.85854" lon="3.09023">
        <ele>975</ele>
        <time>2016-09-01T14:18:14Z</time>
      </trkpt>
      <trkpt lat="44.85856" lon="3.09034">
        <ele>975</ele>
        <time>2016-09-01T14:18:21Z</time>
      </trkpt>
      <trkpt lat="44.85856" lon="3.09036">
        <ele>975</ele>
        <time>2016-09-01T14:18:22Z</time>
      </trkpt>
      <trkpt lat="44.85857" lon="3.09048">
        <ele>975</ele>
        <time>2016-09-01T14:18:31Z</time>
      </trkpt>
      <trkpt lat="44.85857" lon="3.0905">
        <ele>975</ele>
        <time>2016-09-01T14:18:32Z</time>
      </trkpt>
      <trkpt lat="44.85859" lon="3.09062">
        <ele>975</ele>
        <time>2016-09-01T14:18:40Z</time>
      </trkpt>
      <trkpt lat="44.8586" lon="3.09063">
        <ele>975</ele>
        <time>2016-09-01T14:18:41Z</time>
      </trkpt>
      <trkpt lat="44.85863" lon="3.09074">
        <ele>975</ele>
        <time>2016-09-01T14:18:49Z</time>
      </trkpt>
      <trkpt lat="44.85863" lon="3.09075">
        <ele>975</ele>
        <time>2016-09-01T14:18:50Z</time>
      </trkpt>
      <trkpt lat="44.85866" lon="3.09085">
        <ele>974</ele>
        <time>2016-09-01T14:18:58Z</time>
      </trkpt>
      <trkpt lat="44.85867" lon="3.09087">
        <ele>974</ele>
        <time>2016-09-01T14:18:59Z</time>
      </trkpt>
      <trkpt lat="44.85872" lon="3.09094">
        <ele>974</ele>
        <time>2016-09-01T14:19:03Z</time>
      </trkpt>
      <trkpt lat="44.85873" lon="3.09096">
        <ele>974</ele>
        <time>2016-09-01T14:19:04Z</time>
      </trkpt>
      <trkpt lat="44.85879" lon="3.09104">
        <ele>975</ele>
        <time>2016-09-01T14:19:12Z</time>
      </trkpt>
      <trkpt lat="44.8588" lon="3.09105">
        <ele>975</ele>
        <time>2016-09-01T14:19:13Z</time>
      </trkpt>
      <trkpt lat="44.85887" lon="3.09112">
        <ele>975</ele>
        <time>2016-09-01T14:19:21Z</time>
      </trkpt>
      <trkpt lat="44.85887" lon="3.09112">
        <ele>975</ele>
        <time>2016-09-01T14:19:22Z</time>
      </trkpt>
      <trkpt lat="44.85895" lon="3.09116">
        <ele>976</ele>
        <time>2016-09-01T14:19:29Z</time>
      </trkpt>
      <trkpt lat="44.85896" lon="3.09116">
        <ele>976</ele>
        <time>2016-09-01T14:19:30Z</time>
      </trkpt>
      <trkpt lat="44.85904" lon="3.09119">
        <ele>976</ele>
        <time>2016-09-01T14:19:38Z</time>
      </trkpt>
      <trkpt lat="44.85905" lon="3.09119">
        <ele>976</ele>
        <time>2016-09-01T14:19:39Z</time>
      </trkpt>
      <trkpt lat="44.85914" lon="3.09119">
        <ele>977</ele>
        <time>2016-09-01T14:19:48Z</time>
      </trkpt>
      <trkpt lat="44.85915" lon="3.09119">
        <ele>977</ele>
        <time>2016-09-01T14:19:49Z</time>
      </trkpt>
      <trkpt lat="44.85923" lon="3.09118">
        <ele>982</ele>
        <time>2016-09-01T14:19:57Z</time>
      </trkpt>
      <trkpt lat="44.85925" lon="3.09117">
        <ele>982</ele>
        <time>2016-09-01T14:19:58Z</time>
      </trkpt>
      <trkpt lat="44.85933" lon="3.09114">
        <ele>982</ele>
        <time>2016-09-01T14:20:44Z</time>
      </trkpt>
      <trkpt lat="44.85936" lon="3.09116">
        <ele>982</ele>
        <time>2016-09-01T14:20:45Z</time>
      </trkpt>
      <trkpt lat="44.85944" lon="3.09115">
        <ele>982</ele>
        <time>2016-09-01T14:20:55Z</time>
      </trkpt>
      <trkpt lat="44.85945" lon="3.09116">
        <ele>982</ele>
        <time>2016-09-01T14:20:56Z</time>
      </trkpt>
      <trkpt lat="44.85953" lon="3.09117">
        <ele>983</ele>
        <time>2016-09-01T14:21:04Z</time>
      </trkpt>
      <trkpt lat="44.85954" lon="3.09117">
        <ele>983</ele>
        <time>2016-09-01T14:21:05Z</time>
      </trkpt>
      <trkpt lat="44.85962" lon="3.09122">
        <ele>983</ele>
        <time>2016-09-01T14:21:13Z</time>
      </trkpt>
      <trkpt lat="44.85963" lon="3.09123">
        <ele>983</ele>
        <time>2016-09-01T14:21:14Z</time>
      </trkpt>
      <trkpt lat="44.85969" lon="3.09129">
        <ele>983</ele>
        <time>2016-09-01T14:21:22Z</time>
      </trkpt>
      <trkpt lat="44.85971" lon="3.0913">
        <ele>983</ele>
        <time>2016-09-01T14:21:23Z</time>
      </trkpt>
      <trkpt lat="44.85978" lon="3.09134">
        <ele>983</ele>
        <time>2016-09-01T14:21:35Z</time>
      </trkpt>
      <trkpt lat="44.85979" lon="3.09135">
        <ele>983</ele>
        <time>2016-09-01T14:21:36Z</time>
      </trkpt>
      <trkpt lat="44.85985" lon="3.09143">
        <ele>983</ele>
        <time>2016-09-01T14:21:44Z</time>
      </trkpt>
      <trkpt lat="44.85986" lon="3.09145">
        <ele>983</ele>
        <time>2016-09-01T14:21:45Z</time>
      </trkpt>
      <trkpt lat="44.85991" lon="3.09154">
        <ele>983</ele>
        <time>2016-09-01T14:21:55Z</time>
      </trkpt>
      <trkpt lat="44.85991" lon="3.09155">
        <ele>983</ele>
        <time>2016-09-01T14:21:56Z</time>
      </trkpt>
      <trkpt lat="44.85996" lon="3.09166">
        <ele>984</ele>
        <time>2016-09-01T14:22:05Z</time>
      </trkpt>
      <trkpt lat="44.85996" lon="3.09167">
        <ele>984</ele>
        <time>2016-09-01T14:22:06Z</time>
      </trkpt>
      <trkpt lat="44.86" lon="3.09178">
        <ele>982</ele>
        <time>2016-09-01T14:22:14Z</time>
      </trkpt>
      <trkpt lat="44.86" lon="3.09179">
        <ele>984</ele>
        <time>2016-09-01T14:22:15Z</time>
      </trkpt>
      <trkpt lat="44.86004" lon="3.09191">
        <ele>984</ele>
        <time>2016-09-01T14:22:23Z</time>
      </trkpt>
      <trkpt lat="44.86005" lon="3.09192">
        <ele>984</ele>
        <time>2016-09-01T14:22:24Z</time>
      </trkpt>
      <trkpt lat="44.86009" lon="3.09202">
        <ele>984</ele>
        <time>2016-09-01T14:22:31Z</time>
      </trkpt>
      <trkpt lat="44.8601" lon="3.09203">
        <ele>984</ele>
        <time>2016-09-01T14:22:32Z</time>
      </trkpt>
      <trkpt lat="44.86013" lon="3.09215">
        <ele>984</ele>
        <time>2016-09-01T14:22:39Z</time>
      </trkpt>
      <trkpt lat="44.86013" lon="3.09216">
        <ele>984</ele>
        <time>2016-09-01T14:22:40Z</time>
      </trkpt>
      <trkpt lat="44.86018" lon="3.09224">
        <ele>984</ele>
        <time>2016-09-01T14:22:47Z</time>
      </trkpt>
      <trkpt lat="44.86019" lon="3.09226">
        <ele>984</ele>
        <time>2016-09-01T14:22:48Z</time>
      </trkpt>
      <trkpt lat="44.86027" lon="3.09232">
        <ele>984</ele>
        <time>2016-09-01T14:22:56Z</time>
      </trkpt>
      <trkpt lat="44.86028" lon="3.09232">
        <ele>984</ele>
        <time>2016-09-01T14:22:57Z</time>
      </trkpt>
      <trkpt lat="44.86036" lon="3.09238">
        <ele>984</ele>
        <time>2016-09-01T14:23:05Z</time>
      </trkpt>
      <trkpt lat="44.86037" lon="3.09238">
        <ele>984</ele>
        <time>2016-09-01T14:23:06Z</time>
      </trkpt>
      <trkpt lat="44.86045" lon="3.09241">
        <ele>984</ele>
        <time>2016-09-01T14:23:14Z</time>
      </trkpt>
      <trkpt lat="44.86046" lon="3.09241">
        <ele>984</ele>
        <time>2016-09-01T14:23:15Z</time>
      </trkpt>
      <trkpt lat="44.86053" lon="3.09246">
        <ele>984</ele>
        <time>2016-09-01T14:23:22Z</time>
      </trkpt>
      <trkpt lat="44.86054" lon="3.09247">
        <ele>984</ele>
        <time>2016-09-01T14:23:23Z</time>
      </trkpt>
      <trkpt lat="44.86063" lon="3.0925">
        <ele>984</ele>
        <time>2016-09-01T14:23:30Z</time>
      </trkpt>
      <trkpt lat="44.86064" lon="3.0925">
        <ele>984</ele>
        <time>2016-09-01T14:23:31Z</time>
      </trkpt>
      <trkpt lat="44.86072" lon="3.09254">
        <ele>983</ele>
        <time>2016-09-01T14:23:39Z</time>
      </trkpt>
      <trkpt lat="44.86073" lon="3.09255">
        <ele>983</ele>
        <time>2016-09-01T14:23:40Z</time>
      </trkpt>
      <trkpt lat="44.86081" lon="3.0926">
        <ele>983</ele>
        <time>2016-09-01T14:23:47Z</time>
      </trkpt>
      <trkpt lat="44.86082" lon="3.09261">
        <ele>983</ele>
        <time>2016-09-01T14:23:48Z</time>
      </trkpt>
      <trkpt lat="44.86089" lon="3.09268">
        <ele>983</ele>
        <time>2016-09-01T14:23:56Z</time>
      </trkpt>
      <trkpt lat="44.86089" lon="3.0927">
        <ele>983</ele>
        <time>2016-09-01T14:23:57Z</time>
      </trkpt>
      <trkpt lat="44.86095" lon="3.09279">
        <ele>983</ele>
        <time>2016-09-01T14:24:04Z</time>
      </trkpt>
      <trkpt lat="44.86096" lon="3.0928">
        <ele>983</ele>
        <time>2016-09-01T14:24:05Z</time>
      </trkpt>
      <trkpt lat="44.86103" lon="3.09287">
        <ele>983</ele>
        <time>2016-09-01T14:24:14Z</time>
      </trkpt>
      <trkpt lat="44.86104" lon="3.09287">
        <ele>983</ele>
        <time>2016-09-01T14:24:15Z</time>
      </trkpt>
      <trkpt lat="44.86112" lon="3.09292">
        <ele>983</ele>
        <time>2016-09-01T14:24:22Z</time>
      </trkpt>
      <trkpt lat="44.86113" lon="3.09293">
        <ele>983</ele>
        <time>2016-09-01T14:24:23Z</time>
      </trkpt>
      <trkpt lat="44.86121" lon="3.09294">
        <ele>983</ele>
        <time>2016-09-01T14:24:31Z</time>
      </trkpt>
      <trkpt lat="44.86122" lon="3.09293">
        <ele>983</ele>
        <time>2016-09-01T14:24:32Z</time>
      </trkpt>
      <trkpt lat="44.86129" lon="3.09289">
        <ele>983</ele>
        <time>2016-09-01T14:24:40Z</time>
      </trkpt>
      <trkpt lat="44.8613" lon="3.09288">
        <ele>983</ele>
        <time>2016-09-01T14:24:41Z</time>
      </trkpt>
      <trkpt lat="44.86138" lon="3.09284">
        <ele>983</ele>
        <time>2016-09-01T14:24:48Z</time>
      </trkpt>
      <trkpt lat="44.86139" lon="3.09284">
        <ele>983</ele>
        <time>2016-09-01T14:24:49Z</time>
      </trkpt>
      <trkpt lat="44.86146" lon="3.0928">
        <ele>983</ele>
        <time>2016-09-01T14:24:56Z</time>
      </trkpt>
      <trkpt lat="44.86147" lon="3.09279">
        <ele>983</ele>
        <time>2016-09-01T14:24:57Z</time>
      </trkpt>
      <trkpt lat="44.86155" lon="3.09274">
        <ele>982</ele>
        <time>2016-09-01T14:25:05Z</time>
      </trkpt>
      <trkpt lat="44.86156" lon="3.09274">
        <ele>982</ele>
        <time>2016-09-01T14:25:06Z</time>
      </trkpt>
      <trkpt lat="44.86163" lon="3.09268">
        <ele>982</ele>
        <time>2016-09-01T14:25:13Z</time>
      </trkpt>
      <trkpt lat="44.86165" lon="3.09267">
        <ele>982</ele>
        <time>2016-09-01T14:25:14Z</time>
      </trkpt>
      <trkpt lat="44.86173" lon="3.09263">
        <ele>981</ele>
        <time>2016-09-01T14:25:21Z</time>
      </trkpt>
      <trkpt lat="44.86174" lon="3.09262">
        <ele>981</ele>
        <time>2016-09-01T14:25:22Z</time>
      </trkpt>
      <trkpt lat="44.86181" lon="3.09256">
        <ele>981</ele>
        <time>2016-09-01T14:25:29Z</time>
      </trkpt>
      <trkpt lat="44.86181" lon="3.09255">
        <ele>981</ele>
        <time>2016-09-01T14:25:30Z</time>
      </trkpt>
      <trkpt lat="44.86189" lon="3.09248">
        <ele>979</ele>
        <time>2016-09-01T14:25:39Z</time>
      </trkpt>
      <trkpt lat="44.8619" lon="3.09247">
        <ele>979</ele>
        <time>2016-09-01T14:25:40Z</time>
      </trkpt>
      <trkpt lat="44.86197" lon="3.09244">
        <ele>979</ele>
        <time>2016-09-01T14:25:46Z</time>
      </trkpt>
      <trkpt lat="44.86198" lon="3.09243">
        <ele>979</ele>
        <time>2016-09-01T14:25:47Z</time>
      </trkpt>
      <trkpt lat="44.86206" lon="3.09238">
        <ele>978</ele>
        <time>2016-09-01T14:25:53Z</time>
      </trkpt>
      <trkpt lat="44.86207" lon="3.09237">
        <ele>978</ele>
        <time>2016-09-01T14:25:54Z</time>
      </trkpt>
      <trkpt lat="44.86214" lon="3.09231">
        <ele>978</ele>
        <time>2016-09-01T14:26:01Z</time>
      </trkpt>
      <trkpt lat="44.86215" lon="3.09231">
        <ele>978</ele>
        <time>2016-09-01T14:26:02Z</time>
      </trkpt>
      <trkpt lat="44.86222" lon="3.09225">
        <ele>978</ele>
        <time>2016-09-01T14:26:09Z</time>
      </trkpt>
      <trkpt lat="44.86223" lon="3.09224">
        <ele>978</ele>
        <time>2016-09-01T14:26:10Z</time>
      </trkpt>
      <trkpt lat="44.8623" lon="3.09217">
        <ele>977</ele>
        <time>2016-09-01T14:26:17Z</time>
      </trkpt>
      <trkpt lat="44.86231" lon="3.09216">
        <ele>977</ele>
        <time>2016-09-01T14:26:18Z</time>
      </trkpt>
      <trkpt lat="44.86238" lon="3.0921">
        <ele>977</ele>
        <time>2016-09-01T14:26:25Z</time>
      </trkpt>
      <trkpt lat="44.86239" lon="3.0921">
        <ele>977</ele>
        <time>2016-09-01T14:26:26Z</time>
      </trkpt>
      <trkpt lat="44.86246" lon="3.09204">
        <ele>977</ele>
        <time>2016-09-01T14:26:32Z</time>
      </trkpt>
      <trkpt lat="44.86246" lon="3.09203">
        <ele>977</ele>
        <time>2016-09-01T14:26:33Z</time>
      </trkpt>
      <trkpt lat="44.86253" lon="3.09195">
        <ele>973</ele>
        <time>2016-09-01T14:26:40Z</time>
      </trkpt>
      <trkpt lat="44.86254" lon="3.09194">
        <ele>973</ele>
        <time>2016-09-01T14:26:41Z</time>
      </trkpt>
      <trkpt lat="44.8626" lon="3.09187">
        <ele>973</ele>
        <time>2016-09-01T14:26:49Z</time>
      </trkpt>
      <trkpt lat="44.86261" lon="3.09186">
        <ele>973</ele>
        <time>2016-09-01T14:26:50Z</time>
      </trkpt>
      <trkpt lat="44.86267" lon="3.09179">
        <ele>973</ele>
        <time>2016-09-01T14:26:56Z</time>
      </trkpt>
      <trkpt lat="44.86269" lon="3.09178">
        <ele>973</ele>
        <time>2016-09-01T14:26:57Z</time>
      </trkpt>
      <trkpt lat="44.86273" lon="3.09167">
        <ele>973</ele>
        <time>2016-09-01T14:27:04Z</time>
      </trkpt>
      <trkpt lat="44.86273" lon="3.09166">
        <ele>975</ele>
        <time>2016-09-01T14:27:05Z</time>
      </trkpt>
      <trkpt lat="44.86277" lon="3.09156">
        <ele>975</ele>
        <time>2016-09-01T14:27:14Z</time>
      </trkpt>
      <trkpt lat="44.86277" lon="3.09155">
        <ele>975</ele>
        <time>2016-09-01T14:27:15Z</time>
      </trkpt>
      <trkpt lat="44.86283" lon="3.09148">
        <ele>976</ele>
        <time>2016-09-01T14:27:21Z</time>
      </trkpt>
      <trkpt lat="44.86285" lon="3.09147">
        <ele>976</ele>
        <time>2016-09-01T14:27:22Z</time>
      </trkpt>
      <trkpt lat="44.86292" lon="3.09143">
        <ele>975</ele>
        <time>2016-09-01T14:27:27Z</time>
      </trkpt>
      <trkpt lat="44.86294" lon="3.09142">
        <ele>975</ele>
        <time>2016-09-01T14:27:28Z</time>
      </trkpt>
      <trkpt lat="44.86301" lon="3.09139">
        <ele>975</ele>
        <time>2016-09-01T14:27:34Z</time>
      </trkpt>
      <trkpt lat="44.86303" lon="3.09139">
        <ele>975</ele>
        <time>2016-09-01T14:27:35Z</time>
      </trkpt>
      <trkpt lat="44.86312" lon="3.09137">
        <ele>975</ele>
        <time>2016-09-01T14:27:42Z</time>
      </trkpt>
      <trkpt lat="44.86313" lon="3.09137">
        <ele>975</ele>
        <time>2016-09-01T14:27:43Z</time>
      </trkpt>
      <trkpt lat="44.86321" lon="3.09133">
        <ele>975</ele>
        <time>2016-09-01T14:27:50Z</time>
      </trkpt>
      <trkpt lat="44.86322" lon="3.09133">
        <ele>975</ele>
        <time>2016-09-01T14:27:51Z</time>
      </trkpt>
      <trkpt lat="44.8633" lon="3.09131">
        <ele>975</ele>
        <time>2016-09-01T14:28:20Z</time>
      </trkpt>
      <trkpt lat="44.86331" lon="3.0913">
        <ele>975</ele>
        <time>2016-09-01T14:28:21Z</time>
      </trkpt>
      <trkpt lat="44.86339" lon="3.09127">
        <ele>972</ele>
        <time>2016-09-01T14:28:29Z</time>
      </trkpt>
      <trkpt lat="44.8634" lon="3.09127">
        <ele>972</ele>
        <time>2016-09-01T14:28:30Z</time>
      </trkpt>
      <trkpt lat="44.86348" lon="3.09123">
        <ele>972</ele>
        <time>2016-09-01T14:28:36Z</time>
      </trkpt>
      <trkpt lat="44.86349" lon="3.09123">
        <ele>972</ele>
        <time>2016-09-01T14:28:37Z</time>
      </trkpt>
      <trkpt lat="44.86357" lon="3.09119">
        <ele>972</ele>
        <time>2016-09-01T14:28:43Z</time>
      </trkpt>
      <trkpt lat="44.86358" lon="3.09119">
        <ele>972</ele>
        <time>2016-09-01T14:28:44Z</time>
      </trkpt>
      <trkpt lat="44.86367" lon="3.09116">
        <ele>972</ele>
        <time>2016-09-01T14:28:52Z</time>
      </trkpt>
      <trkpt lat="44.86368" lon="3.09115">
        <ele>972</ele>
        <time>2016-09-01T14:28:53Z</time>
      </trkpt>
      <trkpt lat="44.86377" lon="3.09112">
        <ele>971</ele>
        <time>2016-09-01T14:29:01Z</time>
      </trkpt>
      <trkpt lat="44.86378" lon="3.09111">
        <ele>971</ele>
        <time>2016-09-01T14:29:02Z</time>
      </trkpt>
      <trkpt lat="44.86387" lon="3.09109">
        <ele>971</ele>
        <time>2016-09-01T14:29:11Z</time>
      </trkpt>
      <trkpt lat="44.86388" lon="3.09108">
        <ele>971</ele>
        <time>2016-09-01T14:29:12Z</time>
      </trkpt>
      <trkpt lat="44.86395" lon="3.09102">
        <ele>971</ele>
        <time>2016-09-01T14:29:19Z</time>
      </trkpt>
      <trkpt lat="44.86396" lon="3.09101">
        <ele>971</ele>
        <time>2016-09-01T14:29:20Z</time>
      </trkpt>
      <trkpt lat="44.86404" lon="3.09099">
        <ele>970</ele>
        <time>2016-09-01T14:29:28Z</time>
      </trkpt>
      <trkpt lat="44.86405" lon="3.09099">
        <ele>970</ele>
        <time>2016-09-01T14:29:29Z</time>
      </trkpt>
      <trkpt lat="44.86413" lon="3.09097">
        <ele>970</ele>
        <time>2016-09-01T14:29:36Z</time>
      </trkpt>
      <trkpt lat="44.86415" lon="3.09096">
        <ele>970</ele>
        <time>2016-09-01T14:29:37Z</time>
      </trkpt>
      <trkpt lat="44.86423" lon="3.09094">
        <ele>970</ele>
        <time>2016-09-01T14:29:46Z</time>
      </trkpt>
      <trkpt lat="44.86424" lon="3.09095">
        <ele>970</ele>
        <time>2016-09-01T14:29:47Z</time>
      </trkpt>
      <trkpt lat="44.86432" lon="3.09097">
        <ele>970</ele>
        <time>2016-09-01T14:29:53Z</time>
      </trkpt>
      <trkpt lat="44.86433" lon="3.09098">
        <ele>970</ele>
        <time>2016-09-01T14:29:54Z</time>
      </trkpt>
      <trkpt lat="44.86439" lon="3.09105">
        <ele>970</ele>
        <time>2016-09-01T14:30:00Z</time>
      </trkpt>
      <trkpt lat="44.8644" lon="3.09106">
        <ele>970</ele>
        <time>2016-09-01T14:30:01Z</time>
      </trkpt>
      <trkpt lat="44.86447" lon="3.09113">
        <ele>970</ele>
        <time>2016-09-01T14:30:08Z</time>
      </trkpt>
      <trkpt lat="44.86448" lon="3.09114">
        <ele>970</ele>
        <time>2016-09-01T14:30:09Z</time>
      </trkpt>
      <trkpt lat="44.86454" lon="3.09123">
        <ele>970</ele>
        <time>2016-09-01T14:30:16Z</time>
      </trkpt>
      <trkpt lat="44.86455" lon="3.09124">
        <ele>970</ele>
        <time>2016-09-01T14:30:17Z</time>
      </trkpt>
      <trkpt lat="44.8646" lon="3.09133">
        <ele>970</ele>
        <time>2016-09-01T14:30:25Z</time>
      </trkpt>
      <trkpt lat="44.86461" lon="3.09134">
        <ele>970</ele>
        <time>2016-09-01T14:30:26Z</time>
      </trkpt>
      <trkpt lat="44.86467" lon="3.09142">
        <ele>971</ele>
        <time>2016-09-01T14:30:32Z</time>
      </trkpt>
      <trkpt lat="44.86469" lon="3.09143">
        <ele>971</ele>
        <time>2016-09-01T14:30:33Z</time>
      </trkpt>
      <trkpt lat="44.86475" lon="3.09148">
        <ele>971</ele>
        <time>2016-09-01T14:30:40Z</time>
      </trkpt>
      <trkpt lat="44.86477" lon="3.09149">
        <ele>971</ele>
        <time>2016-09-01T14:30:41Z</time>
      </trkpt>
      <trkpt lat="44.86484" lon="3.09155">
        <ele>972</ele>
        <time>2016-09-01T14:30:48Z</time>
      </trkpt>
      <trkpt lat="44.86485" lon="3.09156">
        <ele>972</ele>
        <time>2016-09-01T14:30:49Z</time>
      </trkpt>
      <trkpt lat="44.86492" lon="3.0916">
        <ele>972</ele>
        <time>2016-09-01T14:30:55Z</time>
      </trkpt>
      <trkpt lat="44.86493" lon="3.09162">
        <ele>972</ele>
        <time>2016-09-01T14:30:56Z</time>
      </trkpt>
      <trkpt lat="44.865" lon="3.09169">
        <ele>973</ele>
        <time>2016-09-01T14:31:05Z</time>
      </trkpt>
      <trkpt lat="44.86501" lon="3.0917">
        <ele>973</ele>
        <time>2016-09-01T14:31:06Z</time>
      </trkpt>
      <trkpt lat="44.86509" lon="3.09173">
        <ele>973</ele>
        <time>2016-09-01T14:31:14Z</time>
      </trkpt>
      <trkpt lat="44.8651" lon="3.09174">
        <ele>973</ele>
        <time>2016-09-01T14:31:15Z</time>
      </trkpt>
      <trkpt lat="44.86518" lon="3.09179">
        <ele>973</ele>
        <time>2016-09-01T14:31:22Z</time>
      </trkpt>
      <trkpt lat="44.86519" lon="3.09179">
        <ele>973</ele>
        <time>2016-09-01T14:31:23Z</time>
      </trkpt>
      <trkpt lat="44.86528" lon="3.09181">
        <ele>973</ele>
        <time>2016-09-01T14:31:31Z</time>
      </trkpt>
      <trkpt lat="44.86529" lon="3.09181">
        <ele>973</ele>
        <time>2016-09-01T14:31:32Z</time>
      </trkpt>
      <trkpt lat="44.86537" lon="3.09186">
        <ele>973</ele>
        <time>2016-09-01T14:31:41Z</time>
      </trkpt>
      <trkpt lat="44.86538" lon="3.09186">
        <ele>973</ele>
        <time>2016-09-01T14:31:42Z</time>
      </trkpt>
      <trkpt lat="44.86546" lon="3.09188">
        <ele>974</ele>
        <time>2016-09-01T14:31:50Z</time>
      </trkpt>
      <trkpt lat="44.86547" lon="3.09188">
        <ele>974</ele>
        <time>2016-09-01T14:31:51Z</time>
      </trkpt>
      <trkpt lat="44.86555" lon="3.09191">
        <ele>974</ele>
        <time>2016-09-01T14:32:05Z</time>
      </trkpt>
      <trkpt lat="44.86556" lon="3.09192">
        <ele>974</ele>
        <time>2016-09-01T14:32:06Z</time>
      </trkpt>
      <trkpt lat="44.86554" lon="3.09197">
        <ele>974</ele>
        <time>2016-09-01T14:37:52.373Z</time>
      </trkpt>
    </trkseg>
  </trk>
</gpx>